Darstellungsparameter: Aktuell verwendete Einstellungen:
Skalierung der Graphiken ... ?
xyx+y,   Skalierungsfaktor:      Skalierung: Modus: x, Faktor: 1
Darstellungszeitraum ... ?
Vom - - bis: - -   Zeitraum: 29.08.2008 - 28.09.2008
Min/Max/Avg-Anzeige ... ?
Zeige MMA aktuell
Zeige MMA Monat
Zeige MMA alles
Zeige --A aktuell
Zeige --A Monat
Zeige --A alles
Keine MMA-Anzeige
MMA:
Average (ber die Originaldaten)
MMA-Basis: 29.08.2008 - 28.09.2008
Quicknavigation für Darstellung... ?
Tage:      1T, 2T, 3T, 5T -1T -2T -3T -5T +1T +2T +3T +5T
Wochen: 1W, 2W, 3W -1W -2W -3W +1W +2W +3W
Monate: 1M, 3M, 6M -1M -3M -6M +1M +3M +6M
Jahre:    1J, 3J, 5J, 10J -1J -3J -5J -10J +1J +3J +5J +10J
Nutze für die Darstellung ... ?
Originaldaten oder Mittelwerte auf ...
Stundenbasis Tagesbasis Wochenbasis
Monatsbasis Jahresbasis      Datenbasis: Original-Daten
Darstellen als:
Statistik (Auto) Statistik J:M      Darstellung:
Zur Graphik,    zurück zur Übersicht aller Sensoren.
 
Tabellarische Datenbersicht: ?
 
Sensor: Nr:Datum:Temp:Abs-Feuchte:Windchill:Wind:
Aussen-T/F 1 29-08-2008 00:11:02 19 C 9.94 g/m*3 19 C 0 km/h
2 29-08-2008 00:23:02 18.9 C 10.04 g/m*3 18.9 C 0 km/h
3 29-08-2008 00:35:02 18.9 C 10.04 g/m*3 18.9 C 0 km/h
4 29-08-2008 00:47:02 18.9 C 10.04 g/m*3 18.9 C 0 km/h
5 29-08-2008 00:59:02 18.8 C 9.99 g/m*3 18.8 C 0 km/h
6 29-08-2008 01:11:02 18.8 C 9.99 g/m*3 18.8 C 0 km/h
7 29-08-2008 01:23:02 18.8 C 9.99 g/m*3 18.8 C 0 km/h
8 29-08-2008 01:35:02 18.7 C 9.93 g/m*3 18.7 C 0 km/h
9 29-08-2008 01:47:02 18.7 C 9.77 g/m*3 18.7 C 0 km/h
10 29-08-2008 01:59:02 18.6 C 9.71 g/m*3 18.6 C 0 km/h
11 29-08-2008 02:11:03 18.6 C 9.71 g/m*3 18.6 C 0 km/h
12 29-08-2008 02:23:03 18.5 C 9.65 g/m*3 18.5 C 0 km/h
13 29-08-2008 02:35:03 18.5 C 9.81 g/m*3 18.5 C 0 km/h
14 29-08-2008 02:47:03 18.5 C 9.49 g/m*3 18.5 C 0 km/h
15 29-08-2008 02:59:03 18.4 C 9.59 g/m*3 18.4 C 0 km/h
16 29-08-2008 03:11:03 18.4 C 9.91 g/m*3 18.4 C 0 km/h
17 29-08-2008 03:23:03 18.3 C 9.69 g/m*3 18.3 C 0 km/h
18 29-08-2008 03:35:03 18.2 C 9.64 g/m*3 18.2 C 0 km/h
19 29-08-2008 03:47:03 18.2 C 9.64 g/m*3 18.2 C 0 km/h
20 29-08-2008 03:59:03 18.1 C 9.58 g/m*3 18.1 C 0 km/h
21 29-08-2008 04:11:03 18.1 C 9.43 g/m*3 18.1 C 0 km/h
22 29-08-2008 04:23:03 18.1 C 9.58 g/m*3 18.1 C 0 km/h
23 29-08-2008 04:35:03 18.1 C 9.43 g/m*3 18.1 C 0 km/h
24 29-08-2008 04:47:03 18.1 C 9.43 g/m*3 18.1 C 0 km/h
25 29-08-2008 04:59:03 18.1 C 9.43 g/m*3 18.1 C 0 km/h
Sensor: Nr:Datum:Temp:Abs-Feuchte:Windchill:Wind:
Aussen-T/F 26 29-08-2008 05:11:03 18 C 9.22 g/m*3 18 C 0 km/h
27 29-08-2008 05:23:03 18 C 9.22 g/m*3 18 C 0 km/h
28 29-08-2008 05:35:03 17.9 C 9.31 g/m*3 17.9 C 0 km/h
29 29-08-2008 05:47:03 17.9 C 9.47 g/m*3 17.9 C 0 km/h
30 29-08-2008 05:59:04 17.9 C 9.31 g/m*3 17.9 C 0 km/h
31 29-08-2008 06:11:04 17.8 C 9.41 g/m*3 17.8 C 0 km/h
32 29-08-2008 06:23:04 17.8 C 9.41 g/m*3 17.8 C 0 km/h
33 29-08-2008 06:35:04 17.8 C 9.41 g/m*3 17.8 C 0 km/h
34 29-08-2008 06:47:04 17.8 C 9.41 g/m*3 17.8 C 0 km/h
35 29-08-2008 06:59:04 17.8 C 9.41 g/m*3 17.8 C 0 km/h
36 29-08-2008 07:11:04 17.8 C 9.56 g/m*3 17.8 C 0 km/h
37 29-08-2008 07:23:04 17.8 C 9.56 g/m*3 17.8 C 0 km/h
38 29-08-2008 07:35:04 17.8 C 9.56 g/m*3 17.8 C 0 km/h
39 29-08-2008 07:47:04 17.9 C 9.62 g/m*3 17.9 C 0 km/h
40 29-08-2008 07:59:04 17.9 C 9.47 g/m*3 17.9 C 0 km/h
41 29-08-2008 08:11:04 17.9 C 9.47 g/m*3 17.9 C 0 km/h
42 29-08-2008 08:23:02 18.1 C 9.43 g/m*3 18.1 C 0 km/h
43 29-08-2008 08:35:02 18.1 C 9.43 g/m*3 18.1 C 0 km/h
44 29-08-2008 08:47:01 18.1 C 9.58 g/m*3 18.1 C 0 km/h
45 29-08-2008 08:59:01 18.2 C 9.79 g/m*3 18.2 C 0 km/h
46 29-08-2008 09:11:02 18.3 C 9.85 g/m*3 18.3 C 0 km/h
47 29-08-2008 09:23:02 18.4 C 9.91 g/m*3 18.4 C 0 km/h
48 29-08-2008 09:35:02 18.5 C 9.97 g/m*3 18.5 C 0 km/h
49 29-08-2008 09:47:02 18.6 C 9.55 g/m*3 18.6 C 0 km/h
50 29-08-2008 09:59:02 18.9 C 9.72 g/m*3 18.9 C 0 km/h
Sensor: Nr:Datum:Temp:Abs-Feuchte:Windchill:Wind:
Aussen-T/F 51 29-08-2008 10:11:03 19.3 C 9.45 g/m*3 19.3 C 0 km/h
52 29-08-2008 10:23:02 19.6 C 9.45 g/m*3 19.6 C 0 km/h
53 29-08-2008 10:35:03 19.8 C 9.39 g/m*3 19.8 C 0 km/h
54 29-08-2008 10:47:02 20.4 C 9.38 g/m*3 20.4 C 0 km/h
55 29-08-2008 10:59:02 20.5 C 9.25 g/m*3 20.5 C 0 km/h
56 29-08-2008 11:11:01 20.7 C 9.36 g/m*3 20.7 C 0 km/h
57 29-08-2008 11:23:02 20.4 C 9.38 g/m*3 20.4 C 0 km/h
58 29-08-2008 11:35:02 20.5 C 9.25 g/m*3 20.5 C 0 km/h
59 29-08-2008 11:47:02 20.8 C 9.42 g/m*3 20.8 C 0 km/h
60 29-08-2008 11:59:02 21.3 C 9.51 g/m*3 21.3 C 0 km/h
61 29-08-2008 12:11:01 21 C 9.34 g/m*3 21 C 0 km/h
62 29-08-2008 12:23:02 21.1 C 9.4 g/m*3 21.1 C 0 km/h
63 29-08-2008 12:35:01 21.5 C 9.62 g/m*3 21.5 C 0 km/h
64 29-08-2008 12:47:02 21.8 C 9.59 g/m*3 21.8 C 0 km/h
65 29-08-2008 12:59:02 22.3 C 9.08 g/m*3 22.3 C 0 km/h
66 29-08-2008 13:11:01 23.1 C 9.1 g/m*3 23.1 C 0 km/h
67 29-08-2008 13:23:02 23.2 C 8.94 g/m*3 23.2 C 0 km/h
68 29-08-2008 13:35:01 23.3 C 8.78 g/m*3 23.3 C 0 km/h
69 29-08-2008 13:47:01 23.8 C 8.6 g/m*3 23.8 C 0 km/h
70 29-08-2008 13:59:01 23.4 C 8.83 g/m*3 23.4 C 0 km/h
71 29-08-2008 14:11:01 23.7 C 8.98 g/m*3 23.7 C 0 km/h
72 29-08-2008 14:23:01 24.5 C 8.95 g/m*3 24.5 C 0 km/h
73 29-08-2008 14:35:01 23.9 C 8.87 g/m*3 23.9 C 0 km/h
74 29-08-2008 14:47:01 24.1 C 8.97 g/m*3 24.1 C 0 km/h
75 29-08-2008 14:59:01 24.5 C 8.95 g/m*3 24.5 C 0 km/h
Sensor: Nr:Datum:Temp:Abs-Feuchte:Windchill:Wind:
Aussen-T/F 76 29-08-2008 15:11:02 24.1 C 8.53 g/m*3 24.1 C 0 km/h
77 29-08-2008 15:23:01 24.1 C 8.75 g/m*3 24.1 C 0 km/h
78 29-08-2008 15:35:02 24.6 C 8.78 g/m*3 24.6 C 0 km/h
79 29-08-2008 15:47:02 25.3 C 8.43 g/m*3 25.3 C 0 km/h
80 29-08-2008 15:59:02 25.7 C 8.62 g/m*3 25.7 C 0 km/h
81 29-08-2008 16:11:02 25.7 C 8.38 g/m*3 25.7 C 0 km/h
82 29-08-2008 16:23:02 25.7 C 8.62 g/m*3 25.7 C 0 km/h
83 29-08-2008 16:35:02 25 C 8.52 g/m*3 25 C 0 km/h
84 29-08-2008 16:47:01 24.7 C 9.05 g/m*3 24.7 C 0 km/h
85 29-08-2008 16:59:01 25.4 C 8.95 g/m*3 25.4 C 0 km/h
86 29-08-2008 17:11:01 26.1 C 8.32 g/m*3 26.1 C 0 km/h
87 29-08-2008 17:23:01 26 C 8.52 g/m*3 26 C 0 km/h
88 29-08-2008 17:35:01 27.4 C 8.42 g/m*3 27.4 C 0 km/h
89 29-08-2008 17:47:03 28.5 C 8.94 g/m*3 28.5 C 0 km/h
90 29-08-2008 17:59:03 28.1 C 8.75 g/m*3 28.1 C 0 km/h
91 29-08-2008 18:11:02 27.9 C 8.65 g/m*3 27.9 C 0 km/h
92 29-08-2008 18:23:03 27.3 C 8.63 g/m*3 27.3 C 0 km/h
93 29-08-2008 18:35:02 27.6 C 8.78 g/m*3 27.6 C 0 km/h
94 29-08-2008 18:47:02 28 C 8.7 g/m*3 28 C 0 km/h
95 29-08-2008 18:59:02 27.9 C 8.38 g/m*3 27.9 C 0 km/h
96 29-08-2008 19:11:03 26.7 C 8.1 g/m*3 26.7 C 0 km/h
97 29-08-2008 19:23:02 25.1 C 8.57 g/m*3 25.1 C 0 km/h
98 29-08-2008 19:35:03 24.9 C 9.16 g/m*3 24.9 C 0 km/h
99 29-08-2008 19:47:02 24.5 C 9.62 g/m*3 24.5 C 0 km/h
100 29-08-2008 19:59:03 23.7 C 9.63 g/m*3 23.7 C 0 km/h
Sensor: Nr:Datum:Temp:Abs-Feuchte:Windchill:Wind:
Aussen-T/F 101 29-08-2008 20:11:01 23.1 C 9.72 g/m*3 23.1 C 0 km/h
102 29-08-2008 20:23:02 22.3 C 10.07 g/m*3 22.3 C 0 km/h
103 29-08-2008 20:35:01 21.4 C 9.94 g/m*3 21.4 C 0 km/h
104 29-08-2008 20:47:02 20.7 C 10.08 g/m*3 20.7 C 0 km/h
105 29-08-2008 20:59:02 20.1 C 10.08 g/m*3 20.1 C 0 km/h
106 29-08-2008 21:11:01 19.8 C 10.42 g/m*3 19.8 C 0 km/h
107 29-08-2008 21:23:02 19.5 C 10.41 g/m*3 19.5 C 0 km/h
108 29-08-2008 21:35:01 19.3 C 10.45 g/m*3 19.3 C 0 km/h
109 29-08-2008 21:47:02 19.3 C 10.45 g/m*3 19.3 C 0 km/h
110 29-08-2008 21:59:02 19 C 10.43 g/m*3 19 C 0 km/h
111 29-08-2008 22:11:01 18.9 C 10.69 g/m*3 18.9 C 0 km/h
112 29-08-2008 22:24:01 18.8 C 10.79 g/m*3 18.8 C 0 km/h
113 29-08-2008 22:36:01 18.6 C 10.82 g/m*3 18.6 C 0 km/h
114 29-08-2008 22:48:01 18.5 C 10.76 g/m*3 18.5 C 0 km/h
115 29-08-2008 23:00:01 18.3 C 10.79 g/m*3 18.3 C 0 km/h
116 29-08-2008 23:12:01 18.1 C 10.82 g/m*3 18.1 C 0 km/h
117 29-08-2008 23:24:01 17.9 C 10.99 g/m*3 17.9 C 0 km/h
118 29-08-2008 23:36:02 17.7 C 11.01 g/m*3 17.7 C 0 km/h
119 29-08-2008 23:48:02 17.4 C 10.97 g/m*3 17.4 C 0 km/h
120 30-08-2008 00:00:02 17.2 C 10.84 g/m*3 17.2 C 0 km/h
121 30-08-2008 00:12:02 17.1 C 10.92 g/m*3 17.1 C 0 km/h
122 30-08-2008 00:24:02 16.9 C 10.93 g/m*3 16.9 C 0 km/h
123 30-08-2008 00:36:02 16.8 C 11.01 g/m*3 16.8 C 0 km/h
124 30-08-2008 00:48:02 16.6 C 10.88 g/m*3 16.6 C 0 km/h
125 30-08-2008 01:00:02 16.4 C 10.89 g/m*3 16.4 C 0 km/h
Sensor: Nr:Datum:Temp:Abs-Feuchte:Windchill:Wind:
Aussen-T/F 126 30-08-2008 01:12:02 16.3 C 10.82 g/m*3 16.3 C 0 km/h
127 30-08-2008 01:24:02 16.2 C 10.89 g/m*3 16.2 C 0 km/h
128 30-08-2008 01:36:02 16.1 C 10.83 g/m*3 16.1 C 0 km/h
129 30-08-2008 01:48:02 15.9 C 10.83 g/m*3 15.9 C 0 km/h
130 30-08-2008 02:00:02 15.8 C 10.77 g/m*3 15.8 C 0 km/h
131 30-08-2008 02:12:02 15.6 C 10.64 g/m*3 15.6 C 0 km/h
132 30-08-2008 02:24:02 15.5 C 10.71 g/m*3 15.5 C 0 km/h
133 30-08-2008 02:36:02 15.4 C 10.64 g/m*3 15.4 C 0 km/h
134 30-08-2008 02:48:02 15.4 C 10.64 g/m*3 15.4 C 0 km/h
135 30-08-2008 03:00:02 15.2 C 10.51 g/m*3 15.2 C 0 km/h
136 30-08-2008 03:12:02 15 C 10.39 g/m*3 15 C 0 km/h
137 30-08-2008 03:24:03 14.9 C 10.45 g/m*3 14.9 C 0 km/h
138 30-08-2008 03:36:03 14.7 C 10.45 g/m*3 14.7 C 0 km/h
139 30-08-2008 03:48:03 14.7 C 10.45 g/m*3 14.7 C 0 km/h
140 30-08-2008 04:00:03 14.7 C 10.45 g/m*3 14.7 C 0 km/h
141 30-08-2008 04:12:03 14.4 C 10.26 g/m*3 14.4 C 0 km/h
142 30-08-2008 04:24:03 14.4 C 10.26 g/m*3 14.4 C 0 km/h
143 30-08-2008 04:36:03 14.3 C 10.2 g/m*3 14.3 C 0 km/h
144 30-08-2008 04:48:03 14.4 C 10.26 g/m*3 14.4 C 0 km/h
145 30-08-2008 05:00:03 14.5 C 10.45 g/m*3 14.5 C 0 km/h
146 30-08-2008 05:12:03 14.5 C 10.45 g/m*3 14.5 C 0 km/h
147 30-08-2008 05:24:03 14.5 C 10.45 g/m*3 14.5 C 0 km/h
148 30-08-2008 05:36:03 14.5 C 10.45 g/m*3 14.5 C 0 km/h
149 30-08-2008 05:48:03 14 C 10.25 g/m*3 14 C 0 km/h
150 30-08-2008 06:00:03 14.5 C 10.57 g/m*3 14.5 C 0 km/h
Sensor: Nr:Datum:Temp:Abs-Feuchte:Windchill:Wind:
Aussen-T/F 151 30-08-2008 06:12:03 14.4 C 10.51 g/m*3 14.4 C 0 km/h
152 30-08-2008 06:24:03 14.3 C 10.57 g/m*3 14.3 C 0 km/h
153 30-08-2008 06:36:03 14.3 C 10.69 g/m*3 14.3 C 0 km/h
154 30-08-2008 06:48:03 14.4 C 10.88 g/m*3 14.4 C 0 km/h
155 30-08-2008 07:00:03 14.6 C 11.01 g/m*3 14.6 C 0 km/h
156 30-08-2008 07:12:04 14.6 C 10.89 g/m*3 14.6 C 0 km/h
157 30-08-2008 07:24:04 14.8 C 11.15 g/m*3 14.8 C 0 km/h
158 30-08-2008 07:36:04 14.9 C 11.09 g/m*3 14.9 C 0 km/h
159 30-08-2008 07:48:04 15.1 C 11.09 g/m*3 15.1 C 0 km/h
160 30-08-2008 08:00:04 15.2 C 11.03 g/m*3 15.2 C 0 km/h
161 30-08-2008 08:12:02 15.4 C 11.04 g/m*3 15.4 C 0 km/h
162 30-08-2008 08:24:01 15.5 C 10.97 g/m*3 15.5 C 0 km/h
163 30-08-2008 08:36:02 15.7 C 11.11 g/m*3 15.7 C 0 km/h
164 30-08-2008 08:48:02 15.8 C 11.04 g/m*3 15.8 C 0 km/h
165 30-08-2008 09:00:02 15.8 C 11.04 g/m*3 15.8 C 0 km/h
166 30-08-2008 09:12:02 16.1 C 11.1 g/m*3 16.1 C 0 km/h
167 30-08-2008 09:24:02 16.4 C 11.17 g/m*3 16.4 C 0 km/h
168 30-08-2008 09:36:02 16.8 C 11.29 g/m*3 16.8 C 0 km/h
169 30-08-2008 09:48:02 17.1 C 11.21 g/m*3 17.1 C 0 km/h
170 30-08-2008 10:00:02 17 C 11.29 g/m*3 17 C 0 km/h
171 30-08-2008 10:12:02 17.4 C 11.71 g/m*3 17.4 C 0 km/h
172 30-08-2008 10:24:02 17.9 C 11.76 g/m*3 17.9 C 0 km/h
173 30-08-2008 10:36:02 18.5 C 11.71 g/m*3 18.5 C 0 km/h
174 30-08-2008 10:48:02 19.1 C 11.8 g/m*3 19.1 C 0 km/h
175 30-08-2008 11:00:02 19.6 C 11.82 g/m*3 19.6 C 0 km/h
Sensor: Nr:Datum:Temp:Abs-Feuchte:Windchill:Wind:
Aussen-T/F 176 30-08-2008 11:12:01 20.2 C 11.19 g/m*3 20.2 C 0 km/h
177 30-08-2008 11:24:02 20.7 C 11.16 g/m*3 20.7 C 0 km/h
178 30-08-2008 11:36:02 21.2 C 10.93 g/m*3 21.2 C 0 km/h
179 30-08-2008 11:48:02 21.8 C 10.94 g/m*3 21.8 C 0 km/h
180 30-08-2008 12:00:02 22.4 C 10.92 g/m*3 22.4 C 0 km/h
181 30-08-2008 12:12:01 22.9 C 10.63 g/m*3 22.9 C 0 km/h
182 30-08-2008 12:24:02 23.5 C 10.79 g/m*3 23.5 C 0 km/h
183 30-08-2008 12:36:01 23.8 C 10.54 g/m*3 23.8 C 0 km/h
184 30-08-2008 12:48:02 24.1 C 10.06 g/m*3 24.1 C 0 km/h
185 30-08-2008 13:00:02 24.5 C 9.85 g/m*3 24.5 C 0 km/h
186 30-08-2008 13:12:02 25.1 C 9.95 g/m*3 25.1 C 0 km/h
187 30-08-2008 13:24:02 25.6 C 10 g/m*3 25.6 C 0 km/h
188 30-08-2008 13:36:03 26.1 C 9.55 g/m*3 26.1 C 0 km/h
189 30-08-2008 13:48:02 26.3 C 9.65 g/m*3 26.3 C 0 km/h
190 30-08-2008 14:00:02 26.9 C 9.47 g/m*3 26.9 C 0 km/h
191 30-08-2008 14:12:02 27.7 C 9.63 g/m*3 27.7 C 0 km/h
192 30-08-2008 14:24:02 28.4 C 9.45 g/m*3 28.4 C 0 km/h
193 30-08-2008 14:36:02 28.9 C 9.14 g/m*3 28.9 C 0 km/h
194 30-08-2008 14:48:02 29.3 C 8.76 g/m*3 29.3 C 0 km/h
195 30-08-2008 15:00:02 29.6 C 8.9 g/m*3 29.6 C 0 km/h
196 30-08-2008 15:12:02 30.3 C 8.94 g/m*3 30.3 C 0 km/h
197 30-08-2008 15:24:01 30.4 C 8.68 g/m*3 30.4 C 0 km/h
198 30-08-2008 15:36:02 30.4 C 8.37 g/m*3 30.4 C 0 km/h
199 30-08-2008 15:48:02 30.7 C 8.19 g/m*3 30.7 C 0 km/h
200 30-08-2008 16:00:02 31 C 8.32 g/m*3 31 C 0 km/h
Sensor: Nr:Datum:Temp:Abs-Feuchte:Windchill:Wind:
Aussen-T/F 201 30-08-2008 16:12:02 31.2 C 8.09 g/m*3 31.2 C 0 km/h
202 30-08-2008 16:24:02 31.2 C 7.76 g/m*3 31.2 C 0 km/h
203 30-08-2008 16:36:02 31.6 C 7.6 g/m*3 31.6 C 0 km/h
204 30-08-2008 16:48:02 31.9 C 7.39 g/m*3 31.9 C 0 km/h
205 30-08-2008 17:00:02 31.4 C 7.19 g/m*3 31.4 C 0 km/h
206 30-08-2008 17:12:02 31.7 C 7.31 g/m*3 31.7 C 0 km/h
207 30-08-2008 17:24:01 32.1 C 7.13 g/m*3 32.1 C 0 km/h
208 30-08-2008 17:36:02 32.1 C 6.79 g/m*3 32.1 C 0 km/h
209 30-08-2008 17:48:02 32.1 C 6.79 g/m*3 32.1 C 0 km/h
210 30-08-2008 18:00:02 32.2 C 6.82 g/m*3 32.2 C 0 km/h
211 30-08-2008 18:12:02 32.3 C 6.86 g/m*3 32.3 C 0 km/h
212 30-08-2008 18:24:02 32 C 6.75 g/m*3 32 C 0 km/h
213 30-08-2008 18:36:02 31.8 C 6.68 g/m*3 31.8 C 0 km/h
214 30-08-2008 18:48:02 31.7 C 7.31 g/m*3 31.7 C 0 km/h
215 30-08-2008 19:00:02 31.3 C 7.48 g/m*3 31.3 C 0 km/h
216 30-08-2008 19:12:02 31 C 8 g/m*3 31 C 0 km/h
217 30-08-2008 19:24:02 30.4 C 8.06 g/m*3 30.4 C 0 km/h
218 30-08-2008 19:36:02 29.4 C 8.51 g/m*3 29.4 C 0 km/h
219 30-08-2008 19:48:02 28.1 C 8.48 g/m*3 28.1 C 0 km/h
220 30-08-2008 20:00:02 26.5 C 8.76 g/m*3 26.5 C 0 km/h
221 30-08-2008 20:12:02 25.2 C 8.85 g/m*3 25.2 C 0 km/h
222 30-08-2008 20:24:02 24.3 C 9.07 g/m*3 24.3 C 0 km/h
223 30-08-2008 20:36:02 23.5 C 9.31 g/m*3 23.5 C 0 km/h
224 30-08-2008 20:48:02 23 C 9.25 g/m*3 23 C 0 km/h
225 30-08-2008 21:00:02 22.7 C 9.7 g/m*3 22.7 C 0 km/h
Sensor: Nr:Datum:Temp:Abs-Feuchte:Windchill:Wind:
Aussen-T/F 226 30-08-2008 21:12:03 22.6 C 9.64 g/m*3 22.6 C 0 km/h
227 30-08-2008 21:24:02 22.2 C 9.62 g/m*3 22.2 C 0 km/h
228 30-08-2008 21:36:03 22 C 9.51 g/m*3 22 C 0 km/h
229 30-08-2008 21:48:02 21.6 C 9.67 g/m*3 21.6 C 0 km/h
230 30-08-2008 22:00:02 21.4 C 9.75 g/m*3 21.4 C 0 km/h
231 30-08-2008 22:12:02 21.2 C 9.82 g/m*3 21.2 C 0 km/h
232 30-08-2008 22:24:02 21 C 9.71 g/m*3 21 C 0 km/h
233 30-08-2008 22:36:02 20.7 C 9.72 g/m*3 20.7 C 0 km/h
234 30-08-2008 22:48:02 20.4 C 9.73 g/m*3 20.4 C 0 km/h
235 30-08-2008 23:00:02 20.4 C 9.73 g/m*3 20.4 C 0 km/h
236 30-08-2008 23:12:01 20.1 C 9.73 g/m*3 20.1 C 0 km/h
237 30-08-2008 23:24:02 20 C 9.68 g/m*3 20 C 0 km/h
238 30-08-2008 23:36:01 19.6 C 9.62 g/m*3 19.6 C 0 km/h
239 30-08-2008 23:49:02 19.4 C 9.68 g/m*3 19.4 C 0 km/h
240 31-08-2008 00:01:02 19.2 C 9.73 g/m*3 19.2 C 0 km/h
241 31-08-2008 00:13:02 19.1 C 9.67 g/m*3 19.1 C 0 km/h
242 31-08-2008 00:25:02 18.8 C 9.82 g/m*3 18.8 C 0 km/h
243 31-08-2008 00:37:02 18.6 C 10.03 g/m*3 18.6 C 0 km/h
244 31-08-2008 00:49:02 18.4 C 9.75 g/m*3 18.4 C 0 km/h
245 31-08-2008 01:01:02 18.2 C 9.79 g/m*3 18.2 C 0 km/h
246 31-08-2008 01:13:02 18.1 C 9.73 g/m*3 18.1 C 0 km/h
247 31-08-2008 01:25:02 17.9 C 9.92 g/m*3 17.9 C 0 km/h
248 31-08-2008 01:37:02 17.7 C 9.81 g/m*3 17.7 C 0 km/h
249 31-08-2008 01:49:02 17.5 C 9.69 g/m*3 17.5 C 0 km/h
250 31-08-2008 02:01:02 17.4 C 10.08 g/m*3 17.4 C 0 km/h
Sensor: Nr:Datum:Temp:Abs-Feuchte:Windchill:Wind:
Aussen-T/F 251 31-08-2008 02:13:02 17.1 C 10.19 g/m*3 17.1 C 0 km/h
252 31-08-2008 02:25:02 16.9 C 10.07 g/m*3 16.9 C 0 km/h
253 31-08-2008 02:37:03 16.8 C 10.29 g/m*3 16.8 C 0 km/h
254 31-08-2008 02:49:03 16.6 C 10.03 g/m*3 16.6 C 0 km/h
255 31-08-2008 03:01:03 16.4 C 9.91 g/m*3 16.4 C 0 km/h
256 31-08-2008 03:13:03 16.1 C 9.6 g/m*3 16.1 C 0 km/h
257 31-08-2008 03:25:03 16 C 9.67 g/m*3 16 C 0 km/h
258 31-08-2008 03:37:03 15.9 C 9.89 g/m*3 15.9 C 0 km/h
259 31-08-2008 03:49:03 15.8 C 10.1 g/m*3 15.8 C 0 km/h
260 31-08-2008 04:01:03 15.6 C 9.97 g/m*3 15.6 C 0 km/h
261 31-08-2008 04:13:03 15.6 C 10.11 g/m*3 15.6 C 0 km/h
262 31-08-2008 04:25:03 15.4 C 10.12 g/m*3 15.4 C 0 km/h
263 31-08-2008 04:37:03 15.2 C 9.99 g/m*3 15.2 C 0 km/h
264 31-08-2008 04:49:03 15.1 C 9.93 g/m*3 15.1 C 0 km/h
265 31-08-2008 05:01:03 14.9 C 9.81 g/m*3 14.9 C 0 km/h
266 31-08-2008 05:13:03 14.8 C 9.88 g/m*3 14.8 C 0 km/h
267 31-08-2008 05:25:03 14.7 C 9.69 g/m*3 14.7 C 0 km/h
268 31-08-2008 05:37:03 14.5 C 9.58 g/m*3 14.5 C 0 km/h
269 31-08-2008 05:49:03 14.5 C 9.58 g/m*3 14.5 C 0 km/h
270 31-08-2008 06:01:03 14.3 C 9.46 g/m*3 14.3 C 0 km/h
271 31-08-2008 06:13:03 14.2 C 9.4 g/m*3 14.2 C 0 km/h
272 31-08-2008 06:25:04 14.1 C 9.47 g/m*3 14.1 C 0 km/h
273 31-08-2008 06:37:04 14 C 9.41 g/m*3 14 C 0 km/h
274 31-08-2008 06:49:04 13.9 C 9.59 g/m*3 13.9 C 0 km/h
275 31-08-2008 07:01:04 14 C 9.65 g/m*3 14 C 0 km/h
Sensor: Nr:Datum:Temp:Abs-Feuchte:Windchill:Wind:
Aussen-T/F 276 31-08-2008 07:13:04 14 C 9.53 g/m*3 14 C 0 km/h
277 31-08-2008 07:25:04 14 C 9.53 g/m*3 14 C 0 km/h
278 31-08-2008 07:37:04 14 C 9.65 g/m*3 14 C 0 km/h
279 31-08-2008 07:49:04 14.1 C 9.71 g/m*3 14.1 C 0 km/h
280 31-08-2008 08:01:04 14.2 C 9.77 g/m*3 14.2 C 0 km/h
281 31-08-2008 08:13:04 14.4 C 9.77 g/m*3 14.4 C 0 km/h
282 31-08-2008 08:25:04 14.5 C 9.83 g/m*3 14.5 C 0 km/h
283 31-08-2008 08:37:04 14.6 C 9.89 g/m*3 14.6 C 0 km/h
284 31-08-2008 08:49:01 14.7 C 9.95 g/m*3 14.7 C 0 km/h
285 31-08-2008 09:01:02 15 C 10 g/m*3 15 C 0 km/h
286 31-08-2008 09:13:02 15.4 C 10.12 g/m*3 15.4 C 0 km/h
287 31-08-2008 09:25:02 15.8 C 10.36 g/m*3 15.8 C 0 km/h
288 31-08-2008 09:37:02 16.5 C 10.39 g/m*3 16.5 C 0 km/h
289 31-08-2008 09:49:03 17.1 C 10.19 g/m*3 17.1 C 0 km/h
290 31-08-2008 10:01:02 17.7 C 10.11 g/m*3 17.7 C 0 km/h
291 31-08-2008 10:13:02 18.4 C 9.91 g/m*3 18.4 C 0 km/h
292 31-08-2008 10:25:02 19 C 9.94 g/m*3 19 C 0 km/h
293 31-08-2008 10:37:02 19.3 C 10.12 g/m*3 19.3 C 0 km/h
294 31-08-2008 10:49:03 20 C 10.02 g/m*3 20 C 0 km/h
295 31-08-2008 11:01:02 20.7 C 10.44 g/m*3 20.7 C 0 km/h
296 31-08-2008 11:13:02 21.4 C 10.12 g/m*3 21.4 C 0 km/h
297 31-08-2008 11:25:03 22.1 C 9.76 g/m*3 22.1 C 0 km/h
298 31-08-2008 11:37:02 22.8 C 9.55 g/m*3 22.8 C 0 km/h
299 31-08-2008 11:49:02 23.5 C 9.31 g/m*3 23.5 C 0 km/h
300 31-08-2008 12:01:02 24.1 C 9.63 g/m*3 24.1 C 0 km/h
Sensor: Nr:Datum:Temp:Abs-Feuchte:Windchill:Wind:
Aussen-T/F 301 31-08-2008 12:13:02 24.9 C 8.93 g/m*3 24.9 C 0 km/h
302 31-08-2008 12:25:02 25.3 C 8.43 g/m*3 25.3 C 0 km/h
303 31-08-2008 12:37:02 25.6 C 8.33 g/m*3 25.6 C 0 km/h
304 31-08-2008 12:49:01 26 C 7.79 g/m*3 26 C 0 km/h
305 31-08-2008 13:01:02 26.1 C 7.83 g/m*3 26.1 C 0 km/h
306 31-08-2008 13:13:02 26.6 C 8.31 g/m*3 26.6 C 0 km/h
307 31-08-2008 13:25:01 26.8 C 8.4 g/m*3 26.8 C 0 km/h
308 31-08-2008 13:37:02 27.9 C 8.65 g/m*3 27.9 C 0 km/h
309 31-08-2008 13:49:02 28.3 C 8.29 g/m*3 28.3 C 0 km/h
310 31-08-2008 14:01:02 28.7 C 8.48 g/m*3 28.7 C 0 km/h
311 31-08-2008 14:13:02 28.7 C 8.48 g/m*3 28.7 C 0 km/h
312 31-08-2008 14:25:02 29.7 C 8.65 g/m*3 29.7 C 0 km/h
313 31-08-2008 14:37:02 30.1 C 8.54 g/m*3 30.1 C 0 km/h
314 31-08-2008 14:49:02 30.3 C 8.32 g/m*3 30.3 C 0 km/h
315 31-08-2008 15:01:01 30.4 C 8.06 g/m*3 30.4 C 0 km/h
316 31-08-2008 15:13:01 30.5 C 8.1 g/m*3 30.5 C 0 km/h
317 31-08-2008 15:25:02 31 C 8 g/m*3 31 C 0 km/h
318 31-08-2008 15:37:01 31.2 C 7.76 g/m*3 31.2 C 0 km/h
319 31-08-2008 15:49:02 31.8 C 7.35 g/m*3 31.8 C 0 km/h
320 31-08-2008 16:01:01 31.8 C 7.68 g/m*3 31.8 C 0 km/h
321 31-08-2008 16:13:01 32 C 7.09 g/m*3 32 C 0 km/h
322 31-08-2008 16:25:02 32 C 7.43 g/m*3 32 C 0 km/h
323 31-08-2008 16:37:01 32.3 C 7.2 g/m*3 32.3 C 0 km/h
324 31-08-2008 16:49:01 31.5 C 7.89 g/m*3 31.5 C 0 km/h
325 31-08-2008 17:01:02 31.8 C 7.68 g/m*3 31.8 C 0 km/h
Sensor: Nr:Datum:Temp:Abs-Feuchte:Windchill:Wind:
Aussen-T/F 326 31-08-2008 17:13:02 31.4 C 8.17 g/m*3 31.4 C 0 km/h
327 31-08-2008 17:25:01 31.4 C 8.17 g/m*3 31.4 C 0 km/h
328 31-08-2008 17:37:02 31.6 C 8.26 g/m*3 31.6 C 0 km/h
329 31-08-2008 17:49:02 31.9 C 8.06 g/m*3 31.9 C 0 km/h
330 31-08-2008 18:01:02 32.4 C 7.59 g/m*3 32.4 C 0 km/h
331 31-08-2008 18:13:02 32.3 C 7.55 g/m*3 32.3 C 0 km/h
332 31-08-2008 18:25:02 32.4 C 7.59 g/m*3 32.4 C 0 km/h
333 31-08-2008 18:37:02 32.1 C 7.81 g/m*3 32.1 C 0 km/h
334 31-08-2008 18:49:02 31.9 C 8.39 g/m*3 31.9 C 0 km/h
335 31-08-2008 19:01:02 31.2 C 8.73 g/m*3 31.2 C 0 km/h
336 31-08-2008 19:13:02 30.9 C 9.23 g/m*3 30.9 C 0 km/h
337 31-08-2008 19:25:02 30.6 C 9.4 g/m*3 30.6 C 0 km/h
338 31-08-2008 19:37:02 29.5 C 10.03 g/m*3 29.5 C 0 km/h
339 31-08-2008 19:49:02 28.2 C 10.17 g/m*3 28.2 C 0 km/h
340 31-08-2008 20:01:02 27.1 C 10.35 g/m*3 27.1 C 0 km/h
341 31-08-2008 20:13:03 26.2 C 10.34 g/m*3 26.2 C 0 km/h
342 31-08-2008 20:25:01 25.5 C 10.65 g/m*3 25.5 C 0 km/h
343 31-08-2008 20:37:02 25 C 10.59 g/m*3 25 C 0 km/h
344 31-08-2008 20:49:02 24.9 C 10.99 g/m*3 24.9 C 0 km/h
345 31-08-2008 21:01:02 24.8 C 11.15 g/m*3 24.8 C 0 km/h
346 31-08-2008 21:13:02 24.5 C 11.19 g/m*3 24.5 C 0 km/h
347 31-08-2008 21:25:02 24.5 C 11.41 g/m*3 24.5 C 0 km/h
348 31-08-2008 21:37:02 24.4 C 11.35 g/m*3 24.4 C 0 km/h
349 31-08-2008 21:49:02 24.3 C 11.29 g/m*3 24.3 C 0 km/h
350 31-08-2008 22:01:01 24.1 C 11.38 g/m*3 24.1 C 0 km/h
Sensor: Nr:Datum:Temp:Abs-Feuchte:Windchill:Wind:
Aussen-T/F 351 31-08-2008 22:13:01 23.7 C 11.55 g/m*3 23.7 C 0 km/h
352 31-08-2008 22:25:02 23.3 C 11.71 g/m*3 23.3 C 0 km/h
353 31-08-2008 22:37:02 23 C 11.92 g/m*3 23 C 0 km/h
354 31-08-2008 22:49:03 23 C 11.92 g/m*3 23 C 0 km/h
355 31-08-2008 23:01:02 22.9 C 11.85 g/m*3 22.9 C 0 km/h
356 31-08-2008 23:13:02 22.6 C 11.85 g/m*3 22.6 C 0 km/h
357 31-08-2008 23:25:03 22.8 C 11.99 g/m*3 22.8 C 0 km/h
358 31-08-2008 23:37:02 22.5 C 11.78 g/m*3 22.5 C 0 km/h
359 31-08-2008 23:49:03 22.3 C 11.85 g/m*3 22.3 C 0 km/h
360 01-09-2008 00:02:02 22.1 C 11.71 g/m*3 22.1 C 0 km/h
361 01-09-2008 00:14:02 22.1 C 11.91 g/m*3 22.1 C 0 km/h
362 01-09-2008 00:26:02 22 C 12.03 g/m*3 22 C 0 km/h
363 01-09-2008 00:38:02 22.2 C 12.17 g/m*3 22.2 C 0 km/h
364 01-09-2008 00:50:02 22 C 12.03 g/m*3 22 C 0 km/h
365 01-09-2008 01:02:03 22 C 12.03 g/m*3 22 C 0 km/h
366 01-09-2008 01:14:03 21.9 C 12.16 g/m*3 21.9 C 0 km/h
367 01-09-2008 01:26:03 21.8 C 12.09 g/m*3 21.8 C 0 km/h
368 01-09-2008 01:38:03 21.7 C 12.02 g/m*3 21.7 C 0 km/h
369 01-09-2008 01:50:03 21.8 C 11.9 g/m*3 21.8 C 0 km/h
370 01-09-2008 02:02:03 21.6 C 11.76 g/m*3 21.6 C 0 km/h
371 01-09-2008 02:14:03 21.7 C 11.83 g/m*3 21.7 C 0 km/h
372 01-09-2008 02:26:03 21.7 C 11.83 g/m*3 21.7 C 0 km/h
373 01-09-2008 02:38:03 21.3 C 12.49 g/m*3 21.3 C 0 km/h
374 01-09-2008 02:50:03 20.8 C 12.86 g/m*3 20.8 C 0 km/h
375 01-09-2008 03:02:03 20.6 C 12.35 g/m*3 20.6 C 0 km/h
Sensor: Nr:Datum:Temp:Abs-Feuchte:Windchill:Wind:
Aussen-T/F 376 01-09-2008 03:14:03 20.7 C 11.88 g/m*3 20.7 C 0 km/h
377 01-09-2008 03:26:03 20.9 C 11.47 g/m*3 20.9 C 0 km/h
378 01-09-2008 03:38:03 20.9 C 11.66 g/m*3 20.9 C 0 km/h
379 01-09-2008 03:50:03 20.9 C 11.84 g/m*3 20.9 C 0 km/h
380 01-09-2008 04:02:03 20.8 C 11.77 g/m*3 20.8 C 0 km/h
381 01-09-2008 04:14:03 20.8 C 11.59 g/m*3 20.8 C 0 km/h
382 01-09-2008 04:26:03 20.8 C 11.77 g/m*3 20.8 C 0 km/h
383 01-09-2008 04:38:03 20.8 C 11.59 g/m*3 20.8 C 0 km/h
384 01-09-2008 04:50:04 20.2 C 11.89 g/m*3 20.2 C 0 km/h
385 01-09-2008 05:02:04 20 C 12.1 g/m*3 20 C 0 km/h
386 01-09-2008 05:14:04 19.4 C 12.68 g/m*3 19.4 C 0 km/h
387 01-09-2008 05:26:04 19.1 C 12.95 g/m*3 19.1 C 0 km/h
388 01-09-2008 05:38:04 18.8 C 13.21 g/m*3 18.8 C 0 km/h
389 01-09-2008 05:50:04 18.9 C 13.45 g/m*3 18.9 C 0 km/h
390 01-09-2008 06:02:04 19.1 C 13.44 g/m*3 19.1 C 0 km/h
391 01-09-2008 06:14:04 19.3 C 13.44 g/m*3 19.3 C 0 km/h
392 01-09-2008 06:26:04 19.3 C 13.1 g/m*3 19.3 C 0 km/h
393 01-09-2008 06:38:04 19.1 C 13.11 g/m*3 19.1 C 0 km/h
394 01-09-2008 06:50:04 18.9 C 13.28 g/m*3 18.9 C 0 km/h
395 01-09-2008 07:02:04 18.7 C 13.45 g/m*3 18.7 C 0 km/h
396 01-09-2008 07:14:04 18.6 C 13.53 g/m*3 18.6 C 0 km/h
397 01-09-2008 07:26:04 18.7 C 13.61 g/m*3 18.7 C 0 km/h
398 01-09-2008 07:38:04 18.8 C 13.69 g/m*3 18.8 C 0 km/h
399 01-09-2008 07:50:04 18.9 C 13.77 g/m*3 18.9 C 0 km/h
400 01-09-2008 08:02:04 18.9 C 13.45 g/m*3 18.9 C 0 km/h
Sensor: Nr:Datum:Temp:Abs-Feuchte:Windchill:Wind:
Aussen-T/F 401 01-09-2008 08:14:04 19.1 C 13.44 g/m*3 19.1 C 0 km/h
402 01-09-2008 08:26:04 19.3 C 13.44 g/m*3 19.3 C 0 km/h
403 01-09-2008 08:38:05 19.1 C 13.11 g/m*3 19.1 C 0 km/h
404 01-09-2008 08:50:05 19.2 C 13.36 g/m*3 19.2 C 0 km/h
405 01-09-2008 09:02:05 19.3 C 13.44 g/m*3 19.3 C 0 km/h
406 01-09-2008 09:14:05 19.3 C 13.44 g/m*3 19.3 C 0 km/h
407 01-09-2008 09:26:05 19.4 C 13.18 g/m*3 19.4 C 0 km/h
408 01-09-2008 09:38:03 20.7 C 13.14 g/m*3 20.7 C 0 km/h
409 01-09-2008 09:50:02 21.2 C 12.23 g/m*3 21.2 C 0 km/h
410 01-09-2008 10:02:01 21.5 C 11.88 g/m*3 21.5 C 0 km/h
411 01-09-2008 10:14:01 21.4 C 11.81 g/m*3 21.4 C 0 km/h
412 01-09-2008 10:26:02 21.2 C 11.68 g/m*3 21.2 C 0 km/h
413 01-09-2008 10:38:01 21.3 C 11.74 g/m*3 21.3 C 0 km/h
414 01-09-2008 10:50:01 21.7 C 11.45 g/m*3 21.7 C 0 km/h
415 01-09-2008 11:02:01 22.1 C 10.93 g/m*3 22.1 C 0 km/h
416 01-09-2008 11:14:01 22.4 C 10.53 g/m*3 22.4 C 0 km/h
417 01-09-2008 11:26:01 22.4 C 10.53 g/m*3 22.4 C 0 km/h
418 01-09-2008 11:38:01 22.6 C 10.45 g/m*3 22.6 C 0 km/h
419 01-09-2008 11:50:01 22.6 C 9.84 g/m*3 22.6 C 0 km/h
420 01-09-2008 12:02:02 22.6 C 9.84 g/m*3 22.6 C 0 km/h
421 01-09-2008 12:14:02 22.5 C 9.99 g/m*3 22.5 C 0 km/h
422 01-09-2008 12:26:01 21.4 C 9.56 g/m*3 21.4 C 0 km/h
423 01-09-2008 12:38:02 21.5 C 9.81 g/m*3 21.5 C 0 km/h
424 01-09-2008 12:50:02 21.5 C 9.81 g/m*3 21.5 C 0 km/h
425 01-09-2008 13:02:02 22 C 9.9 g/m*3 22 C 0 km/h
Sensor: Nr:Datum:Temp:Abs-Feuchte:Windchill:Wind:
Aussen-T/F 426 01-09-2008 13:14:02 22.6 C 10.04 g/m*3 22.6 C 0 km/h
427 01-09-2008 13:26:02 24.1 C 9.63 g/m*3 24.1 C 0 km/h
428 01-09-2008 13:38:02 24.1 C 7.66 g/m*3 24.1 C 0 km/h
429 01-09-2008 13:50:02 24 C 7.4 g/m*3 24 C 0 km/h
430 01-09-2008 14:02:03 24.9 C 7.32 g/m*3 24.9 C 0 km/h
431 01-09-2008 14:14:03 24.8 C 7.74 g/m*3 24.8 C 0 km/h
432 01-09-2008 14:26:02 24.5 C 7.39 g/m*3 24.5 C 0 km/h
433 01-09-2008 14:38:03 24.1 C 7.22 g/m*3 24.1 C 0 km/h
434 01-09-2008 14:50:02 23.7 C 7.49 g/m*3 23.7 C 0 km/h
435 01-09-2008 15:02:01 23.5 C 7.82 g/m*3 23.5 C 0 km/h
436 01-09-2008 15:14:01 23.5 C 8.04 g/m*3 23.5 C 0 km/h
437 01-09-2008 15:26:02 23.9 C 7.57 g/m*3 23.9 C 0 km/h
438 01-09-2008 15:38:01 23.5 C 7.19 g/m*3 23.5 C 0 km/h
439 01-09-2008 15:50:02 23.4 C 7.36 g/m*3 23.4 C 0 km/h
440 01-09-2008 16:02:01 23.4 C 7.15 g/m*3 23.4 C 0 km/h
441 01-09-2008 16:14:01 23.4 C 7.36 g/m*3 23.4 C 0 km/h
442 01-09-2008 16:26:02 23.2 C 7.07 g/m*3 23.2 C 0 km/h
443 01-09-2008 16:38:01 23.3 C 6.9 g/m*3 23.3 C 0 km/h
444 01-09-2008 16:50:02 23.3 C 6.9 g/m*3 23.3 C 0 km/h
445 01-09-2008 17:02:01 23.2 C 6.86 g/m*3 23.2 C 0 km/h
446 01-09-2008 17:14:01 23.1 C 6.82 g/m*3 23.1 C 0 km/h
447 01-09-2008 17:26:02 22.9 C 6.95 g/m*3 22.9 C 0 km/h
448 01-09-2008 17:38:01 22.8 C 7.11 g/m*3 22.8 C 0 km/h
449 01-09-2008 17:50:01 22.5 C 6.99 g/m*3 22.5 C 0 km/h
450 01-09-2008 18:02:01 22.5 C 6.99 g/m*3 22.5 C 0 km/h
Sensor: Nr:Datum:Temp:Abs-Feuchte:Windchill:Wind:
Aussen-T/F 451 01-09-2008 18:14:01 22.7 C 7.07 g/m*3 22.7 C 0 km/h
452 01-09-2008 18:26:02 22.6 C 6.83 g/m*3 22.6 C 0 km/h
453 01-09-2008 18:38:01 22 C 6.79 g/m*3 22 C 0 km/h
454 01-09-2008 18:50:01 21.9 C 7.33 g/m*3 21.9 C 0 km/h
455 01-09-2008 19:02:02 21.6 C 7.21 g/m*3 21.6 C 0 km/h
456 01-09-2008 19:14:03 21.4 C 7.31 g/m*3 21.4 C 0 km/h
457 01-09-2008 19:26:01 21.3 C 7.64 g/m*3 21.3 C 0 km/h
458 01-09-2008 19:38:02 21 C 7.69 g/m*3 21 C 0 km/h
459 01-09-2008 19:50:02 20.6 C 7.87 g/m*3 20.6 C 0 km/h
460 01-09-2008 20:02:02 20 C 7.95 g/m*3 20 C 0 km/h
461 01-09-2008 20:14:02 19.6 C 7.93 g/m*3 19.6 C 0 km/h
462 01-09-2008 20:26:02 19.5 C 8.06 g/m*3 19.5 C 0 km/h
463 01-09-2008 20:38:02 19.4 C 8.18 g/m*3 19.4 C 0 km/h
464 01-09-2008 20:50:02 19.4 C 8.18 g/m*3 19.4 C 0 km/h
465 01-09-2008 21:02:02 19.3 C 8.29 g/m*3 19.3 C 0 km/h
466 01-09-2008 21:14:02 18.9 C 8.26 g/m*3 18.9 C 0 km/h
467 01-09-2008 21:26:02 18.6 C 8.59 g/m*3 18.6 C 0 km/h
468 01-09-2008 21:38:02 18.2 C 8.39 g/m*3 18.2 C 0 km/h
469 01-09-2008 21:50:02 18 C 8.45 g/m*3 18 C 0 km/h
470 01-09-2008 22:02:02 17.9 C 8.55 g/m*3 17.9 C 0 km/h
471 01-09-2008 22:14:02 17.7 C 8.6 g/m*3 17.7 C 0 km/h
472 01-09-2008 22:27:03 17.5 C 8.65 g/m*3 17.5 C 0 km/h
473 01-09-2008 22:39:03 17.3 C 8.69 g/m*3 17.3 C 0 km/h
474 01-09-2008 22:51:03 17.3 C 8.69 g/m*3 17.3 C 0 km/h
475 01-09-2008 23:03:03 17.2 C 8.79 g/m*3 17.2 C 0 km/h
Sensor: Nr:Datum:Temp:Abs-Feuchte:Windchill:Wind:
Aussen-T/F 476 01-09-2008 23:15:03 17 C 8.83 g/m*3 17 C 0 km/h
477 01-09-2008 23:27:03 17 C 8.83 g/m*3 17 C 0 km/h
478 01-09-2008 23:39:03 16.9 C 9.06 g/m*3 16.9 C 0 km/h
479 01-09-2008 23:51:03 16.8 C 9.15 g/m*3 16.8 C 0 km/h
480 02-09-2008 00:03:03 16.7 C 9.1 g/m*3 16.7 C 0 km/h
481 02-09-2008 00:15:03 16.6 C 9.18 g/m*3 16.6 C 0 km/h
482 02-09-2008 00:27:03 16.6 C 9.18 g/m*3 16.6 C 0 km/h
483 02-09-2008 00:39:03 16.6 C 9.18 g/m*3 16.6 C 0 km/h
484 02-09-2008 00:51:03 16.4 C 9.21 g/m*3 16.4 C 0 km/h
485 02-09-2008 01:03:04 16 C 9.26 g/m*3 16 C 0 km/h
486 02-09-2008 01:15:04 15.9 C 9.48 g/m*3 15.9 C 0 km/h
487 02-09-2008 01:27:04 15.7 C 9.5 g/m*3 15.7 C 0 km/h
488 02-09-2008 01:39:04 15.6 C 9.44 g/m*3 15.6 C 0 km/h
489 02-09-2008 01:51:04 15.7 C 9.5 g/m*3 15.7 C 0 km/h
490 02-09-2008 02:03:04 15.6 C 9.44 g/m*3 15.6 C 0 km/h
491 02-09-2008 02:15:04 15.4 C 9.33 g/m*3 15.4 C 0 km/h
492 02-09-2008 02:27:04 15.1 C 9.29 g/m*3 15.1 C 0 km/h
493 02-09-2008 02:39:04 14.9 C 9.43 g/m*3 14.9 C 0 km/h
494 02-09-2008 02:51:04 14.7 C 9.44 g/m*3 14.7 C 0 km/h
495 02-09-2008 03:03:04 14.2 C 9.16 g/m*3 14.2 C 0 km/h
496 02-09-2008 03:15:04 14.3 C 9.34 g/m*3 14.3 C 0 km/h
497 02-09-2008 03:27:04 14.2 C 9.4 g/m*3 14.2 C 0 km/h
498 02-09-2008 03:39:04 14 C 9.41 g/m*3 14 C 0 km/h
499 02-09-2008 03:51:04 14 C 9.53 g/m*3 14 C 0 km/h
500 02-09-2008 04:03:04 14 C 9.53 g/m*3 14 C 0 km/h
Sensor: Nr:Datum:Temp:Abs-Feuchte:Windchill:Wind:
Aussen-T/F 501 02-09-2008 04:15:04 13.9 C 9.47 g/m*3 13.9 C 0 km/h
502 02-09-2008 04:27:04 13.8 C 9.41 g/m*3 13.8 C 0 km/h
503 02-09-2008 04:39:04 13.5 C 9.36 g/m*3 13.5 C 0 km/h
504 02-09-2008 04:51:04 13.4 C 9.3 g/m*3 13.4 C 0 km/h
505 02-09-2008 05:03:05 13.4 C 9.42 g/m*3 13.4 C 0 km/h
506 02-09-2008 05:15:05 13.3 C 9.36 g/m*3 13.3 C 0 km/h
507 02-09-2008 05:27:05 13.3 C 9.36 g/m*3 13.3 C 0 km/h
508 02-09-2008 05:39:05 13.2 C 9.42 g/m*3 13.2 C 0 km/h
509 02-09-2008 05:51:05 13 C 9.3 g/m*3 13 C 0 km/h
510 02-09-2008 06:03:05 12.9 C 9.35 g/m*3 12.9 C 0 km/h
511 02-09-2008 06:15:05 12.8 C 9.3 g/m*3 12.8 C 0 km/h
512 02-09-2008 06:27:05 12.6 C 9.18 g/m*3 12.6 C 0 km/h
513 02-09-2008 06:39:05 12.5 C 9.24 g/m*3 12.5 C 0 km/h
514 02-09-2008 06:51:05 12.4 C 9.18 g/m*3 12.4 C 0 km/h
515 02-09-2008 07:03:02 12.4 C 9.18 g/m*3 12.4 C 0 km/h
516 02-09-2008 07:15:02 12.4 C 9.18 g/m*3 12.4 C 0 km/h
517 02-09-2008 07:27:02 12.5 C 9.24 g/m*3 12.5 C 0 km/h
518 02-09-2008 07:39:02 12.6 C 9.29 g/m*3 12.6 C 0 km/h
519 02-09-2008 07:51:01 12.7 C 9.35 g/m*3 12.7 C 0 km/h
520 02-09-2008 08:03:02 12.8 C 9.52 g/m*3 12.8 C 0 km/h
521 02-09-2008 08:15:01 13.2 C 9.64 g/m*3 13.2 C 0 km/h
522 02-09-2008 08:27:01 14 C 10.01 g/m*3 14 C 0 km/h
523 02-09-2008 08:39:01 14.6 C 10.26 g/m*3 14.6 C 0 km/h
524 02-09-2008 08:51:01 14.8 C 10.01 g/m*3 14.8 C 0 km/h
525 02-09-2008 09:03:01 14.6 C 9.64 g/m*3 14.6 C 0 km/h
Sensor: Nr:Datum:Temp:Abs-Feuchte:Windchill:Wind:
Aussen-T/F 526 02-09-2008 09:15:02 14.8 C 9.88 g/m*3 14.8 C 0 km/h
527 02-09-2008 09:27:02 15.4 C 9.99 g/m*3 15.4 C 0 km/h
528 02-09-2008 09:39:01 16.4 C 9.91 g/m*3 16.4 C 0 km/h
529 02-09-2008 09:51:02 17.2 C 9.81 g/m*3 17.2 C 0 km/h
530 02-09-2008 10:03:02 17.8 C 10.02 g/m*3 17.8 C 0 km/h
531 02-09-2008 10:15:02 18.3 C 10.01 g/m*3 18.3 C 0 km/h
532 02-09-2008 10:27:02 18.6 C 9.87 g/m*3 18.6 C 0 km/h
533 02-09-2008 10:39:02 19 C 10.1 g/m*3 19 C 0 km/h
534 02-09-2008 10:51:02 19.5 C 10.07 g/m*3 19.5 C 0 km/h
535 02-09-2008 11:03:03 20 C 9.68 g/m*3 20 C 0 km/h
536 02-09-2008 11:15:02 20.3 C 9.15 g/m*3 20.3 C 0 km/h
537 02-09-2008 11:27:02 20.8 C 9.05 g/m*3 20.8 C 0 km/h
538 02-09-2008 11:39:03 21.6 C 8.91 g/m*3 21.6 C 0 km/h
539 02-09-2008 11:51:02 21.9 C 8.88 g/m*3 21.9 C 0 km/h
540 02-09-2008 12:03:02 21.9 C 8.88 g/m*3 21.9 C 0 km/h
541 02-09-2008 12:15:02 22 C 8.54 g/m*3 22 C 0 km/h
542 02-09-2008 12:27:02 22.7 C 8.49 g/m*3 22.7 C 0 km/h
543 02-09-2008 12:39:01 23 C 8.22 g/m*3 23 C 0 km/h
544 02-09-2008 12:51:02 23.4 C 8.41 g/m*3 23.4 C 0 km/h
545 02-09-2008 13:03:02 23.7 C 8.13 g/m*3 23.7 C 0 km/h
546 02-09-2008 13:15:02 23.5 C 7.61 g/m*3 23.5 C 0 km/h
547 02-09-2008 13:27:02 23.4 C 7.57 g/m*3 23.4 C 0 km/h
548 02-09-2008 13:39:02 23.6 C 7.66 g/m*3 23.6 C 0 km/h
549 02-09-2008 13:51:02 23.6 C 7.44 g/m*3 23.6 C 0 km/h
550 02-09-2008 14:03:02 24.8 C 7.74 g/m*3 24.8 C 0 km/h
Sensor: Nr:Datum:Temp:Abs-Feuchte:Windchill:Wind:
Aussen-T/F 551 02-09-2008 14:15:02 24.5 C 7.39 g/m*3 24.5 C 0 km/h
552 02-09-2008 14:27:02 25.1 C 7.18 g/m*3 25.1 C 0 km/h
553 02-09-2008 14:39:02 24.8 C 7.28 g/m*3 24.8 C 0 km/h
554 02-09-2008 14:51:02 25.2 C 7.22 g/m*3 25.2 C 0 km/h
555 02-09-2008 15:03:02 24.7 C 7.24 g/m*3 24.7 C 0 km/h
556 02-09-2008 15:15:01 25.5 C 7.34 g/m*3 25.5 C 0 km/h
557 02-09-2008 15:27:01 25.5 C 7.1 g/m*3 25.5 C 0 km/h
558 02-09-2008 15:39:02 25.7 C 7.42 g/m*3 25.7 C 0 km/h
559 02-09-2008 15:51:02 24.9 C 7.32 g/m*3 24.9 C 0 km/h
560 02-09-2008 16:03:02 24.8 C 7.06 g/m*3 24.8 C 0 km/h
561 02-09-2008 16:15:02 24.6 C 7.2 g/m*3 24.6 C 0 km/h
562 02-09-2008 16:27:03 24.4 C 7.12 g/m*3 24.4 C 0 km/h
563 02-09-2008 16:39:02 24.5 C 7.16 g/m*3 24.5 C 0 km/h
564 02-09-2008 16:51:02 24.1 C 7.22 g/m*3 24.1 C 0 km/h
565 02-09-2008 17:03:02 24 C 7.18 g/m*3 24 C 0 km/h
566 02-09-2008 17:15:02 24 C 7.4 g/m*3 24 C 0 km/h
567 02-09-2008 17:27:02 24.1 C 7.44 g/m*3 24.1 C 0 km/h
568 02-09-2008 17:39:01 25.1 C 7.64 g/m*3 25.1 C 0 km/h
569 02-09-2008 17:51:01 24.8 C 7.74 g/m*3 24.8 C 0 km/h
570 02-09-2008 18:03:02 24.3 C 7.75 g/m*3 24.3 C 0 km/h
571 02-09-2008 18:15:02 24.1 C 7.88 g/m*3 24.1 C 0 km/h
572 02-09-2008 18:27:02 23.9 C 8 g/m*3 23.9 C 0 km/h
573 02-09-2008 18:39:02 23.7 C 8.13 g/m*3 23.7 C 0 km/h
574 02-09-2008 18:51:01 23.6 C 7.87 g/m*3 23.6 C 0 km/h
575 02-09-2008 19:03:02 23.9 C 8 g/m*3 23.9 C 0 km/h
Sensor: Nr:Datum:Temp:Abs-Feuchte:Windchill:Wind:
Aussen-T/F 576 02-09-2008 19:15:01 23.7 C 8.13 g/m*3 23.7 C 0 km/h
577 02-09-2008 19:27:01 23.3 C 7.95 g/m*3 23.3 C 0 km/h
578 02-09-2008 19:39:02 22.8 C 8.13 g/m*3 22.8 C 0 km/h
579 02-09-2008 19:51:02 22.5 C 8.19 g/m*3 22.5 C 0 km/h
580 02-09-2008 20:03:02 22.3 C 8.29 g/m*3 22.3 C 0 km/h
581 02-09-2008 20:15:02 22.1 C 8.2 g/m*3 22.1 C 0 km/h
582 02-09-2008 20:27:02 22 C 8.15 g/m*3 22 C 0 km/h
583 02-09-2008 20:39:02 21.8 C 8.63 g/m*3 21.8 C 0 km/h
584 02-09-2008 20:51:01 21.6 C 8.53 g/m*3 21.6 C 0 km/h
585 02-09-2008 21:03:02 21.4 C 8.62 g/m*3 21.4 C 0 km/h
586 02-09-2008 21:15:01 21.2 C 8.71 g/m*3 21.2 C 0 km/h
587 02-09-2008 21:27:01 21.1 C 8.84 g/m*3 21.1 C 0 km/h
588 02-09-2008 21:39:02 20.9 C 8.92 g/m*3 20.9 C 0 km/h
589 02-09-2008 21:51:02 20.8 C 9.05 g/m*3 20.8 C 0 km/h
590 02-09-2008 22:03:01 20.7 C 9 g/m*3 20.7 C 0 km/h
591 02-09-2008 22:16:05 20.2 C 9.09 g/m*3 20.2 C 0 km/h
592 02-09-2008 22:28:05 20 C 8.99 g/m*3 20 C 0 km/h
593 02-09-2008 22:40:05 20 C 9.16 g/m*3 20 C 0 km/h
594 02-09-2008 22:52:05 20.3 C 9.15 g/m*3 20.3 C 0 km/h
595 02-09-2008 23:04:05 20.2 C 9.27 g/m*3 20.2 C 0 km/h
596 02-09-2008 23:16:05 20.2 C 9.27 g/m*3 20.2 C 0 km/h
597 02-09-2008 23:28:05 20.1 C 9.39 g/m*3 20.1 C 0 km/h
598 02-09-2008 23:40:05 20.2 C 9.44 g/m*3 20.2 C 0 km/h
599 02-09-2008 23:52:05 20.4 C 9.38 g/m*3 20.4 C 0 km/h
600 03-09-2008 00:04:05 20.7 C 9.36 g/m*3 20.7 C 0 km/h
Sensor: Nr:Datum:Temp:Abs-Feuchte:Windchill:Wind:
Aussen-T/F 601 03-09-2008 00:16:05 20.8 C 9.42 g/m*3 20.8 C 0 km/h
602 03-09-2008 00:28:05 20.4 C 9.73 g/m*3 20.4 C 0 km/h
603 03-09-2008 00:40:05 18.4 C 11.17 g/m*3 18.4 C 0 km/h
604 03-09-2008 00:52:06 18 C 11.83 g/m*3 18 C 0 km/h
605 03-09-2008 01:04:06 17.8 C 12.29 g/m*3 17.8 C 0 km/h
606 03-09-2008 01:16:06 18 C 12.44 g/m*3 18 C 0 km/h
607 03-09-2008 01:28:06 18.4 C 12.58 g/m*3 18.4 C 0 km/h
608 03-09-2008 01:40:06 18.5 C 12.5 g/m*3 18.5 C 0 km/h
609 03-09-2008 01:52:06 18.6 C 12.41 g/m*3 18.6 C 0 km/h
610 03-09-2008 02:04:06 18.6 C 12.26 g/m*3 18.6 C 0 km/h
611 03-09-2008 02:16:06 18.4 C 12.11 g/m*3 18.4 C 0 km/h
612 03-09-2008 02:28:06 18.4 C 11.95 g/m*3 18.4 C 0 km/h
613 03-09-2008 02:40:06 18.3 C 11.88 g/m*3 18.3 C 0 km/h
614 03-09-2008 02:52:06 18.3 C 11.73 g/m*3 18.3 C 0 km/h
615 03-09-2008 03:04:06 18.5 C 11.87 g/m*3 18.5 C 0 km/h
616 03-09-2008 03:16:06 18.6 C 11.78 g/m*3 18.6 C 0 km/h
617 03-09-2008 03:28:06 18.5 C 11.71 g/m*3 18.5 C 0 km/h
618 03-09-2008 03:40:06 17.5 C 12.37 g/m*3 17.5 C 0 km/h
619 03-09-2008 03:52:06 17 C 12.3 g/m*3 17 C 0 km/h
620 03-09-2008 04:04:06 16.6 C 12.29 g/m*3 16.6 C 0 km/h
621 03-09-2008 04:16:06 16.4 C 12.42 g/m*3 16.4 C 0 km/h
622 03-09-2008 04:28:06 16.2 C 12.27 g/m*3 16.2 C 0 km/h
623 03-09-2008 04:40:06 16.2 C 12.41 g/m*3 16.2 C 0 km/h
624 03-09-2008 04:52:06 16 C 12.26 g/m*3 16 C 0 km/h
625 03-09-2008 05:04:07 15.9 C 12.32 g/m*3 15.9 C 0 km/h
Sensor: Nr:Datum:Temp:Abs-Feuchte:Windchill:Wind:
Aussen-T/F 626 03-09-2008 05:16:07 15.9 C 12.46 g/m*3 15.9 C 0 km/h
627 03-09-2008 05:28:07 15.8 C 12.38 g/m*3 15.8 C 0 km/h
628 03-09-2008 05:40:07 15.8 C 12.38 g/m*3 15.8 C 0 km/h
629 03-09-2008 05:52:07 15.7 C 12.31 g/m*3 15.7 C 0 km/h
630 03-09-2008 06:04:02 15.6 C 12.37 g/m*3 15.6 C 0 km/h
631 03-09-2008 06:16:02 15.5 C 12.29 g/m*3 15.5 C 0 km/h
632 03-09-2008 06:28:02 15.5 C 12.29 g/m*3 15.5 C 0 km/h
633 03-09-2008 06:40:02 15.5 C 12.29 g/m*3 15.5 C 0 km/h
634 03-09-2008 06:52:02 15.4 C 12.22 g/m*3 15.4 C 0 km/h
635 03-09-2008 07:04:02 15.1 C 11.87 g/m*3 15.1 C 0 km/h
636 03-09-2008 07:16:02 14.8 C 11.53 g/m*3 14.8 C 0 km/h
637 03-09-2008 07:28:02 14.8 C 11.53 g/m*3 14.8 C 0 km/h
638 03-09-2008 07:40:02 14.9 C 11.6 g/m*3 14.9 C 0 km/h
639 03-09-2008 07:52:02 14.8 C 11.4 g/m*3 14.8 C 0 km/h
640 03-09-2008 08:04:02 15 C 10.9 g/m*3 15 C 0 km/h
641 03-09-2008 08:16:02 15.1 C 10.71 g/m*3 15.1 C 0 km/h
642 03-09-2008 08:28:02 15 C 10.51 g/m*3 15 C 0 km/h
643 03-09-2008 08:40:02 15.1 C 10.06 g/m*3 15.1 C 0 km/h
644 03-09-2008 08:52:01 15.2 C 9.99 g/m*3 15.2 C 0 km/h
645 03-09-2008 09:04:02 15.6 C 10.24 g/m*3 15.6 C 0 km/h
646 03-09-2008 09:16:01 15.9 C 10.16 g/m*3 15.9 C 0 km/h
647 03-09-2008 09:28:01 15.8 C 9.83 g/m*3 15.8 C 0 km/h
648 03-09-2008 09:40:02 16.1 C 10.01 g/m*3 16.1 C 0 km/h
649 03-09-2008 09:52:01 16.1 C 9.6 g/m*3 16.1 C 0 km/h
650 03-09-2008 10:04:01 16 C 9.26 g/m*3 16 C 0 km/h
Sensor: Nr:Datum:Temp:Abs-Feuchte:Windchill:Wind:
Aussen-T/F 651 03-09-2008 10:16:02 16.2 C 9.24 g/m*3 16.2 C 0 km/h
652 03-09-2008 10:28:02 16.6 C 9.04 g/m*3 16.6 C 0 km/h
653 03-09-2008 10:40:01 16.7 C 9.24 g/m*3 16.7 C 0 km/h
654 03-09-2008 10:52:01 16.6 C 8.9 g/m*3 16.6 C 0 km/h
655 03-09-2008 11:04:02 16.8 C 9.01 g/m*3 16.8 C 0 km/h
656 03-09-2008 11:16:01 16.6 C 8.9 g/m*3 16.6 C 0 km/h
657 03-09-2008 11:28:01 16.8 C 8.86 g/m*3 16.8 C 0 km/h
658 03-09-2008 11:40:02 16.6 C 8.9 g/m*3 16.6 C 0 km/h
659 03-09-2008 11:52:02 16.5 C 8.57 g/m*3 16.5 C 0 km/h
660 03-09-2008 12:04:02 16.7 C 8.67 g/m*3 16.7 C 0 km/h
661 03-09-2008 12:16:02 16.9 C 8.77 g/m*3 16.9 C 0 km/h
662 03-09-2008 12:28:02 17 C 9.55 g/m*3 17 C 0 km/h
663 03-09-2008 12:40:02 17.2 C 9.37 g/m*3 17.2 C 0 km/h
664 03-09-2008 12:52:01 17.5 C 8.65 g/m*3 17.5 C 0 km/h
665 03-09-2008 13:04:02 17.7 C 8.3 g/m*3 17.7 C 0 km/h
666 03-09-2008 13:16:01 17.4 C 8.45 g/m*3 17.4 C 0 km/h
667 03-09-2008 13:28:01 17.3 C 8.25 g/m*3 17.3 C 0 km/h
668 03-09-2008 13:40:02 17 C 8.39 g/m*3 17 C 0 km/h
669 03-09-2008 13:52:02 15.9 C 9.34 g/m*3 15.9 C 0 km/h
670 03-09-2008 14:04:02 14.9 C 9.94 g/m*3 14.9 C 0 km/h
671 03-09-2008 14:16:02 14.9 C 10.32 g/m*3 14.9 C 0 km/h
672 03-09-2008 14:28:03 14.4 C 10.01 g/m*3 14.4 C 0 km/h
673 03-09-2008 14:40:02 13.6 C 9.42 g/m*3 13.6 C 0 km/h
674 03-09-2008 14:52:02 13.6 C 9.65 g/m*3 13.6 C 0 km/h
675 03-09-2008 15:04:02 13.8 C 10.01 g/m*3 13.8 C 0 km/h
Sensor: Nr:Datum:Temp:Abs-Feuchte:Windchill:Wind:
Aussen-T/F 676 03-09-2008 15:16:02 13.9 C 10.19 g/m*3 13.9 C 0 km/h
677 03-09-2008 15:28:02 13.8 C 10.25 g/m*3 13.8 C 0 km/h
678 03-09-2008 15:40:02 13.8 C 10.13 g/m*3 13.8 C 0 km/h
679 03-09-2008 15:52:01 13.7 C 10.18 g/m*3 13.7 C 0 km/h
680 03-09-2008 16:04:02 13.7 C 10.18 g/m*3 13.7 C 0 km/h
681 03-09-2008 16:16:02 13.5 C 10.06 g/m*3 13.5 C 0 km/h
682 03-09-2008 16:28:02 13.7 C 10.3 g/m*3 13.7 C 0 km/h
683 03-09-2008 16:40:02 14 C 10.49 g/m*3 14 C 0 km/h
684 03-09-2008 16:52:02 14 C 10.49 g/m*3 14 C 0 km/h
685 03-09-2008 17:04:02 13.6 C 10.36 g/m*3 13.6 C 0 km/h
686 03-09-2008 17:16:02 13.5 C 10.29 g/m*3 13.5 C 0 km/h
687 03-09-2008 17:28:02 14 C 10.61 g/m*3 14 C 0 km/h
688 03-09-2008 17:40:02 13.9 C 10.67 g/m*3 13.9 C 0 km/h
689 03-09-2008 17:52:01 14.1 C 10.68 g/m*3 14.1 C 0 km/h
690 03-09-2008 18:04:02 13.9 C 10.67 g/m*3 13.9 C 0 km/h
691 03-09-2008 18:16:01 13.7 C 10.54 g/m*3 13.7 C 0 km/h
692 03-09-2008 18:28:01 13.7 C 10.54 g/m*3 13.7 C 0 km/h
693 03-09-2008 18:40:02 13.5 C 10.41 g/m*3 13.5 C 0 km/h
694 03-09-2008 18:52:02 13.4 C 10.35 g/m*3 13.4 C 0 km/h
695 03-09-2008 19:04:02 13.3 C 10.28 g/m*3 13.3 C 0 km/h
696 03-09-2008 19:16:02 13 C 9.98 g/m*3 13 C 0 km/h
697 03-09-2008 19:28:02 12.8 C 9.86 g/m*3 12.8 C 0 km/h
698 03-09-2008 19:40:02 12.8 C 9.97 g/m*3 12.8 C 0 km/h
699 03-09-2008 19:52:02 12.7 C 9.8 g/m*3 12.7 C 0 km/h
700 03-09-2008 20:04:01 12.8 C 9.97 g/m*3 12.8 C 0 km/h
Sensor: Nr:Datum:Temp:Abs-Feuchte:Windchill:Wind:
Aussen-T/F 701 03-09-2008 20:16:02 12.7 C 9.8 g/m*3 12.7 C 0 km/h
702 03-09-2008 20:28:02 12.5 C 9.57 g/m*3 12.5 C 0 km/h
703 03-09-2008 20:40:02 12.4 C 9.4 g/m*3 12.4 C 0 km/h
704 03-09-2008 20:52:02 12.4 C 9.4 g/m*3 12.4 C 0 km/h
705 03-09-2008 21:04:02 12.4 C 9.4 g/m*3 12.4 C 0 km/h
706 03-09-2008 21:16:01 12.2 C 9.28 g/m*3 12.2 C 0 km/h
707 03-09-2008 21:28:01 12.1 C 9.22 g/m*3 12.1 C 0 km/h
708 03-09-2008 21:40:02 12.1 C 9.22 g/m*3 12.1 C 0 km/h
709 03-09-2008 21:52:02 12.1 C 9.12 g/m*3 12.1 C 0 km/h
710 03-09-2008 22:04:02 12 C 9.06 g/m*3 12 C 0 km/h
711 03-09-2008 22:16:02 11.8 C 8.95 g/m*3 11.8 C 0 km/h
712 03-09-2008 22:28:02 11.7 C 8.89 g/m*3 11.7 C 0 km/h
713 03-09-2008 22:41:02 11.6 C 8.73 g/m*3 11.6 C 0 km/h
714 03-09-2008 22:53:02 11.5 C 8.68 g/m*3 11.5 C 0 km/h
715 03-09-2008 23:05:02 11.4 C 8.72 g/m*3 11.4 C 0 km/h
716 03-09-2008 23:17:02 11.3 C 8.77 g/m*3 11.3 C 0 km/h
717 03-09-2008 23:29:02 11.3 C 8.77 g/m*3 11.3 C 0 km/h
718 03-09-2008 23:41:02 11.4 C 8.83 g/m*3 11.4 C 0 km/h
719 03-09-2008 23:53:02 11.4 C 8.72 g/m*3 11.4 C 0 km/h
720 04-09-2008 00:05:02 11.2 C 8.51 g/m*3 11.2 C 0 km/h
721 04-09-2008 00:17:02 11.1 C 8.46 g/m*3 11.1 C 0 km/h
722 04-09-2008 00:29:02 11 C 8.51 g/m*3 11 C 0 km/h
723 04-09-2008 00:41:02 10.8 C 8.4 g/m*3 10.8 C 0 km/h
724 04-09-2008 00:53:02 10.5 C 8.34 g/m*3 10.5 C 0 km/h
725 04-09-2008 01:05:02 10.1 C 8.13 g/m*3 10.1 C 0 km/h
Sensor: Nr:Datum:Temp:Abs-Feuchte:Windchill:Wind:
Aussen-T/F 726 04-09-2008 01:17:02 10 C 8.17 g/m*3 10 C 0 km/h
727 04-09-2008 01:29:03 10.1 C 8.32 g/m*3 10.1 C 0 km/h
728 04-09-2008 01:41:03 10.1 C 8.32 g/m*3 10.1 C 0 km/h
729 04-09-2008 01:53:03 10.4 C 8.58 g/m*3 10.4 C 0 km/h
730 04-09-2008 02:05:03 10.4 C 8.48 g/m*3 10.4 C 0 km/h
731 04-09-2008 02:17:03 10.4 C 8.48 g/m*3 10.4 C 0 km/h
732 04-09-2008 02:29:03 10.3 C 8.33 g/m*3 10.3 C 0 km/h
733 04-09-2008 02:41:03 10.1 C 8.23 g/m*3 10.1 C 0 km/h
734 04-09-2008 02:53:03 10 C 8.17 g/m*3 10 C 0 km/h
735 04-09-2008 03:05:03 9.7 C 8.2 g/m*3 9.7 C 0 km/h
736 04-09-2008 03:17:03 9.6 C 8.15 g/m*3 9.6 C 0 km/h
737 04-09-2008 03:29:03 9.5 C 8.1 g/m*3 9.5 C 0 km/h
738 04-09-2008 03:41:03 9.5 C 8.19 g/m*3 9.5 C 0 km/h
739 04-09-2008 03:53:03 9.4 C 8.14 g/m*3 9.4 C 0 km/h
740 04-09-2008 04:05:03 9.4 C 8.14 g/m*3 9.4 C 0 km/h
741 04-09-2008 04:17:03 9.4 C 8.14 g/m*3 9.4 C 0 km/h
742 04-09-2008 04:29:03 9.4 C 8.14 g/m*3 9.4 C 0 km/h
743 04-09-2008 04:41:03 9.3 C 8.09 g/m*3 9.3 C 0 km/h
744 04-09-2008 04:53:03 9.2 C 8.04 g/m*3 9.2 C 0 km/h
745 04-09-2008 05:05:03 9.2 C 8.13 g/m*3 9.2 C 0 km/h
746 04-09-2008 05:17:03 9.2 C 8.13 g/m*3 9.2 C 0 km/h
747 04-09-2008 05:29:04 9.1 C 8.07 g/m*3 9.1 C 0 km/h
748 04-09-2008 05:41:04 9 C 8.02 g/m*3 9 C 0 km/h
749 04-09-2008 05:53:04 8.9 C 8.06 g/m*3 8.9 C 0 km/h
750 04-09-2008 06:05:04 8.7 C 7.96 g/m*3 8.7 C 0 km/h
Sensor: Nr:Datum:Temp:Abs-Feuchte:Windchill:Wind:
Aussen-T/F 751 04-09-2008 06:17:04 8.6 C 7.91 g/m*3 8.6 C 0 km/h
752 04-09-2008 06:29:04 8.5 C 7.85 g/m*3 8.5 C 0 km/h
753 04-09-2008 06:41:04 8.6 C 7.91 g/m*3 8.6 C 0 km/h
754 04-09-2008 06:53:04 8.8 C 8.09 g/m*3 8.8 C 0 km/h
755 04-09-2008 07:05:02 9.1 C 8.16 g/m*3 9.1 C 0 km/h
756 04-09-2008 07:17:01 9.3 C 8.27 g/m*3 9.3 C 0 km/h
757 04-09-2008 07:29:01 9.4 C 8.32 g/m*3 9.4 C 0 km/h
758 04-09-2008 07:41:02 9.5 C 8.37 g/m*3 9.5 C 0 km/h
759 04-09-2008 07:53:02 9.5 C 8.28 g/m*3 9.5 C 0 km/h
760 04-09-2008 08:05:02 9.5 C 8.28 g/m*3 9.5 C 0 km/h
761 04-09-2008 08:17:02 9.8 C 8.44 g/m*3 9.8 C 0 km/h
762 04-09-2008 08:29:02 9.9 C 8.5 g/m*3 9.9 C 0 km/h
763 04-09-2008 08:41:02 10.1 C 8.42 g/m*3 10.1 C 0 km/h
764 04-09-2008 08:53:01 10.4 C 8.58 g/m*3 10.4 C 0 km/h
765 04-09-2008 09:05:02 10.6 C 8.69 g/m*3 10.6 C 0 km/h
766 04-09-2008 09:17:01 10.8 C 8.8 g/m*3 10.8 C 0 km/h
767 04-09-2008 09:29:01 11.2 C 8.92 g/m*3 11.2 C 0 km/h
768 04-09-2008 09:41:02 12 C 9.06 g/m*3 12 C 0 km/h
769 04-09-2008 09:53:02 12.6 C 8.96 g/m*3 12.6 C 0 km/h
770 04-09-2008 10:05:02 13.5 C 8.54 g/m*3 13.5 C 0 km/h
771 04-09-2008 10:17:02 14 C 8.2 g/m*3 14 C 0 km/h
772 04-09-2008 10:29:02 14.5 C 8.21 g/m*3 14.5 C 0 km/h
773 04-09-2008 10:41:02 14.8 C 8.11 g/m*3 14.8 C 0 km/h
774 04-09-2008 10:53:02 14.7 C 7.93 g/m*3 14.7 C 0 km/h
775 04-09-2008 11:05:03 15.2 C 7.79 g/m*3 15.2 C 0 km/h
Sensor: Nr:Datum:Temp:Abs-Feuchte:Windchill:Wind:
Aussen-T/F 776 04-09-2008 11:17:02 14.5 C 7.59 g/m*3 14.5 C 0 km/h
777 04-09-2008 11:29:02 14.5 C 7.59 g/m*3 14.5 C 0 km/h
778 04-09-2008 11:41:03 14.7 C 7.68 g/m*3 14.7 C 0 km/h
779 04-09-2008 11:53:02 15.6 C 7.58 g/m*3 15.6 C 0 km/h
780 04-09-2008 12:05:02 16.2 C 7.45 g/m*3 16.2 C 0 km/h
781 04-09-2008 12:17:02 16.4 C 7.54 g/m*3 16.4 C 0 km/h
782 04-09-2008 12:29:02 16.6 C 7.63 g/m*3 16.6 C 0 km/h
783 04-09-2008 12:41:02 17.1 C 7.42 g/m*3 17.1 C 0 km/h
784 04-09-2008 12:53:02 16.8 C 7.58 g/m*3 16.8 C 0 km/h
785 04-09-2008 13:05:01 17.2 C 7.32 g/m*3 17.2 C 0 km/h
786 04-09-2008 13:17:02 17.6 C 7.5 g/m*3 17.6 C 0 km/h
787 04-09-2008 13:29:03 17.7 C 7.24 g/m*3 17.7 C 0 km/h
788 04-09-2008 13:41:01 18 C 7.07 g/m*3 18 C 0 km/h
789 04-09-2008 13:53:03 17.2 C 6.88 g/m*3 17.2 C 0 km/h
790 04-09-2008 14:05:02 17.1 C 6.84 g/m*3 17.1 C 0 km/h
791 04-09-2008 14:17:02 17.2 C 6.74 g/m*3 17.2 C 0 km/h
792 04-09-2008 14:29:02 17.2 C 6.59 g/m*3 17.2 C 0 km/h
793 04-09-2008 14:41:02 17.2 C 6.59 g/m*3 17.2 C 0 km/h
794 04-09-2008 14:53:03 17.1 C 6.55 g/m*3 17.1 C 0 km/h
795 04-09-2008 15:05:02 17.5 C 6.86 g/m*3 17.5 C 0 km/h
796 04-09-2008 15:17:02 17.6 C 6.75 g/m*3 17.6 C 0 km/h
797 04-09-2008 15:29:02 17.4 C 6.52 g/m*3 17.4 C 0 km/h
798 04-09-2008 15:41:02 18 C 6.45 g/m*3 18 C 0 km/h
799 04-09-2008 15:53:02 19 C 6.52 g/m*3 19 C 0 km/h
800 04-09-2008 16:05:02 19.9 C 6.53 g/m*3 19.9 C 0 km/h
Sensor: Nr:Datum:Temp:Abs-Feuchte:Windchill:Wind:
Aussen-T/F 801 04-09-2008 16:17:02 18.8 C 6.28 g/m*3 18.8 C 0 km/h
802 04-09-2008 16:29:02 18.6 C 6.05 g/m*3 18.6 C 0 km/h
803 04-09-2008 16:41:03 19.2 C 6.27 g/m*3 19.2 C 0 km/h
804 04-09-2008 16:53:02 19 C 5.87 g/m*3 19 C 0 km/h
805 04-09-2008 17:05:02 19.8 C 5.81 g/m*3 19.8 C 0 km/h
806 04-09-2008 17:17:02 20 C 5.88 g/m*3 20 C 0 km/h
807 04-09-2008 17:29:02 19.8 C 5.81 g/m*3 19.8 C 0 km/h
808 04-09-2008 17:41:02 19.6 C 5.91 g/m*3 19.6 C 0 km/h
809 04-09-2008 17:53:02 19.3 C 5.81 g/m*3 19.3 C 0 km/h
810 04-09-2008 18:05:01 19.3 C 6.14 g/m*3 19.3 C 0 km/h
811 04-09-2008 18:17:01 19.1 C 5.9 g/m*3 19.1 C 0 km/h
812 04-09-2008 18:29:01 18.8 C 6.12 g/m*3 18.8 C 0 km/h
813 04-09-2008 18:41:01 18.3 C 5.94 g/m*3 18.3 C 0 km/h
814 04-09-2008 18:53:02 17.8 C 6.07 g/m*3 17.8 C 0 km/h
815 04-09-2008 19:05:02 17.7 C 6.34 g/m*3 17.7 C 0 km/h
816 04-09-2008 19:17:02 17.3 C 6.33 g/m*3 17.3 C 0 km/h
817 04-09-2008 19:29:02 16.8 C 6.58 g/m*3 16.8 C 0 km/h
818 04-09-2008 19:41:02 16.5 C 6.88 g/m*3 16.5 C 0 km/h
819 04-09-2008 19:53:03 16.1 C 6.99 g/m*3 16.1 C 0 km/h
820 04-09-2008 20:05:02 15.6 C 7.31 g/m*3 15.6 C 0 km/h
821 04-09-2008 20:17:02 15.2 C 7.4 g/m*3 15.2 C 0 km/h
822 04-09-2008 20:29:02 14.9 C 7.52 g/m*3 14.9 C 0 km/h
823 04-09-2008 20:41:02 14.7 C 7.3 g/m*3 14.7 C 0 km/h
824 04-09-2008 20:53:02 14.3 C 7.13 g/m*3 14.3 C 0 km/h
825 04-09-2008 21:05:02 14.3 C 7.13 g/m*3 14.3 C 0 km/h
Sensor: Nr:Datum:Temp:Abs-Feuchte:Windchill:Wind:
Aussen-T/F 826 04-09-2008 21:17:02 14.4 C 7.17 g/m*3 14.4 C 0 km/h
827 04-09-2008 21:29:02 14.7 C 6.8 g/m*3 14.7 C 0 km/h
828 04-09-2008 21:41:02 14.7 C 6.92 g/m*3 14.7 C 0 km/h
829 04-09-2008 21:54:03 14.4 C 7.05 g/m*3 14.4 C 0 km/h
830 04-09-2008 22:06:03 14.4 C 7.29 g/m*3 14.4 C 0 km/h
831 04-09-2008 22:18:03 14.3 C 7.37 g/m*3 14.3 C 0 km/h
832 04-09-2008 22:30:03 14.2 C 7.57 g/m*3 14.2 C 0 km/h
833 04-09-2008 22:42:03 14 C 7.72 g/m*3 14 C 0 km/h
834 04-09-2008 22:54:03 14 C 7.84 g/m*3 14 C 0 km/h
835 04-09-2008 23:06:03 13.9 C 8.03 g/m*3 13.9 C 0 km/h
836 04-09-2008 23:18:03 13.9 C 8.15 g/m*3 13.9 C 0 km/h
837 04-09-2008 23:30:03 13.8 C 8.34 g/m*3 13.8 C 0 km/h
838 04-09-2008 23:42:03 13.8 C 8.34 g/m*3 13.8 C 0 km/h
839 04-09-2008 23:54:04 13.8 C 8.34 g/m*3 13.8 C 0 km/h
840 05-09-2008 00:06:04 13.8 C 8.34 g/m*3 13.8 C 0 km/h
841 05-09-2008 00:18:04 13.7 C 8.29 g/m*3 13.7 C 0 km/h
842 05-09-2008 00:30:04 13.6 C 8.36 g/m*3 13.6 C 0 km/h
843 05-09-2008 00:42:04 13.6 C 8.47 g/m*3 13.6 C 0 km/h
844 05-09-2008 00:54:04 13.3 C 8.55 g/m*3 13.3 C 0 km/h
845 05-09-2008 01:06:04 13.2 C 8.84 g/m*3 13.2 C 0 km/h
846 05-09-2008 01:18:04 13.2 C 8.96 g/m*3 13.2 C 0 km/h
847 05-09-2008 01:30:04 13.3 C 9.01 g/m*3 13.3 C 0 km/h
848 05-09-2008 01:42:04 13.3 C 9.01 g/m*3 13.3 C 0 km/h
849 05-09-2008 01:54:04 13.2 C 8.84 g/m*3 13.2 C 0 km/h
850 05-09-2008 02:06:04 13.2 C 8.84 g/m*3 13.2 C 0 km/h
Sensor: Nr:Datum:Temp:Abs-Feuchte:Windchill:Wind:
Aussen-T/F 851 05-09-2008 02:18:04 13.3 C 8.9 g/m*3 13.3 C 0 km/h
852 05-09-2008 02:30:04 13.2 C 8.84 g/m*3 13.2 C 0 km/h
853 05-09-2008 02:42:04 13.2 C 8.96 g/m*3 13.2 C 0 km/h
854 05-09-2008 02:54:04 13 C 8.96 g/m*3 13 C 0 km/h
855 05-09-2008 03:06:04 13 C 9.19 g/m*3 13 C 0 km/h
856 05-09-2008 03:18:04 13 C 9.19 g/m*3 13 C 0 km/h
857 05-09-2008 03:30:04 12.8 C 9.3 g/m*3 12.8 C 0 km/h
858 05-09-2008 03:42:04 12.7 C 9.35 g/m*3 12.7 C 0 km/h
859 05-09-2008 03:54:04 12.7 C 9.46 g/m*3 12.7 C 0 km/h
860 05-09-2008 04:06:05 12.8 C 9.52 g/m*3 12.8 C 0 km/h
861 05-09-2008 04:18:05 12.7 C 9.46 g/m*3 12.7 C 0 km/h
862 05-09-2008 04:30:05 12.5 C 9.35 g/m*3 12.5 C 0 km/h
863 05-09-2008 04:42:05 12.3 C 9.23 g/m*3 12.3 C 0 km/h
864 05-09-2008 04:54:05 12.1 C 9.22 g/m*3 12.1 C 0 km/h
865 05-09-2008 05:06:05 12.1 C 9.22 g/m*3 12.1 C 0 km/h
866 05-09-2008 05:18:05 12.1 C 9.22 g/m*3 12.1 C 0 km/h
867 05-09-2008 05:30:05 12.3 C 9.45 g/m*3 12.3 C 0 km/h
868 05-09-2008 05:42:05 12.3 C 9.45 g/m*3 12.3 C 0 km/h
869 05-09-2008 05:54:05 12.4 C 9.29 g/m*3 12.4 C 0 km/h
870 05-09-2008 06:06:05 12.3 C 9.23 g/m*3 12.3 C 0 km/h
871 05-09-2008 06:18:05 12.4 C 9.29 g/m*3 12.4 C 0 km/h
872 05-09-2008 06:30:05 12.5 C 9.35 g/m*3 12.5 C 0 km/h
873 05-09-2008 06:42:05 12.8 C 9.63 g/m*3 12.8 C 0 km/h
874 05-09-2008 06:54:05 13 C 9.53 g/m*3 13 C 0 km/h
875 05-09-2008 07:06:04 13.1 C 9.47 g/m*3 13.1 C 0 km/h
Sensor: Nr:Datum:Temp:Abs-Feuchte:Windchill:Wind:
Aussen-T/F 876 05-09-2008 07:18:04 13 C 9.41 g/m*3 13 C 0 km/h
877 05-09-2008 07:30:04 13 C 9.41 g/m*3 13 C 0 km/h
878 05-09-2008 07:42:04 13.4 C 9.65 g/m*3 13.4 C 0 km/h
879 05-09-2008 07:54:03 13.4 C 9.53 g/m*3 13.4 C 0 km/h
880 05-09-2008 08:06:02 13.5 C 9.59 g/m*3 13.5 C 0 km/h
881 05-09-2008 08:18:02 13.6 C 9.53 g/m*3 13.6 C 0 km/h
882 05-09-2008 08:30:03 13.5 C 9.59 g/m*3 13.5 C 0 km/h
883 05-09-2008 08:42:02 13.4 C 9.53 g/m*3 13.4 C 0 km/h
884 05-09-2008 08:54:02 13.4 C 9.65 g/m*3 13.4 C 0 km/h
885 05-09-2008 09:06:02 13.7 C 9.95 g/m*3 13.7 C 0 km/h
886 05-09-2008 09:18:02 14.3 C 10.2 g/m*3 14.3 C 0 km/h
887 05-09-2008 09:30:02 15.2 C 9.99 g/m*3 15.2 C 0 km/h
888 05-09-2008 09:42:03 15.8 C 10.23 g/m*3 15.8 C 0 km/h
889 05-09-2008 09:54:02 16.4 C 10.05 g/m*3 16.4 C 0 km/h
890 05-09-2008 10:06:03 16.7 C 9.95 g/m*3 16.7 C 0 km/h
891 05-09-2008 10:18:02 17.2 C 9.81 g/m*3 17.2 C 0 km/h
892 05-09-2008 10:30:02 17.6 C 9.75 g/m*3 17.6 C 0 km/h
893 05-09-2008 10:42:02 17.8 C 9.71 g/m*3 17.8 C 0 km/h
894 05-09-2008 10:54:02 18.1 C 9.58 g/m*3 18.1 C 0 km/h
895 05-09-2008 11:06:02 18.3 C 9.38 g/m*3 18.3 C 0 km/h
896 05-09-2008 11:18:01 18.3 C 9.54 g/m*3 18.3 C 0 km/h
897 05-09-2008 11:30:01 18.5 C 9.65 g/m*3 18.5 C 0 km/h
898 05-09-2008 11:42:02 19.4 C 9.84 g/m*3 19.4 C 0 km/h
899 05-09-2008 11:54:02 19.8 C 9.57 g/m*3 19.8 C 0 km/h
900 05-09-2008 12:06:03 20.1 C 9.56 g/m*3 20.1 C 0 km/h
Sensor: Nr:Datum:Temp:Abs-Feuchte:Windchill:Wind:
Aussen-T/F 901 05-09-2008 12:18:02 19.9 C 9.62 g/m*3 19.9 C 0 km/h
902 05-09-2008 12:30:02 21.1 C 9.58 g/m*3 21.1 C 0 km/h
903 05-09-2008 12:42:02 21.4 C 9.56 g/m*3 21.4 C 0 km/h
904 05-09-2008 12:54:02 21.2 C 9.45 g/m*3 21.2 C 0 km/h
905 05-09-2008 13:06:01 21.2 C 9.45 g/m*3 21.2 C 0 km/h
906 05-09-2008 13:18:02 22.1 C 9.56 g/m*3 22.1 C 0 km/h
907 05-09-2008 13:30:03 22.5 C 9.79 g/m*3 22.5 C 0 km/h
908 05-09-2008 13:42:01 22.5 C 9.79 g/m*3 22.5 C 0 km/h
909 05-09-2008 13:54:02 21.9 C 9.84 g/m*3 21.9 C 0 km/h
910 05-09-2008 14:06:01 22.3 C 9.68 g/m*3 22.3 C 0 km/h
911 05-09-2008 14:18:02 22.2 C 9.82 g/m*3 22.2 C 0 km/h
912 05-09-2008 14:30:02 22.1 C 9.96 g/m*3 22.1 C 0 km/h
913 05-09-2008 14:42:01 21.9 C 10.03 g/m*3 21.9 C 0 km/h
914 05-09-2008 14:54:02 21.6 C 10.24 g/m*3 21.6 C 0 km/h
915 05-09-2008 15:06:02 20.9 C 10.2 g/m*3 20.9 C 0 km/h
916 05-09-2008 15:18:02 20.8 C 10.5 g/m*3 20.8 C 0 km/h
917 05-09-2008 15:30:02 20.8 C 10.5 g/m*3 20.8 C 0 km/h
918 05-09-2008 15:42:02 20.9 C 10.56 g/m*3 20.9 C 0 km/h
919 05-09-2008 15:54:01 21.2 C 10.56 g/m*3 21.2 C 0 km/h
920 05-09-2008 16:06:02 21.7 C 10.68 g/m*3 21.7 C 0 km/h
921 05-09-2008 16:18:01 22.1 C 10.35 g/m*3 22.1 C 0 km/h
922 05-09-2008 16:30:01 22 C 10.48 g/m*3 22 C 0 km/h
923 05-09-2008 16:42:02 22.1 C 10.54 g/m*3 22.1 C 0 km/h
924 05-09-2008 16:54:02 22.6 C 10.65 g/m*3 22.6 C 0 km/h
925 05-09-2008 17:06:01 22.5 C 10.99 g/m*3 22.5 C 0 km/h
Sensor: Nr:Datum:Temp:Abs-Feuchte:Windchill:Wind:
Aussen-T/F 926 05-09-2008 17:18:02 21.8 C 10.74 g/m*3 21.8 C 0 km/h
927 05-09-2008 17:30:02 21.9 C 10.81 g/m*3 21.9 C 0 km/h
928 05-09-2008 17:42:02 21.7 C 10.49 g/m*3 21.7 C 0 km/h
929 05-09-2008 17:54:03 21.6 C 10.43 g/m*3 21.6 C 0 km/h
930 05-09-2008 18:06:02 21.6 C 10.62 g/m*3 21.6 C 0 km/h
931 05-09-2008 18:18:03 21.6 C 10.81 g/m*3 21.6 C 0 km/h
932 05-09-2008 18:30:03 21.5 C 10.94 g/m*3 21.5 C 0 km/h
933 05-09-2008 18:42:02 21.4 C 10.87 g/m*3 21.4 C 0 km/h
934 05-09-2008 18:54:02 21.5 C 11.13 g/m*3 21.5 C 0 km/h
935 05-09-2008 19:06:02 21.5 C 11.13 g/m*3 21.5 C 0 km/h
936 05-09-2008 19:18:02 21 C 11.36 g/m*3 21 C 0 km/h
937 05-09-2008 19:30:02 20 C 11.92 g/m*3 20 C 0 km/h
938 05-09-2008 19:42:02 19.5 C 12.25 g/m*3 19.5 C 0 km/h
939 05-09-2008 19:54:01 18.1 C 11.43 g/m*3 18.1 C 0 km/h
940 05-09-2008 20:06:02 17.2 C 12.15 g/m*3 17.2 C 0 km/h
941 05-09-2008 20:18:01 17 C 12.3 g/m*3 17 C 0 km/h
942 05-09-2008 20:30:01 16.9 C 12.66 g/m*3 16.9 C 0 km/h
943 05-09-2008 20:42:02 16.9 C 12.8 g/m*3 16.9 C 0 km/h
944 05-09-2008 20:54:02 16.9 C 12.94 g/m*3 16.9 C 0 km/h
945 05-09-2008 21:06:02 16.9 C 12.94 g/m*3 16.9 C 0 km/h
946 05-09-2008 21:18:02 16.9 C 13.09 g/m*3 16.9 C 0 km/h
947 05-09-2008 21:30:02 17 C 13.17 g/m*3 17 C 0 km/h
948 05-09-2008 21:42:02 17 C 13.17 g/m*3 17 C 0 km/h
949 05-09-2008 21:54:02 17.1 C 13.39 g/m*3 17.1 C 0 km/h
950 05-09-2008 22:06:02 17.1 C 13.39 g/m*3 17.1 C 0 km/h
Sensor: Nr:Datum:Temp:Abs-Feuchte:Windchill:Wind:
Aussen-T/F 951 05-09-2008 22:19:02 17.1 C 13.39 g/m*3 17.1 C 0 km/h
952 05-09-2008 22:31:02 17.2 C 13.62 g/m*3 17.2 C 0 km/h
953 05-09-2008 22:43:02 17.2 C 13.62 g/m*3 17.2 C 0 km/h
954 05-09-2008 22:55:02 17.1 C 13.54 g/m*3 17.1 C 0 km/h
955 05-09-2008 23:07:02 17 C 13.46 g/m*3 17 C 0 km/h
956 05-09-2008 23:19:02 16.9 C 13.52 g/m*3 16.9 C 0 km/h
957 05-09-2008 23:31:02 16.8 C 13.44 g/m*3 16.8 C 0 km/h
958 05-09-2008 23:43:03 16.8 C 13.44 g/m*3 16.8 C 0 km/h
959 05-09-2008 23:55:03 16.7 C 13.36 g/m*3 16.7 C 0 km/h
960 06-09-2008 00:07:03 16.5 C 13.2 g/m*3 16.5 C 0 km/h
961 06-09-2008 00:19:03 16.4 C 13.12 g/m*3 16.4 C 0 km/h
962 06-09-2008 00:31:03 16.4 C 13.12 g/m*3 16.4 C 0 km/h
963 06-09-2008 00:43:03 16.4 C 13.12 g/m*3 16.4 C 0 km/h
964 06-09-2008 00:55:03 16.4 C 13.26 g/m*3 16.4 C 0 km/h
965 06-09-2008 01:07:03 16.1 C 12.88 g/m*3 16.1 C 0 km/h
966 06-09-2008 01:19:03 16 C 12.81 g/m*3 16 C 0 km/h
967 06-09-2008 01:31:03 15.9 C 12.87 g/m*3 15.9 C 0 km/h
968 06-09-2008 01:43:03 15.7 C 12.71 g/m*3 15.7 C 0 km/h
969 06-09-2008 01:55:03 15.6 C 12.63 g/m*3 15.6 C 0 km/h
970 06-09-2008 02:07:03 15.6 C 12.63 g/m*3 15.6 C 0 km/h
971 06-09-2008 02:19:03 15.7 C 12.71 g/m*3 15.7 C 0 km/h
972 06-09-2008 02:31:03 15.7 C 12.71 g/m*3 15.7 C 0 km/h
973 06-09-2008 02:43:03 15.7 C 12.71 g/m*3 15.7 C 0 km/h
974 06-09-2008 02:55:03 15.7 C 12.71 g/m*3 15.7 C 0 km/h
975 06-09-2008 03:07:03 15.6 C 12.5 g/m*3 15.6 C 0 km/h
Sensor: Nr:Datum:Temp:Abs-Feuchte:Windchill:Wind:
Aussen-T/F 976 06-09-2008 03:19:03 15.6 C 12.5 g/m*3 15.6 C 0 km/h
977 06-09-2008 03:31:04 15.6 C 12.5 g/m*3 15.6 C 0 km/h
978 06-09-2008 03:43:04 15.6 C 12.5 g/m*3 15.6 C 0 km/h
979 06-09-2008 03:55:04 15.5 C 12.56 g/m*3 15.5 C 0 km/h
980 06-09-2008 04:07:04 15.5 C 12.56 g/m*3 15.5 C 0 km/h
981 06-09-2008 04:19:04 15.5 C 12.56 g/m*3 15.5 C 0 km/h
982 06-09-2008 04:31:04 15.4 C 12.48 g/m*3 15.4 C 0 km/h
983 06-09-2008 04:43:04 15.4 C 12.48 g/m*3 15.4 C 0 km/h
984 06-09-2008 04:55:04 15.2 C 12.33 g/m*3 15.2 C 0 km/h
985 06-09-2008 05:07:04 15.2 C 12.33 g/m*3 15.2 C 0 km/h
986 06-09-2008 05:19:04 15.2 C 12.33 g/m*3 15.2 C 0 km/h
987 06-09-2008 05:31:04 15.3 C 12.41 g/m*3 15.3 C 0 km/h
988 06-09-2008 05:43:04 15.3 C 12.41 g/m*3 15.3 C 0 km/h
989 06-09-2008 05:55:04 15.4 C 12.48 g/m*3 15.4 C 0 km/h
990 06-09-2008 06:07:04 15.6 C 12.63 g/m*3 15.6 C 0 km/h
991 06-09-2008 06:19:04 15.7 C 12.71 g/m*3 15.7 C 0 km/h
992 06-09-2008 06:31:04 15.8 C 12.79 g/m*3 15.8 C 0 km/h
993 06-09-2008 06:43:04 15.8 C 12.79 g/m*3 15.8 C 0 km/h
994 06-09-2008 06:55:04 15.7 C 12.71 g/m*3 15.7 C 0 km/h
995 06-09-2008 07:07:04 15.8 C 12.79 g/m*3 15.8 C 0 km/h
996 06-09-2008 07:19:05 15.7 C 12.71 g/m*3 15.7 C 0 km/h
997 06-09-2008 07:31:05 16 C 12.81 g/m*3 16 C 0 km/h
998 06-09-2008 07:43:05 16.2 C 12.82 g/m*3 16.2 C 0 km/h
999 06-09-2008 07:55:05 16.3 C 12.62 g/m*3 16.3 C 0 km/h
1000 06-09-2008 08:07:02 16.3 C 12.35 g/m*3 16.3 C 0 km/h
Sensor: Nr:Datum:Temp:Abs-Feuchte:Windchill:Wind:
Aussen-T/F 1001 06-09-2008 08:19:02 16.3 C 12.35 g/m*3 16.3 C 0 km/h
1002 06-09-2008 08:31:02 16.6 C 12.57 g/m*3 16.6 C 0 km/h
1003 06-09-2008 08:43:02 17 C 12.44 g/m*3 17 C 0 km/h
1004 06-09-2008 08:55:02 17.1 C 12.23 g/m*3 17.1 C 0 km/h
1005 06-09-2008 09:07:03 17.4 C 12.45 g/m*3 17.4 C 0 km/h
1006 06-09-2008 09:19:02 18 C 12.13 g/m*3 18 C 0 km/h
1007 06-09-2008 09:31:02 18.5 C 12.02 g/m*3 18.5 C 0 km/h
1008 06-09-2008 09:43:02 18.5 C 11.71 g/m*3 18.5 C 0 km/h
1009 06-09-2008 09:55:02 19.1 C 11.47 g/m*3 19.1 C 0 km/h
1010 06-09-2008 10:07:02 19.5 C 11.24 g/m*3 19.5 C 0 km/h
1011 06-09-2008 10:19:02 19.6 C 10.97 g/m*3 19.6 C 0 km/h
1012 06-09-2008 10:31:02 20.2 C 10.84 g/m*3 20.2 C 0 km/h
1013 06-09-2008 10:43:02 20 C 10.54 g/m*3 20 C 0 km/h
1014 06-09-2008 10:55:02 20.3 C 10.73 g/m*3 20.3 C 0 km/h
1015 06-09-2008 11:07:01 20.4 C 10.61 g/m*3 20.4 C 0 km/h
1016 06-09-2008 11:19:01 20.9 C 10.56 g/m*3 20.9 C 0 km/h
1017 06-09-2008 11:31:02 20.9 C 10.38 g/m*3 20.9 C 0 km/h
1018 06-09-2008 11:43:02 21.3 C 10.25 g/m*3 21.3 C 0 km/h
1019 06-09-2008 11:55:02 21.7 C 10.3 g/m*3 21.7 C 0 km/h
1020 06-09-2008 12:07:02 21.2 C 10.01 g/m*3 21.2 C 0 km/h
1021 06-09-2008 12:19:02 21.3 C 10.25 g/m*3 21.3 C 0 km/h
1022 06-09-2008 12:31:02 21 C 9.89 g/m*3 21 C 0 km/h
1023 06-09-2008 12:43:02 20.8 C 10.14 g/m*3 20.8 C 0 km/h
1024 06-09-2008 12:55:02 20.8 C 10.32 g/m*3 20.8 C 0 km/h
1025 06-09-2008 13:07:02 20.8 C 10.32 g/m*3 20.8 C 0 km/h
Sensor: Nr:Datum:Temp:Abs-Feuchte:Windchill:Wind:
Aussen-T/F 1026 06-09-2008 13:19:02 20.8 C 9.6 g/m*3 20.8 C 0 km/h
1027 06-09-2008 13:31:02 20.9 C 9.47 g/m*3 20.9 C 0 km/h
1028 06-09-2008 13:43:02 20.8 C 9.6 g/m*3 20.8 C 0 km/h
1029 06-09-2008 13:55:01 20.6 C 9.66 g/m*3 20.6 C 0 km/h
1030 06-09-2008 14:07:02 20.3 C 9.5 g/m*3 20.3 C 0 km/h
1031 06-09-2008 14:19:02 20.4 C 9.38 g/m*3 20.4 C 0 km/h
1032 06-09-2008 14:31:02 20.2 C 9.79 g/m*3 20.2 C 0 km/h
1033 06-09-2008 14:43:02 20 C 9.85 g/m*3 20 C 0 km/h
1034 06-09-2008 14:55:02 19.8 C 9.57 g/m*3 19.8 C 0 km/h
1035 06-09-2008 15:07:02 19.8 C 8.71 g/m*3 19.8 C 0 km/h
1036 06-09-2008 15:19:02 19.7 C 8.32 g/m*3 19.7 C 0 km/h
1037 06-09-2008 15:31:02 19.8 C 8.03 g/m*3 19.8 C 0 km/h
1038 06-09-2008 15:43:03 19.8 C 8.03 g/m*3 19.8 C 0 km/h
1039 06-09-2008 15:55:01 19.5 C 8.06 g/m*3 19.5 C 0 km/h
1040 06-09-2008 16:07:02 19.4 C 8.18 g/m*3 19.4 C 0 km/h
1041 06-09-2008 16:19:01 19.3 C 8.79 g/m*3 19.3 C 0 km/h
1042 06-09-2008 16:31:02 19.3 C 8.79 g/m*3 19.3 C 0 km/h
1043 06-09-2008 16:43:02 19.2 C 9.23 g/m*3 19.2 C 0 km/h
1044 06-09-2008 16:55:02 19.2 C 9.56 g/m*3 19.2 C 0 km/h
1045 06-09-2008 17:07:02 19 C 9.61 g/m*3 19 C 0 km/h
1046 06-09-2008 17:19:02 18.1 C 10.66 g/m*3 18.1 C 0 km/h
1047 06-09-2008 17:31:02 17.9 C 11.3 g/m*3 17.9 C 0 km/h
1048 06-09-2008 17:43:02 18 C 10.91 g/m*3 18 C 0 km/h
1049 06-09-2008 17:55:02 18.1 C 11.12 g/m*3 18.1 C 0 km/h
1050 06-09-2008 18:07:01 18.3 C 10.94 g/m*3 18.3 C 0 km/h
Sensor: Nr:Datum:Temp:Abs-Feuchte:Windchill:Wind:
Aussen-T/F 1051 06-09-2008 18:19:02 18.5 C 10.76 g/m*3 18.5 C 0 km/h
1052 06-09-2008 18:31:01 18.5 C 10.76 g/m*3 18.5 C 0 km/h
1053 06-09-2008 18:43:01 18.4 C 10.85 g/m*3 18.4 C 0 km/h
1054 06-09-2008 18:55:03 18 C 10.75 g/m*3 18 C 0 km/h
1055 06-09-2008 19:07:02 17.9 C 10.99 g/m*3 17.9 C 0 km/h
1056 06-09-2008 19:19:02 17.7 C 11.01 g/m*3 17.7 C 0 km/h
1057 06-09-2008 19:31:02 17.5 C 11.03 g/m*3 17.5 C 0 km/h
1058 06-09-2008 19:43:02 17.4 C 10.82 g/m*3 17.4 C 0 km/h
1059 06-09-2008 19:55:02 17.5 C 10.88 g/m*3 17.5 C 0 km/h
1060 06-09-2008 20:07:02 17.2 C 10.98 g/m*3 17.2 C 0 km/h
1061 06-09-2008 20:19:02 17.1 C 10.92 g/m*3 17.1 C 0 km/h
1062 06-09-2008 20:31:02 16.9 C 10.93 g/m*3 16.9 C 0 km/h
1063 06-09-2008 20:43:02 16.8 C 10.87 g/m*3 16.8 C 0 km/h
1064 06-09-2008 20:55:02 16.8 C 10.58 g/m*3 16.8 C 0 km/h
1065 06-09-2008 21:07:02 16.7 C 10.23 g/m*3 16.7 C 0 km/h
1066 06-09-2008 21:19:02 16.6 C 10.31 g/m*3 16.6 C 0 km/h
1067 06-09-2008 21:31:02 16.4 C 10.33 g/m*3 16.4 C 0 km/h
1068 06-09-2008 21:43:02 16.2 C 10.34 g/m*3 16.2 C 0 km/h
1069 06-09-2008 21:55:01 16 C 10.49 g/m*3 16 C 0 km/h
1070 06-09-2008 22:07:01 15.9 C 10.56 g/m*3 15.9 C 0 km/h
1071 06-09-2008 22:20:02 15.9 C 10.56 g/m*3 15.9 C 0 km/h
1072 06-09-2008 22:32:02 15.7 C 10.57 g/m*3 15.7 C 0 km/h
1073 06-09-2008 22:44:02 15.6 C 10.51 g/m*3 15.6 C 0 km/h
1074 06-09-2008 22:56:02 15.5 C 10.44 g/m*3 15.5 C 0 km/h
1075 06-09-2008 23:08:02 15.4 C 10.38 g/m*3 15.4 C 0 km/h
Sensor: Nr:Datum:Temp:Abs-Feuchte:Windchill:Wind:
Aussen-T/F 1076 06-09-2008 23:20:02 15.4 C 10.51 g/m*3 15.4 C 0 km/h
1077 06-09-2008 23:32:02 15.4 C 10.38 g/m*3 15.4 C 0 km/h
1078 06-09-2008 23:44:02 15.6 C 10.51 g/m*3 15.6 C 0 km/h
1079 06-09-2008 23:56:02 15.6 C 10.51 g/m*3 15.6 C 0 km/h
1080 07-09-2008 00:08:02 15.3 C 10.19 g/m*3 15.3 C 0 km/h
1081 07-09-2008 00:20:02 15.2 C 10.25 g/m*3 15.2 C 0 km/h
1082 07-09-2008 00:32:02 15.2 C 10.25 g/m*3 15.2 C 0 km/h
1083 07-09-2008 00:44:02 15.3 C 10.32 g/m*3 15.3 C 0 km/h
1084 07-09-2008 00:56:02 15.3 C 10.32 g/m*3 15.3 C 0 km/h
1085 07-09-2008 01:08:02 15.3 C 10.32 g/m*3 15.3 C 0 km/h
1086 07-09-2008 01:20:02 15.2 C 10.25 g/m*3 15.2 C 0 km/h
1087 07-09-2008 01:32:03 15.3 C 10.19 g/m*3 15.3 C 0 km/h
1088 07-09-2008 01:44:03 15.3 C 10.06 g/m*3 15.3 C 0 km/h
1089 07-09-2008 01:56:03 15.2 C 9.99 g/m*3 15.2 C 0 km/h
1090 07-09-2008 02:08:03 15.3 C 10.06 g/m*3 15.3 C 0 km/h
1091 07-09-2008 02:20:03 15.3 C 9.92 g/m*3 15.3 C 0 km/h
1092 07-09-2008 02:32:03 15.1 C 9.8 g/m*3 15.1 C 0 km/h
1093 07-09-2008 02:44:03 15 C 9.87 g/m*3 15 C 0 km/h
1094 07-09-2008 02:56:03 14.7 C 9.82 g/m*3 14.7 C 0 km/h
1095 07-09-2008 03:08:03 14.4 C 9.64 g/m*3 14.4 C 0 km/h
1096 07-09-2008 03:20:03 14.3 C 9.71 g/m*3 14.3 C 0 km/h
1097 07-09-2008 03:32:03 14.4 C 9.77 g/m*3 14.4 C 0 km/h
1098 07-09-2008 03:44:03 14.3 C 9.58 g/m*3 14.3 C 0 km/h
1099 07-09-2008 03:56:03 14.1 C 9.47 g/m*3 14.1 C 0 km/h
1100 07-09-2008 04:08:03 14.1 C 9.59 g/m*3 14.1 C 0 km/h
Sensor: Nr:Datum:Temp:Abs-Feuchte:Windchill:Wind:
Aussen-T/F 1101 07-09-2008 04:20:03 14.1 C 9.47 g/m*3 14.1 C 0 km/h
1102 07-09-2008 04:32:03 13.8 C 9.53 g/m*3 13.8 C 0 km/h
1103 07-09-2008 04:44:03 14.1 C 9.59 g/m*3 14.1 C 0 km/h
1104 07-09-2008 04:56:03 14.2 C 9.65 g/m*3 14.2 C 0 km/h
1105 07-09-2008 05:08:03 13.9 C 9.47 g/m*3 13.9 C 0 km/h
1106 07-09-2008 05:20:04 13.7 C 9.47 g/m*3 13.7 C 0 km/h
1107 07-09-2008 05:32:04 13.5 C 9.47 g/m*3 13.5 C 0 km/h
1108 07-09-2008 05:44:04 13.2 C 9.42 g/m*3 13.2 C 0 km/h
1109 07-09-2008 05:56:04 13.1 C 9.47 g/m*3 13.1 C 0 km/h
1110 07-09-2008 06:08:04 13.1 C 9.47 g/m*3 13.1 C 0 km/h
1111 07-09-2008 06:20:04 13.1 C 9.47 g/m*3 13.1 C 0 km/h
1112 07-09-2008 06:32:04 13.2 C 9.42 g/m*3 13.2 C 0 km/h
1113 07-09-2008 06:44:04 13.5 C 9.59 g/m*3 13.5 C 0 km/h
1114 07-09-2008 06:56:04 13.7 C 9.47 g/m*3 13.7 C 0 km/h
1115 07-09-2008 07:08:04 13.8 C 9.29 g/m*3 13.8 C 0 km/h
1116 07-09-2008 07:20:04 13.8 C 9.17 g/m*3 13.8 C 0 km/h
1117 07-09-2008 07:32:04 13.8 C 9.17 g/m*3 13.8 C 0 km/h
1118 07-09-2008 07:44:04 14.1 C 9.1 g/m*3 14.1 C 0 km/h
1119 07-09-2008 07:56:04 14.3 C 8.97 g/m*3 14.3 C 0 km/h
1120 07-09-2008 08:08:04 14.3 C 9.09 g/m*3 14.3 C 0 km/h
1121 07-09-2008 08:20:04 14.5 C 9.2 g/m*3 14.5 C 0 km/h
1122 07-09-2008 08:32:04 14.6 C 9.26 g/m*3 14.6 C 0 km/h
1123 07-09-2008 08:44:04 14.7 C 9.07 g/m*3 14.7 C 0 km/h
1124 07-09-2008 08:56:04 15.3 C 9.27 g/m*3 15.3 C 0 km/h
1125 07-09-2008 09:08:01 15.8 C 9.42 g/m*3 15.8 C 0 km/h
Sensor: Nr:Datum:Temp:Abs-Feuchte:Windchill:Wind:
Aussen-T/F 1126 07-09-2008 09:20:02 16.1 C 8.5 g/m*3 16.1 C 0 km/h
1127 07-09-2008 09:32:02 16.1 C 8.5 g/m*3 16.1 C 0 km/h
1128 07-09-2008 09:44:02 15.9 C 8.4 g/m*3 15.9 C 0 km/h
1129 07-09-2008 09:56:03 16.3 C 8.46 g/m*3 16.3 C 0 km/h
1130 07-09-2008 10:08:02 17.3 C 8.4 g/m*3 17.3 C 0 km/h
1131 07-09-2008 10:20:03 18.2 C 8.39 g/m*3 18.2 C 0 km/h
1132 07-09-2008 10:32:02 18.2 C 8.24 g/m*3 18.2 C 0 km/h
1133 07-09-2008 10:44:02 17.9 C 8.4 g/m*3 17.9 C 0 km/h
1134 07-09-2008 10:56:03 17.6 C 8.4 g/m*3 17.6 C 0 km/h
1135 07-09-2008 11:08:02 17.1 C 8.73 g/m*3 17.1 C 0 km/h
1136 07-09-2008 11:20:03 16.9 C 8.63 g/m*3 16.9 C 0 km/h
1137 07-09-2008 11:32:02 17.6 C 8.4 g/m*3 17.6 C 0 km/h
1138 07-09-2008 11:44:02 17.9 C 8.24 g/m*3 17.9 C 0 km/h
1139 07-09-2008 11:56:01 18.2 C 8.08 g/m*3 18.2 C 0 km/h
1140 07-09-2008 12:08:02 18.3 C 7.82 g/m*3 18.3 C 0 km/h
1141 07-09-2008 12:20:01 18.6 C 8.12 g/m*3 18.6 C 0 km/h
1142 07-09-2008 12:32:01 18.7 C 8.33 g/m*3 18.7 C 0 km/h
1143 07-09-2008 12:44:01 19.1 C 8.03 g/m*3 19.1 C 0 km/h
1144 07-09-2008 12:56:01 19.4 C 8.34 g/m*3 19.4 C 0 km/h
1145 07-09-2008 13:08:02 19 C 8.15 g/m*3 19 C 0 km/h
1146 07-09-2008 13:20:01 19.1 C 8.36 g/m*3 19.1 C 0 km/h
1147 07-09-2008 13:32:02 19.3 C 8.29 g/m*3 19.3 C 0 km/h
1148 07-09-2008 13:44:02 20 C 8.3 g/m*3 20 C 0 km/h
1149 07-09-2008 13:56:02 20.7 C 8.46 g/m*3 20.7 C 0 km/h
1150 07-09-2008 14:08:02 20 C 8.12 g/m*3 20 C 0 km/h
Sensor: Nr:Datum:Temp:Abs-Feuchte:Windchill:Wind:
Aussen-T/F 1151 07-09-2008 14:20:02 20.4 C 8.31 g/m*3 20.4 C 0 km/h
1152 07-09-2008 14:32:02 20.6 C 8.05 g/m*3 20.6 C 0 km/h
1153 07-09-2008 14:44:02 20.6 C 8.23 g/m*3 20.6 C 0 km/h
1154 07-09-2008 14:56:02 20 C 8.12 g/m*3 20 C 0 km/h
1155 07-09-2008 15:08:01 19.2 C 8.24 g/m*3 19.2 C 0 km/h
1156 07-09-2008 15:20:02 18.9 C 8.75 g/m*3 18.9 C 0 km/h
1157 07-09-2008 15:32:02 19.3 C 8.96 g/m*3 19.3 C 0 km/h
1158 07-09-2008 15:44:02 20.3 C 8.44 g/m*3 20.3 C 0 km/h
1159 07-09-2008 15:56:03 20 C 8.47 g/m*3 20 C 0 km/h
1160 07-09-2008 16:08:02 18.4 C 9.12 g/m*3 18.4 C 0 km/h
1161 07-09-2008 16:20:02 16.7 C 11.08 g/m*3 16.7 C 0 km/h
1162 07-09-2008 16:32:02 17.8 C 11.99 g/m*3 17.8 C 0 km/h
1163 07-09-2008 16:44:02 18.7 C 11.53 g/m*3 18.7 C 0 km/h
1164 07-09-2008 16:56:03 19.5 C 10.74 g/m*3 19.5 C 0 km/h
1165 07-09-2008 17:08:02 19.3 C 9.79 g/m*3 19.3 C 0 km/h
1166 07-09-2008 17:20:02 19 C 9.61 g/m*3 19 C 0 km/h
1167 07-09-2008 17:32:02 19.6 C 9.28 g/m*3 19.6 C 0 km/h
1168 07-09-2008 17:44:02 20.8 C 9.05 g/m*3 20.8 C 0 km/h
1169 07-09-2008 17:56:02 21 C 8.43 g/m*3 21 C 0 km/h
1170 07-09-2008 18:08:02 21.3 C 8.57 g/m*3 21.3 C 0 km/h
1171 07-09-2008 18:20:02 21.4 C 8.62 g/m*3 21.4 C 0 km/h
1172 07-09-2008 18:32:01 21.7 C 8.97 g/m*3 21.7 C 0 km/h
1173 07-09-2008 18:44:01 20.6 C 8.23 g/m*3 20.6 C 0 km/h
1174 07-09-2008 18:56:02 20.7 C 8.28 g/m*3 20.7 C 0 km/h
1175 07-09-2008 19:08:02 20.1 C 8 g/m*3 20.1 C 0 km/h
Sensor: Nr:Datum:Temp:Abs-Feuchte:Windchill:Wind:
Aussen-T/F 1176 07-09-2008 19:20:02 19.4 C 8.18 g/m*3 19.4 C 0 km/h
1177 07-09-2008 19:32:02 19 C 9.13 g/m*3 19 C 0 km/h
1178 07-09-2008 19:44:02 18.7 C 9.13 g/m*3 18.7 C 0 km/h
1179 07-09-2008 19:56:02 18.4 C 9.44 g/m*3 18.4 C 0 km/h
1180 07-09-2008 20:08:01 18.2 C 9.17 g/m*3 18.2 C 0 km/h
1181 07-09-2008 20:20:01 18 C 9.22 g/m*3 18 C 0 km/h
1182 07-09-2008 20:32:02 17.8 C 9.26 g/m*3 17.8 C 0 km/h
1183 07-09-2008 20:44:02 17.6 C 9 g/m*3 17.6 C 0 km/h
1184 07-09-2008 20:56:02 17.4 C 9.04 g/m*3 17.4 C 0 km/h
1185 07-09-2008 21:08:02 17.2 C 8.93 g/m*3 17.2 C 0 km/h
1186 07-09-2008 21:20:02 16.9 C 9.06 g/m*3 16.9 C 0 km/h
1187 07-09-2008 21:32:02 16.7 C 9.38 g/m*3 16.7 C 0 km/h
1188 07-09-2008 21:44:02 16.7 C 9.38 g/m*3 16.7 C 0 km/h
1189 07-09-2008 21:56:02 16.4 C 9.35 g/m*3 16.4 C 0 km/h
1190 07-09-2008 22:09:02 16.3 C 9.43 g/m*3 16.3 C 0 km/h
1191 07-09-2008 22:21:02 16.3 C 9.43 g/m*3 16.3 C 0 km/h
1192 07-09-2008 22:33:02 16.1 C 9.46 g/m*3 16.1 C 0 km/h
1193 07-09-2008 22:45:02 16 C 9.54 g/m*3 16 C 0 km/h
1194 07-09-2008 22:57:02 15.9 C 9.62 g/m*3 15.9 C 0 km/h
1195 07-09-2008 23:09:02 15.8 C 9.56 g/m*3 15.8 C 0 km/h
1196 07-09-2008 23:21:03 15.8 C 9.69 g/m*3 15.8 C 0 km/h
1197 07-09-2008 23:33:03 15.9 C 9.62 g/m*3 15.9 C 0 km/h
1198 07-09-2008 23:45:03 15.8 C 9.56 g/m*3 15.8 C 0 km/h
1199 07-09-2008 23:57:03 15.8 C 9.56 g/m*3 15.8 C 0 km/h
1200 08-09-2008 00:09:03 15.8 C 9.56 g/m*3 15.8 C 0 km/h
Sensor: Nr:Datum:Temp:Abs-Feuchte:Windchill:Wind:
Aussen-T/F 1201 08-09-2008 00:21:03 15.7 C 9.5 g/m*3 15.7 C 0 km/h
1202 08-09-2008 00:33:03 15.5 C 9.39 g/m*3 15.5 C 0 km/h
1203 08-09-2008 00:45:03 15.6 C 9.44 g/m*3 15.6 C 0 km/h
1204 08-09-2008 00:57:03 15.6 C 9.44 g/m*3 15.6 C 0 km/h
1205 08-09-2008 01:09:03 15.5 C 9.39 g/m*3 15.5 C 0 km/h
1206 08-09-2008 01:21:03 15.6 C 9.44 g/m*3 15.6 C 0 km/h
1207 08-09-2008 01:33:03 15.5 C 9.39 g/m*3 15.5 C 0 km/h
1208 08-09-2008 01:45:03 15.2 C 9.35 g/m*3 15.2 C 0 km/h
1209 08-09-2008 01:57:03 15.1 C 9.42 g/m*3 15.1 C 0 km/h
1210 08-09-2008 02:09:03 14.9 C 9.56 g/m*3 14.9 C 0 km/h
1211 08-09-2008 02:21:03 14.9 C 9.56 g/m*3 14.9 C 0 km/h
1212 08-09-2008 02:33:03 15.1 C 9.55 g/m*3 15.1 C 0 km/h
1213 08-09-2008 02:45:03 15 C 9.36 g/m*3 15 C 0 km/h
1214 08-09-2008 02:57:03 14.8 C 9.37 g/m*3 14.8 C 0 km/h
1215 08-09-2008 03:09:04 14.4 C 9.27 g/m*3 14.4 C 0 km/h
1216 08-09-2008 03:21:04 14.3 C 9.34 g/m*3 14.3 C 0 km/h
1217 08-09-2008 03:33:04 14.2 C 9.4 g/m*3 14.2 C 0 km/h
1218 08-09-2008 03:45:04 14.3 C 9.34 g/m*3 14.3 C 0 km/h
1219 08-09-2008 03:57:04 14.2 C 9.4 g/m*3 14.2 C 0 km/h
1220 08-09-2008 04:09:04 14.1 C 9.47 g/m*3 14.1 C 0 km/h
1221 08-09-2008 04:21:04 14.2 C 9.52 g/m*3 14.2 C 0 km/h
1222 08-09-2008 04:33:04 14.4 C 9.39 g/m*3 14.4 C 0 km/h
1223 08-09-2008 04:45:04 14.5 C 9.33 g/m*3 14.5 C 0 km/h
1224 08-09-2008 04:57:04 14.5 C 9.33 g/m*3 14.5 C 0 km/h
1225 08-09-2008 05:09:04 14.4 C 9.27 g/m*3 14.4 C 0 km/h
Sensor: Nr:Datum:Temp:Abs-Feuchte:Windchill:Wind:
Aussen-T/F 1226 08-09-2008 05:21:04 14.1 C 8.98 g/m*3 14.1 C 0 km/h
1227 08-09-2008 05:33:04 14.1 C 8.86 g/m*3 14.1 C 0 km/h
1228 08-09-2008 05:45:04 14 C 8.81 g/m*3 14 C 0 km/h
1229 08-09-2008 05:57:04 13.9 C 8.99 g/m*3 13.9 C 0 km/h
1230 08-09-2008 06:09:04 13.5 C 8.89 g/m*3 13.5 C 0 km/h
1231 08-09-2008 06:21:04 13.2 C 8.96 g/m*3 13.2 C 0 km/h
1232 08-09-2008 06:33:04 13.1 C 9.01 g/m*3 13.1 C 0 km/h
1233 08-09-2008 06:45:04 13 C 9.07 g/m*3 13 C 0 km/h
1234 08-09-2008 06:57:05 12.8 C 9.07 g/m*3 12.8 C 0 km/h
1235 08-09-2008 07:09:02 12.8 C 9.18 g/m*3 12.8 C 0 km/h
1236 08-09-2008 07:21:02 12.8 C 9.3 g/m*3 12.8 C 0 km/h
1237 08-09-2008 07:33:02 13.1 C 9.36 g/m*3 13.1 C 0 km/h
1238 08-09-2008 07:45:02 13.7 C 9.71 g/m*3 13.7 C 0 km/h
1239 08-09-2008 07:57:02 14.2 C 9.65 g/m*3 14.2 C 0 km/h
1240 08-09-2008 08:09:02 14.4 C 9.52 g/m*3 14.4 C 0 km/h
1241 08-09-2008 08:21:02 14.5 C 9.58 g/m*3 14.5 C 0 km/h
1242 08-09-2008 08:33:02 14.7 C 9.57 g/m*3 14.7 C 0 km/h
1243 08-09-2008 08:45:02 14.8 C 9.63 g/m*3 14.8 C 0 km/h
1244 08-09-2008 08:57:02 14.9 C 9.56 g/m*3 14.9 C 0 km/h
1245 08-09-2008 09:09:02 15.2 C 9.61 g/m*3 15.2 C 0 km/h
1246 08-09-2008 09:21:03 15.3 C 9.53 g/m*3 15.3 C 0 km/h
1247 08-09-2008 09:33:02 15.5 C 9.39 g/m*3 15.5 C 0 km/h
1248 08-09-2008 09:45:02 15.8 C 9.29 g/m*3 15.8 C 0 km/h
1249 08-09-2008 09:57:02 16.1 C 9.18 g/m*3 16.1 C 0 km/h
1250 08-09-2008 10:09:02 16.3 C 9.16 g/m*3 16.3 C 0 km/h
Sensor: Nr:Datum:Temp:Abs-Feuchte:Windchill:Wind:
Aussen-T/F 1251 08-09-2008 10:21:02 16.6 C 9.04 g/m*3 16.6 C 0 km/h
1252 08-09-2008 10:33:02 16.9 C 9.06 g/m*3 16.9 C 0 km/h
1253 08-09-2008 10:45:02 17.1 C 8.73 g/m*3 17.1 C 0 km/h
1254 08-09-2008 10:57:02 17.3 C 8.4 g/m*3 17.3 C 0 km/h
1255 08-09-2008 11:09:02 17.6 C 8.4 g/m*3 17.6 C 0 km/h
1256 08-09-2008 11:21:02 17.6 C 8.55 g/m*3 17.6 C 0 km/h
1257 08-09-2008 11:33:02 17.3 C 8.4 g/m*3 17.3 C 0 km/h
1258 08-09-2008 11:45:01 18.2 C 8.24 g/m*3 18.2 C 0 km/h
1259 08-09-2008 11:57:01 18.7 C 8.01 g/m*3 18.7 C 0 km/h
1260 08-09-2008 12:09:02 18.9 C 7.94 g/m*3 18.9 C 0 km/h
1261 08-09-2008 12:21:01 19.4 C 7.84 g/m*3 19.4 C 0 km/h
1262 08-09-2008 12:33:02 19.7 C 7.64 g/m*3 19.7 C 0 km/h
1263 08-09-2008 12:45:02 19.8 C 7.52 g/m*3 19.8 C 0 km/h
1264 08-09-2008 12:57:02 19.6 C 7.43 g/m*3 19.6 C 0 km/h
1265 08-09-2008 13:09:01 20.7 C 7.56 g/m*3 20.7 C 0 km/h
1266 08-09-2008 13:21:02 20.8 C 7.42 g/m*3 20.8 C 0 km/h
1267 08-09-2008 13:33:01 20.5 C 7.3 g/m*3 20.5 C 0 km/h
1268 08-09-2008 13:45:02 20.7 C 7.38 g/m*3 20.7 C 0 km/h
1269 08-09-2008 13:57:02 21.6 C 7.4 g/m*3 21.6 C 0 km/h
1270 08-09-2008 14:09:01 22 C 6.79 g/m*3 22 C 0 km/h
1271 08-09-2008 14:21:02 21.9 C 7.14 g/m*3 21.9 C 0 km/h
1272 08-09-2008 14:33:01 22.1 C 6.83 g/m*3 22.1 C 0 km/h
1273 08-09-2008 14:45:01 22.3 C 6.71 g/m*3 22.3 C 0 km/h
1274 08-09-2008 14:57:01 23 C 6.58 g/m*3 23 C 0 km/h
1275 08-09-2008 15:09:02 23.2 C 6.44 g/m*3 23.2 C 0 km/h
Sensor: Nr:Datum:Temp:Abs-Feuchte:Windchill:Wind:
Aussen-T/F 1276 08-09-2008 15:21:01 23.7 C 6.63 g/m*3 23.7 C 0 km/h
1277 08-09-2008 15:33:01 23.7 C 6.42 g/m*3 23.7 C 0 km/h
1278 08-09-2008 15:49:01 23.1 C 6.41 g/m*3 23.1 C 0 km/h
1279 08-09-2008 16:01:07 24 C 6.53 g/m*3 24 C 0 km/h
1280 08-09-2008 16:13:02 24.1 C 5.91 g/m*3 24.1 C 0 km/h
1281 08-09-2008 16:25:01 23.8 C 6.24 g/m*3 23.8 C 0 km/h
1282 08-09-2008 16:37:02 23.7 C 6.42 g/m*3 23.7 C 0 km/h
1283 08-09-2008 16:49:02 24 C 5.87 g/m*3 24 C 0 km/h
1284 08-09-2008 17:01:02 23.3 C 6.27 g/m*3 23.3 C 0 km/h
1285 08-09-2008 17:13:02 24.1 C 6.13 g/m*3 24.1 C 0 km/h
1286 08-09-2008 17:20:03 24.1 C 4.38 g/m*3 24.1 C 0 km/h
1287 08-09-2008 17:25:03 24.3 C 5.97 g/m*3 24.3 C 0 km/h
1288 08-09-2008 17:30:03 24.2 C 5.94 g/m*3 24.2 C 0 km/h
1289 08-09-2008 17:35:03 24.2 C 5.72 g/m*3 24.2 C 0 km/h
1290 08-09-2008 17:40:03 23.8 C 5.81 g/m*3 23.8 C 0 km/h
1291 08-09-2008 17:45:02 23.4 C 6.1 g/m*3 23.4 C 0 km/h
1292 08-09-2008 17:50:02 23.2 C 6.24 g/m*3 23.2 C 0 km/h
1293 08-09-2008 17:55:02 22.9 C 6.34 g/m*3 22.9 C 0 km/h
1294 08-09-2008 18:00:02 23.5 C 6.56 g/m*3 23.5 C 0 km/h
1295 08-09-2008 18:05:01 24.2 C 6.38 g/m*3 24.2 C 0 km/h
1296 08-09-2008 18:10:01 23.7 C 6.42 g/m*3 23.7 C 0 km/h
1297 08-09-2008 18:15:02 23.2 C 6.24 g/m*3 23.2 C 0 km/h
1298 08-09-2008 18:20:02 22.9 C 6.54 g/m*3 22.9 C 0 km/h
1299 08-09-2008 18:25:02 23.3 C 6.48 g/m*3 23.3 C 0 km/h
1300 08-09-2008 18:30:02 22.9 C 6.34 g/m*3 22.9 C 0 km/h
Sensor: Nr:Datum:Temp:Abs-Feuchte:Windchill:Wind:
Aussen-T/F 1301 08-09-2008 18:35:01 23 C 6.37 g/m*3 23 C 0 km/h
1302 08-09-2008 18:40:01 23.2 C 6.44 g/m*3 23.2 C 0 km/h
1303 08-09-2008 18:45:01 23 C 6.37 g/m*3 23 C 0 km/h
1304 08-09-2008 18:50:01 23 C 6.58 g/m*3 23 C 0 km/h
1305 08-09-2008 18:55:01 22.6 C 6.63 g/m*3 22.6 C 0 km/h
1306 08-09-2008 19:00:01 22.5 C 6.99 g/m*3 22.5 C 0 km/h
1307 08-09-2008 19:05:02 22.6 C 7.43 g/m*3 22.6 C 0 km/h
1308 08-09-2008 19:10:02 22.7 C 7.07 g/m*3 22.7 C 0 km/h
1309 08-09-2008 19:15:02 22.4 C 7.15 g/m*3 22.4 C 0 km/h
1310 08-09-2008 19:20:02 22.3 C 7.11 g/m*3 22.3 C 0 km/h
1311 08-09-2008 19:25:02 22.1 C 7.22 g/m*3 22.1 C 0 km/h
1312 08-09-2008 19:30:02 21.7 C 7.25 g/m*3 21.7 C 0 km/h
1313 08-09-2008 19:35:02 21.4 C 7.31 g/m*3 21.4 C 0 km/h
1314 08-09-2008 19:40:02 20.7 C 7.38 g/m*3 20.7 C 0 km/h
1315 08-09-2008 19:45:02 20.1 C 7.3 g/m*3 20.1 C 0 km/h
1316 08-09-2008 19:50:02 19.9 C 7.39 g/m*3 19.9 C 0 km/h
1317 08-09-2008 19:55:02 19.6 C 7.43 g/m*3 19.6 C 0 km/h
1318 08-09-2008 20:00:02 19.1 C 7.38 g/m*3 19.1 C 0 km/h
1319 08-09-2008 20:05:01 18.9 C 7.29 g/m*3 18.9 C 0 km/h
1320 08-09-2008 20:10:01 18.8 C 7.57 g/m*3 18.8 C 0 km/h
1321 08-09-2008 20:15:02 18.6 C 7.32 g/m*3 18.6 C 0 km/h
1322 08-09-2008 20:20:02 18.5 C 7.59 g/m*3 18.5 C 0 km/h
1323 08-09-2008 20:25:02 18.4 C 7.71 g/m*3 18.4 C 0 km/h
1324 08-09-2008 20:30:02 18.2 C 7.46 g/m*3 18.2 C 0 km/h
1325 08-09-2008 20:35:01 17.9 C 7.48 g/m*3 17.9 C 0 km/h
Sensor: Nr:Datum:Temp:Abs-Feuchte:Windchill:Wind:
Aussen-T/F 1326 08-09-2008 20:40:01 17.8 C 7.59 g/m*3 17.8 C 0 km/h
1327 08-09-2008 20:45:01 17.7 C 7.85 g/m*3 17.7 C 0 km/h
1328 08-09-2008 20:50:01 17.5 C 7.9 g/m*3 17.5 C 0 km/h
1329 08-09-2008 20:55:01 17.4 C 7.85 g/m*3 17.4 C 0 km/h
1330 08-09-2008 21:00:01 17.4 C 7.85 g/m*3 17.4 C 0 km/h
1331 08-09-2008 21:05:02 17.4 C 8 g/m*3 17.4 C 0 km/h
1332 08-09-2008 21:10:02 17.3 C 7.81 g/m*3 17.3 C 0 km/h
1333 08-09-2008 21:16:03 17.2 C 7.76 g/m*3 17.2 C 0 km/h
1334 08-09-2008 21:21:03 17.4 C 8 g/m*3 17.4 C 0 km/h
1335 08-09-2008 21:26:03 16.9 C 8.05 g/m*3 16.9 C 0 km/h
1336 08-09-2008 21:31:03 16.9 C 8.05 g/m*3 16.9 C 0 km/h
1337 08-09-2008 21:36:03 16.6 C 8.19 g/m*3 16.6 C 0 km/h
1338 08-09-2008 21:41:03 16.5 C 8 g/m*3 16.5 C 0 km/h
1339 08-09-2008 21:46:03 16.5 C 8.14 g/m*3 16.5 C 0 km/h
1340 08-09-2008 21:51:03 16.4 C 8.37 g/m*3 16.4 C 0 km/h
1341 08-09-2008 21:56:03 16.2 C 8.27 g/m*3 16.2 C 0 km/h
1342 08-09-2008 22:01:03 16.1 C 8.22 g/m*3 16.1 C 0 km/h
1343 08-09-2008 22:06:03 15.9 C 8.26 g/m*3 15.9 C 0 km/h
1344 08-09-2008 22:11:03 15.8 C 8.35 g/m*3 15.8 C 0 km/h
1345 08-09-2008 22:16:04 15.6 C 8.25 g/m*3 15.6 C 0 km/h
1346 08-09-2008 22:21:04 15.5 C 8.2 g/m*3 15.5 C 0 km/h
1347 08-09-2008 22:26:04 15.5 C 8.2 g/m*3 15.5 C 0 km/h
1348 08-09-2008 22:31:04 15.4 C 8.15 g/m*3 15.4 C 0 km/h
1349 08-09-2008 22:36:04 15.3 C 8.1 g/m*3 15.3 C 0 km/h
1350 08-09-2008 22:41:04 15.4 C 8.28 g/m*3 15.4 C 0 km/h
Sensor: Nr:Datum:Temp:Abs-Feuchte:Windchill:Wind:
Aussen-T/F 1351 08-09-2008 22:46:04 15.3 C 8.23 g/m*3 15.3 C 0 km/h
1352 08-09-2008 22:51:04 15.2 C 8.18 g/m*3 15.2 C 0 km/h
1353 08-09-2008 22:56:04 15.1 C 8.26 g/m*3 15.1 C 0 km/h
1354 08-09-2008 23:01:04 15 C 8.21 g/m*3 15 C 0 km/h
1355 08-09-2008 23:06:04 14.9 C 8.41 g/m*3 14.9 C 0 km/h
1356 08-09-2008 23:11:04 14.8 C 8.36 g/m*3 14.8 C 0 km/h
1357 08-09-2008 23:16:04 14.7 C 8.44 g/m*3 14.7 C 0 km/h
1358 08-09-2008 23:21:04 14.7 C 8.44 g/m*3 14.7 C 0 km/h
1359 08-09-2008 23:26:04 14.7 C 8.44 g/m*3 14.7 C 0 km/h
1360 08-09-2008 23:31:04 14.7 C 8.44 g/m*3 14.7 C 0 km/h
1361 08-09-2008 23:36:04 14.7 C 8.44 g/m*3 14.7 C 0 km/h
1362 08-09-2008 23:41:04 14.5 C 8.33 g/m*3 14.5 C 0 km/h
1363 08-09-2008 23:46:04 14.3 C 8.35 g/m*3 14.3 C 0 km/h
1364 08-09-2008 23:51:04 14.2 C 8.3 g/m*3 14.2 C 0 km/h
1365 08-09-2008 23:56:05 14.2 C 8.43 g/m*3 14.2 C 0 km/h
1366 09-09-2008 00:01:05 14 C 8.32 g/m*3 14 C 0 km/h
1367 09-09-2008 00:06:05 13.9 C 8.51 g/m*3 13.9 C 0 km/h
1368 09-09-2008 00:11:05 13.8 C 8.58 g/m*3 13.8 C 0 km/h
1369 09-09-2008 00:16:05 13.7 C 8.53 g/m*3 13.7 C 0 km/h
1370 09-09-2008 00:21:05 13.6 C 8.59 g/m*3 13.6 C 0 km/h
1371 09-09-2008 00:26:05 13.6 C 8.59 g/m*3 13.6 C 0 km/h
1372 09-09-2008 00:31:05 13.5 C 8.54 g/m*3 13.5 C 0 km/h
1373 09-09-2008 00:36:05 13.5 C 8.54 g/m*3 13.5 C 0 km/h
1374 09-09-2008 00:41:05 13.4 C 8.6 g/m*3 13.4 C 0 km/h
1375 09-09-2008 00:46:05 13.3 C 8.55 g/m*3 13.3 C 0 km/h
Sensor: Nr:Datum:Temp:Abs-Feuchte:Windchill:Wind:
Aussen-T/F 1376 09-09-2008 00:51:05 13.2 C 8.5 g/m*3 13.2 C 0 km/h
1377 09-09-2008 00:56:05 13.1 C 8.44 g/m*3 13.1 C 0 km/h
1378 09-09-2008 01:01:05 13.1 C 8.44 g/m*3 13.1 C 0 km/h
1379 09-09-2008 01:06:05 13 C 8.51 g/m*3 13 C 0 km/h
1380 09-09-2008 01:11:05 12.9 C 8.57 g/m*3 12.9 C 0 km/h
1381 09-09-2008 01:16:05 12.8 C 8.51 g/m*3 12.8 C 0 km/h
1382 09-09-2008 01:21:05 12.7 C 8.46 g/m*3 12.7 C 0 km/h
1383 09-09-2008 01:26:05 12.7 C 8.57 g/m*3 12.7 C 0 km/h
1384 09-09-2008 01:31:06 12.7 C 8.57 g/m*3 12.7 C 0 km/h
1385 09-09-2008 01:36:06 12.6 C 8.52 g/m*3 12.6 C 0 km/h
1386 09-09-2008 01:41:06 12.6 C 8.52 g/m*3 12.6 C 0 km/h
1387 09-09-2008 01:46:06 12.5 C 8.47 g/m*3 12.5 C 0 km/h
1388 09-09-2008 01:51:06 12.5 C 8.47 g/m*3 12.5 C 0 km/h
1389 09-09-2008 01:56:06 12.4 C 8.41 g/m*3 12.4 C 0 km/h
1390 09-09-2008 02:01:06 12.4 C 8.52 g/m*3 12.4 C 0 km/h
1391 09-09-2008 02:06:06 12.3 C 8.58 g/m*3 12.3 C 0 km/h
1392 09-09-2008 02:11:06 12.3 C 8.58 g/m*3 12.3 C 0 km/h
1393 09-09-2008 02:16:06 12.2 C 8.52 g/m*3 12.2 C 0 km/h
1394 09-09-2008 02:21:06 12.3 C 8.58 g/m*3 12.3 C 0 km/h
1395 09-09-2008 02:26:06 12.1 C 8.47 g/m*3 12.1 C 0 km/h
1396 09-09-2008 02:31:06 12.4 C 8.63 g/m*3 12.4 C 0 km/h
1397 09-09-2008 02:36:06 12 C 8.42 g/m*3 12 C 0 km/h
1398 09-09-2008 02:41:06 12 C 8.42 g/m*3 12 C 0 km/h
1399 09-09-2008 02:46:06 11.8 C 8.42 g/m*3 11.8 C 0 km/h
1400 09-09-2008 02:51:06 11.8 C 8.42 g/m*3 11.8 C 0 km/h
Sensor: Nr:Datum:Temp:Abs-Feuchte:Windchill:Wind:
Aussen-T/F 1401 09-09-2008 02:56:06 11.7 C 8.37 g/m*3 11.7 C 0 km/h
1402 09-09-2008 03:01:06 11.7 C 8.37 g/m*3 11.7 C 0 km/h
1403 09-09-2008 03:06:06 11.7 C 8.37 g/m*3 11.7 C 0 km/h
1404 09-09-2008 03:11:07 11.7 C 8.37 g/m*3 11.7 C 0 km/h
1405 09-09-2008 03:16:07 11.7 C 8.37 g/m*3 11.7 C 0 km/h
1406 09-09-2008 03:21:07 11.6 C 8.42 g/m*3 11.6 C 0 km/h
1407 09-09-2008 03:26:07 11.5 C 8.37 g/m*3 11.5 C 0 km/h
1408 09-09-2008 03:31:07 11.4 C 8.42 g/m*3 11.4 C 0 km/h
1409 09-09-2008 03:36:07 11.4 C 8.42 g/m*3 11.4 C 0 km/h
1410 09-09-2008 03:41:07 11.3 C 8.36 g/m*3 11.3 C 0 km/h
1411 09-09-2008 03:46:07 11.2 C 8.31 g/m*3 11.2 C 0 km/h
1412 09-09-2008 03:51:07 11.2 C 8.31 g/m*3 11.2 C 0 km/h
1413 09-09-2008 03:56:07 11.2 C 8.31 g/m*3 11.2 C 0 km/h
1414 09-09-2008 04:01:07 11.2 C 8.31 g/m*3 11.2 C 0 km/h
1415 09-09-2008 04:06:07 11.1 C 8.26 g/m*3 11.1 C 0 km/h
1416 09-09-2008 04:11:07 11.1 C 8.26 g/m*3 11.1 C 0 km/h
1417 09-09-2008 04:16:07 11.1 C 8.26 g/m*3 11.1 C 0 km/h
1418 09-09-2008 04:21:07 11.1 C 8.26 g/m*3 11.1 C 0 km/h
1419 09-09-2008 04:26:07 11.1 C 8.26 g/m*3 11.1 C 0 km/h
1420 09-09-2008 04:31:07 11 C 8.31 g/m*3 11 C 0 km/h
1421 09-09-2008 04:36:07 11 C 8.31 g/m*3 11 C 0 km/h
1422 09-09-2008 04:41:07 10.9 C 8.26 g/m*3 10.9 C 0 km/h
1423 09-09-2008 04:46:08 10.8 C 8.2 g/m*3 10.8 C 0 km/h
1424 09-09-2008 04:51:08 10.8 C 8.2 g/m*3 10.8 C 0 km/h
1425 09-09-2008 04:56:08 10.7 C 8.15 g/m*3 10.7 C 0 km/h
Sensor: Nr:Datum:Temp:Abs-Feuchte:Windchill:Wind:
Aussen-T/F 1426 09-09-2008 05:01:08 10.7 C 8.15 g/m*3 10.7 C 0 km/h
1427 09-09-2008 05:06:08 10.6 C 8.1 g/m*3 10.6 C 0 km/h
1428 09-09-2008 05:11:08 10.6 C 8.1 g/m*3 10.6 C 0 km/h
1429 09-09-2008 05:16:08 10.6 C 8.1 g/m*3 10.6 C 0 km/h
1430 09-09-2008 05:21:08 10.5 C 8.05 g/m*3 10.5 C 0 km/h
1431 09-09-2008 05:26:08 10.4 C 8 g/m*3 10.4 C 0 km/h
1432 09-09-2008 05:31:08 10.4 C 8 g/m*3 10.4 C 0 km/h
1433 09-09-2008 05:36:08 10.3 C 7.95 g/m*3 10.3 C 0 km/h
1434 09-09-2008 05:41:08 10.3 C 7.95 g/m*3 10.3 C 0 km/h
1435 09-09-2008 05:46:08 10.2 C 7.9 g/m*3 10.2 C 0 km/h
1436 09-09-2008 05:51:08 10.2 C 7.9 g/m*3 10.2 C 0 km/h
1437 09-09-2008 05:56:08 10.2 C 7.99 g/m*3 10.2 C 0 km/h
1438 09-09-2008 06:01:08 10 C 7.89 g/m*3 10 C 0 km/h
1439 09-09-2008 06:06:08 10 C 7.89 g/m*3 10 C 0 km/h
1440 09-09-2008 06:11:08 10 C 7.89 g/m*3 10 C 0 km/h
1441 09-09-2008 06:16:08 10 C 7.89 g/m*3 10 C 0 km/h
1442 09-09-2008 06:21:09 10 C 7.89 g/m*3 10 C 0 km/h
1443 09-09-2008 06:26:09 10 C 7.89 g/m*3 10 C 0 km/h
1444 09-09-2008 06:31:09 10.1 C 8.04 g/m*3 10.1 C 0 km/h
1445 09-09-2008 06:36:09 10.1 C 8.04 g/m*3 10.1 C 0 km/h
1446 09-09-2008 06:41:09 10.1 C 8.13 g/m*3 10.1 C 0 km/h
1447 09-09-2008 06:46:09 10.1 C 8.13 g/m*3 10.1 C 0 km/h
1448 09-09-2008 06:51:09 10.1 C 8.13 g/m*3 10.1 C 0 km/h
1449 09-09-2008 06:56:09 10.2 C 8.18 g/m*3 10.2 C 0 km/h
1450 09-09-2008 07:01:02 10.3 C 8.24 g/m*3 10.3 C 0 km/h
Sensor: Nr:Datum:Temp:Abs-Feuchte:Windchill:Wind:
Aussen-T/F 1451 09-09-2008 07:06:02 10.2 C 8.18 g/m*3 10.2 C 0 km/h
1452 09-09-2008 07:11:02 10.1 C 8.13 g/m*3 10.1 C 0 km/h
1453 09-09-2008 07:16:02 10.1 C 8.13 g/m*3 10.1 C 0 km/h
1454 09-09-2008 07:21:02 10.2 C 8.18 g/m*3 10.2 C 0 km/h
1455 09-09-2008 07:26:02 10.1 C 8.13 g/m*3 10.1 C 0 km/h
1456 09-09-2008 07:31:02 10.1 C 8.13 g/m*3 10.1 C 0 km/h
1457 09-09-2008 07:36:02 10 C 8.08 g/m*3 10 C 0 km/h
1458 09-09-2008 07:41:02 10 C 8.08 g/m*3 10 C 0 km/h
1459 09-09-2008 07:46:02 10.1 C 8.23 g/m*3 10.1 C 0 km/h
1460 09-09-2008 07:51:02 10.2 C 8.28 g/m*3 10.2 C 0 km/h
1461 09-09-2008 07:56:02 10.2 C 8.28 g/m*3 10.2 C 0 km/h
1462 09-09-2008 08:01:01 10.3 C 8.33 g/m*3 10.3 C 0 km/h
1463 09-09-2008 08:06:01 10.3 C 8.33 g/m*3 10.3 C 0 km/h
1464 09-09-2008 08:11:01 10.3 C 8.33 g/m*3 10.3 C 0 km/h
1465 09-09-2008 08:16:02 10.3 C 8.33 g/m*3 10.3 C 0 km/h
1466 09-09-2008 08:21:02 10.4 C 8.38 g/m*3 10.4 C 0 km/h
1467 09-09-2008 08:26:02 10.5 C 8.44 g/m*3 10.5 C 0 km/h
1468 09-09-2008 08:31:02 10.6 C 8.49 g/m*3 10.6 C 0 km/h
1469 09-09-2008 08:36:02 10.6 C 8.39 g/m*3 10.6 C 0 km/h
1470 09-09-2008 08:41:02 10.7 C 8.45 g/m*3 10.7 C 0 km/h
1471 09-09-2008 08:46:01 10.7 C 8.55 g/m*3 10.7 C 0 km/h
1472 09-09-2008 08:51:01 10.8 C 8.5 g/m*3 10.8 C 0 km/h
1473 09-09-2008 08:56:01 10.9 C 8.55 g/m*3 10.9 C 0 km/h
1474 09-09-2008 09:01:02 11.2 C 8.62 g/m*3 11.2 C 0 km/h
1475 09-09-2008 09:06:02 11.3 C 8.67 g/m*3 11.3 C 0 km/h
Sensor: Nr:Datum:Temp:Abs-Feuchte:Windchill:Wind:
Aussen-T/F 1476 09-09-2008 09:11:02 11.4 C 8.62 g/m*3 11.4 C 0 km/h
1477 09-09-2008 09:16:02 11.6 C 8.73 g/m*3 11.6 C 0 km/h
1478 09-09-2008 09:21:02 11.7 C 8.68 g/m*3 11.7 C 0 km/h
1479 09-09-2008 09:26:02 11.7 C 8.58 g/m*3 11.7 C 0 km/h
1480 09-09-2008 09:31:02 11.9 C 8.68 g/m*3 11.9 C 0 km/h
1481 09-09-2008 09:36:02 12 C 8.63 g/m*3 12 C 0 km/h
1482 09-09-2008 09:41:02 12.3 C 8.8 g/m*3 12.3 C 0 km/h
1483 09-09-2008 09:46:02 12.5 C 8.8 g/m*3 12.5 C 0 km/h
1484 09-09-2008 09:51:02 12.7 C 8.91 g/m*3 12.7 C 0 km/h
1485 09-09-2008 09:56:02 12.7 C 8.79 g/m*3 12.7 C 0 km/h
1486 09-09-2008 10:01:02 12.5 C 8.69 g/m*3 12.5 C 0 km/h
1487 09-09-2008 10:06:02 12.4 C 8.74 g/m*3 12.4 C 0 km/h
1488 09-09-2008 10:11:02 12.4 C 8.74 g/m*3 12.4 C 0 km/h
1489 09-09-2008 10:16:02 12.5 C 8.91 g/m*3 12.5 C 0 km/h
1490 09-09-2008 10:21:02 12.7 C 9.13 g/m*3 12.7 C 0 km/h
1491 09-09-2008 10:26:02 12.7 C 9.13 g/m*3 12.7 C 0 km/h
1492 09-09-2008 10:31:02 12.9 C 9.24 g/m*3 12.9 C 0 km/h
1493 09-09-2008 10:36:02 13 C 9.19 g/m*3 13 C 0 km/h
1494 09-09-2008 10:41:02 13.1 C 9.13 g/m*3 13.1 C 0 km/h
1495 09-09-2008 10:46:02 13.4 C 9.3 g/m*3 13.4 C 0 km/h
1496 09-09-2008 10:51:02 13.8 C 9.53 g/m*3 13.8 C 0 km/h
1497 09-09-2008 10:56:02 14.2 C 9.65 g/m*3 14.2 C 0 km/h
1498 09-09-2008 11:01:02 14.5 C 9.83 g/m*3 14.5 C 0 km/h
1499 09-09-2008 11:06:02 14.9 C 9.94 g/m*3 14.9 C 0 km/h
1500 09-09-2008 11:11:02 15.2 C 9.99 g/m*3 15.2 C 0 km/h
Sensor: Nr:Datum:Temp:Abs-Feuchte:Windchill:Wind:
Aussen-T/F 1501 09-09-2008 11:16:02 15.5 C 10.05 g/m*3 15.5 C 0 km/h
1502 09-09-2008 11:21:02 15.9 C 10.16 g/m*3 15.9 C 0 km/h
1503 09-09-2008 11:26:02 16.4 C 10.19 g/m*3 16.4 C 0 km/h
1504 09-09-2008 11:31:02 16.6 C 10.17 g/m*3 16.6 C 0 km/h
1505 09-09-2008 11:36:02 17.1 C 10.04 g/m*3 17.1 C 0 km/h
1506 09-09-2008 11:41:02 17.5 C 10.29 g/m*3 17.5 C 0 km/h
1507 09-09-2008 11:46:02 17.6 C 10.35 g/m*3 17.6 C 0 km/h
1508 09-09-2008 11:51:02 17.8 C 10.47 g/m*3 17.8 C 0 km/h
1509 09-09-2008 11:56:02 18.2 C 10.41 g/m*3 18.2 C 0 km/h
1510 09-09-2008 12:01:02 18.5 C 10.6 g/m*3 18.5 C 0 km/h
1511 09-09-2008 12:06:02 18.6 C 10.66 g/m*3 18.6 C 0 km/h
1512 09-09-2008 12:11:02 19.1 C 10.49 g/m*3 19.1 C 0 km/h
1513 09-09-2008 12:16:02 19.5 C 10.57 g/m*3 19.5 C 0 km/h
1514 09-09-2008 12:21:02 19.7 C 10.7 g/m*3 19.7 C 0 km/h
1515 09-09-2008 12:26:02 19.8 C 10.59 g/m*3 19.8 C 0 km/h
1516 09-09-2008 12:31:02 20.4 C 9.91 g/m*3 20.4 C 0 km/h
1517 09-09-2008 12:36:02 20.7 C 10.62 g/m*3 20.7 C 0 km/h
1518 09-09-2008 12:41:02 21 C 10.44 g/m*3 21 C 0 km/h
1519 09-09-2008 12:46:02 21.2 C 10.38 g/m*3 21.2 C 0 km/h
1520 09-09-2008 12:51:02 21.3 C 10.44 g/m*3 21.3 C 0 km/h
1521 09-09-2008 12:56:02 21.7 C 9.16 g/m*3 21.7 C 0 km/h
1522 09-09-2008 13:01:02 22.3 C 9.08 g/m*3 22.3 C 0 km/h
1523 09-09-2008 13:06:02 22.5 C 9.39 g/m*3 22.5 C 0 km/h
1524 09-09-2008 13:11:02 22.5 C 8.99 g/m*3 22.5 C 0 km/h
1525 09-09-2008 13:16:02 23 C 8.43 g/m*3 23 C 0 km/h
Sensor: Nr:Datum:Temp:Abs-Feuchte:Windchill:Wind:
Aussen-T/F 1526 09-09-2008 13:21:02 23.3 C 8.36 g/m*3 23.3 C 0 km/h
1527 09-09-2008 13:26:02 23.6 C 8.93 g/m*3 23.6 C 0 km/h
1528 09-09-2008 13:31:02 23.7 C 8.56 g/m*3 23.7 C 0 km/h
1529 09-09-2008 13:36:02 24.1 C 7.66 g/m*3 24.1 C 0 km/h
1530 09-09-2008 13:41:02 24.2 C 7.92 g/m*3 24.2 C 0 km/h
1531 09-09-2008 13:46:02 24.4 C 7.57 g/m*3 24.4 C 0 km/h
1532 09-09-2008 13:51:02 24.6 C 7.88 g/m*3 24.6 C 0 km/h
1533 09-09-2008 13:56:02 25.1 C 7.41 g/m*3 25.1 C 0 km/h
1534 09-09-2008 14:01:02 25.2 C 7.45 g/m*3 25.2 C 0 km/h
1535 09-09-2008 14:06:02 25.6 C 7.38 g/m*3 25.6 C 0 km/h
1536 09-09-2008 14:11:02 25.6 C 6.9 g/m*3 25.6 C 0 km/h
1537 09-09-2008 14:16:02 25.8 C 7.22 g/m*3 25.8 C 0 km/h
1538 09-09-2008 14:21:02 26.1 C 7.1 g/m*3 26.1 C 0 km/h
1539 09-09-2008 14:26:02 26.5 C 7.76 g/m*3 26.5 C 0 km/h
1540 09-09-2008 14:31:02 26.6 C 7.3 g/m*3 26.6 C 0 km/h
1541 09-09-2008 14:36:02 26.8 C 6.87 g/m*3 26.8 C 0 km/h
1542 09-09-2008 14:41:02 27 C 6.43 g/m*3 27 C 0 km/h
1543 09-09-2008 14:46:02 27 C 6.69 g/m*3 27 C 0 km/h
1544 09-09-2008 14:51:02 27.1 C 6.73 g/m*3 27.1 C 0 km/h
1545 09-09-2008 14:56:02 27.3 C 6.8 g/m*3 27.3 C 0 km/h
1546 09-09-2008 15:01:01 27.4 C 6.58 g/m*3 27.4 C 0 km/h
1547 09-09-2008 15:06:01 27.5 C 6.61 g/m*3 27.5 C 0 km/h
1548 09-09-2008 15:11:01 27.8 C 6.72 g/m*3 27.8 C 0 km/h
1549 09-09-2008 15:16:02 28 C 5.98 g/m*3 28 C 0 km/h
1550 09-09-2008 15:21:02 28.2 C 6.05 g/m*3 28.2 C 0 km/h
Sensor: Nr:Datum:Temp:Abs-Feuchte:Windchill:Wind:
Aussen-T/F 1551 09-09-2008 15:26:02 28.1 C 6.02 g/m*3 28.1 C 0 km/h
1552 09-09-2008 15:31:01 27.8 C 5.65 g/m*3 27.8 C 0 km/h
1553 09-09-2008 15:36:01 27.6 C 5.59 g/m*3 27.6 C 0 km/h
1554 09-09-2008 15:41:01 27.9 C 5.95 g/m*3 27.9 C 0 km/h
1555 09-09-2008 15:46:02 28.4 C 5.84 g/m*3 28.4 C 0 km/h
1556 09-09-2008 15:51:02 28.9 C 6.28 g/m*3 28.9 C 0 km/h
1557 09-09-2008 15:56:02 29.2 C 6.97 g/m*3 29.2 C 0 km/h
1558 09-09-2008 16:01:02 29.2 C 6.1 g/m*3 29.2 C 0 km/h
1559 09-09-2008 16:06:02 29.3 C 6.13 g/m*3 29.3 C 0 km/h
1560 09-09-2008 16:11:02 29.4 C 6.16 g/m*3 29.4 C 0 km/h
1561 09-09-2008 16:16:02 29.6 C 6.53 g/m*3 29.6 C 0 km/h
1562 09-09-2008 16:21:02 29.5 C 6.79 g/m*3 29.5 C 0 km/h
1563 09-09-2008 16:26:02 29.7 C 6.56 g/m*3 29.7 C 0 km/h
1564 09-09-2008 16:31:02 29.9 C 6.64 g/m*3 29.9 C 0 km/h
1565 09-09-2008 16:36:02 30 C 6.37 g/m*3 30 C 0 km/h
1566 09-09-2008 16:41:02 30.1 C 6.4 g/m*3 30.1 C 0 km/h
1567 09-09-2008 16:46:02 30.3 C 6.16 g/m*3 30.3 C 0 km/h
1568 09-09-2008 16:51:02 30.1 C 6.1 g/m*3 30.1 C 0 km/h
1569 09-09-2008 16:56:02 30 C 6.06 g/m*3 30 C 0 km/h
1570 09-09-2008 17:01:01 29.5 C 5.9 g/m*3 29.5 C 0 km/h
1571 09-09-2008 17:06:01 29.5 C 5.9 g/m*3 29.5 C 0 km/h
1572 09-09-2008 17:11:01 30.1 C 6.4 g/m*3 30.1 C 0 km/h
1573 09-09-2008 17:16:02 30 C 6.06 g/m*3 30 C 0 km/h
1574 09-09-2008 17:21:02 30.1 C 6.1 g/m*3 30.1 C 0 km/h
1575 09-09-2008 17:26:02 30 C 6.06 g/m*3 30 C 0 km/h
Sensor: Nr:Datum:Temp:Abs-Feuchte:Windchill:Wind:
Aussen-T/F 1576 09-09-2008 17:31:01 30 C 6.06 g/m*3 30 C 0 km/h
1577 09-09-2008 17:36:01 30 C 6.06 g/m*3 30 C 0 km/h
1578 09-09-2008 17:41:02 30.1 C 6.1 g/m*3 30.1 C 0 km/h
1579 09-09-2008 17:46:02 30.3 C 6.16 g/m*3 30.3 C 0 km/h
1580 09-09-2008 17:51:02 30.3 C 6.16 g/m*3 30.3 C 0 km/h
1581 09-09-2008 17:56:02 30.1 C 6.1 g/m*3 30.1 C 0 km/h
1582 09-09-2008 18:01:02 30.2 C 6.74 g/m*3 30.2 C 0 km/h
1583 09-09-2008 18:06:02 30.2 C 6.13 g/m*3 30.2 C 0 km/h
1584 09-09-2008 18:11:02 30 C 6.06 g/m*3 30 C 0 km/h
1585 09-09-2008 18:16:02 29.9 C 6.03 g/m*3 29.9 C 0 km/h
1586 09-09-2008 18:21:02 29.7 C 6.27 g/m*3 29.7 C 0 km/h
1587 09-09-2008 18:26:02 29.4 C 5.87 g/m*3 29.4 C 0 km/h
1588 09-09-2008 18:31:01 29 C 6.03 g/m*3 29 C 0 km/h
1589 09-09-2008 18:36:01 28.8 C 6.25 g/m*3 28.8 C 0 km/h
1590 09-09-2008 18:41:01 28.5 C 6.71 g/m*3 28.5 C 0 km/h
1591 09-09-2008 18:46:02 28 C 6.8 g/m*3 28 C 0 km/h
1592 09-09-2008 18:51:02 27.4 C 6.58 g/m*3 27.4 C 0 km/h
1593 09-09-2008 18:56:02 27.2 C 6.77 g/m*3 27.2 C 0 km/h
1594 09-09-2008 19:01:02 27 C 6.69 g/m*3 27 C 0 km/h
1595 09-09-2008 19:06:02 25.9 C 7.26 g/m*3 25.9 C 0 km/h
1596 09-09-2008 19:11:02 25.5 C 6.87 g/m*3 25.5 C 0 km/h
1597 09-09-2008 19:16:01 24.9 C 6.87 g/m*3 24.9 C 0 km/h
1598 09-09-2008 19:21:01 24.6 C 6.75 g/m*3 24.6 C 0 km/h
1599 09-09-2008 19:26:01 24.3 C 6.86 g/m*3 24.3 C 0 km/h
1600 09-09-2008 19:31:02 23.9 C 7.14 g/m*3 23.9 C 0 km/h
Sensor: Nr:Datum:Temp:Abs-Feuchte:Windchill:Wind:
Aussen-T/F 1601 09-09-2008 19:36:02 23.3 C 6.9 g/m*3 23.3 C 0 km/h
1602 09-09-2008 19:41:03 22.9 C 7.15 g/m*3 22.9 C 0 km/h
1603 09-09-2008 19:46:02 22.6 C 7.03 g/m*3 22.6 C 0 km/h
1604 09-09-2008 19:51:02 22.5 C 7.19 g/m*3 22.5 C 0 km/h
1605 09-09-2008 19:56:02 22.1 C 7.42 g/m*3 22.1 C 0 km/h
1606 09-09-2008 20:01:03 22.1 C 7.42 g/m*3 22.1 C 0 km/h
1607 09-09-2008 20:06:03 21.7 C 7.44 g/m*3 21.7 C 0 km/h
1608 09-09-2008 20:11:03 21.5 C 7.17 g/m*3 21.5 C 0 km/h
1609 09-09-2008 20:16:02 21.4 C 7.31 g/m*3 21.4 C 0 km/h
1610 09-09-2008 20:21:02 21.1 C 7 g/m*3 21.1 C 0 km/h
1611 09-09-2008 20:26:03 20.8 C 7.42 g/m*3 20.8 C 0 km/h
1612 09-09-2008 20:31:02 20.7 C 7.38 g/m*3 20.7 C 0 km/h
1613 09-09-2008 20:36:02 20.4 C 7.25 g/m*3 20.4 C 0 km/h
1614 09-09-2008 20:41:02 20.4 C 7.25 g/m*3 20.4 C 0 km/h
1615 09-09-2008 20:46:02 20.3 C 7.39 g/m*3 20.3 C 0 km/h
1616 09-09-2008 20:51:02 20.2 C 7.52 g/m*3 20.2 C 0 km/h
1617 09-09-2008 20:56:02 20.2 C 7.52 g/m*3 20.2 C 0 km/h
1618 09-09-2008 21:01:02 20.1 C 7.65 g/m*3 20.1 C 0 km/h
1619 09-09-2008 21:06:02 20.1 C 7.65 g/m*3 20.1 C 0 km/h
1620 09-09-2008 21:11:02 20 C 7.6 g/m*3 20 C 0 km/h
1621 09-09-2008 21:16:01 19.9 C 7.73 g/m*3 19.9 C 0 km/h
1622 09-09-2008 21:21:01 19.9 C 7.56 g/m*3 19.9 C 0 km/h
1623 09-09-2008 21:26:01 19.9 C 7.73 g/m*3 19.9 C 0 km/h
1624 09-09-2008 21:31:02 19.7 C 7.81 g/m*3 19.7 C 0 km/h
1625 09-09-2008 21:36:03 20.1 C 8 g/m*3 20.1 C 0 km/h
Sensor: Nr:Datum:Temp:Abs-Feuchte:Windchill:Wind:
Aussen-T/F 1626 09-09-2008 21:41:03 19.8 C 8.2 g/m*3 19.8 C 0 km/h
1627 09-09-2008 21:46:02 19.7 C 8.15 g/m*3 19.7 C 0 km/h
1628 09-09-2008 21:51:02 19.8 C 8.2 g/m*3 19.8 C 0 km/h
1629 09-09-2008 21:56:02 19.8 C 8.2 g/m*3 19.8 C 0 km/h
1630 09-09-2008 22:01:03 20 C 8.12 g/m*3 20 C 0 km/h
1631 09-09-2008 22:06:03 20.1 C 8 g/m*3 20.1 C 0 km/h
1632 09-09-2008 22:11:03 20.1 C 8 g/m*3 20.1 C 0 km/h
1633 09-09-2008 22:16:02 20.1 C 8.17 g/m*3 20.1 C 0 km/h
1634 09-09-2008 22:21:02 20.1 C 8.34 g/m*3 20.1 C 0 km/h
1635 09-09-2008 22:26:03 19.9 C 8.59 g/m*3 19.9 C 0 km/h
1636 09-09-2008 22:32:03 19.8 C 8.54 g/m*3 19.8 C 0 km/h
1637 09-09-2008 22:37:03 19.7 C 8.15 g/m*3 19.7 C 0 km/h
1638 09-09-2008 22:42:03 19.9 C 8.59 g/m*3 19.9 C 0 km/h
1639 09-09-2008 22:47:03 19.9 C 8.59 g/m*3 19.9 C 0 km/h
1640 09-09-2008 22:52:04 19.9 C 8.76 g/m*3 19.9 C 0 km/h
1641 09-09-2008 22:57:04 19.8 C 8.71 g/m*3 19.8 C 0 km/h
1642 09-09-2008 23:02:04 19.8 C 8.88 g/m*3 19.8 C 0 km/h
1643 09-09-2008 23:07:04 19.8 C 8.88 g/m*3 19.8 C 0 km/h
1644 09-09-2008 23:12:04 19.8 C 8.88 g/m*3 19.8 C 0 km/h
1645 09-09-2008 23:17:04 19.8 C 8.88 g/m*3 19.8 C 0 km/h
1646 09-09-2008 23:22:04 19.8 C 9.22 g/m*3 19.8 C 0 km/h
1647 09-09-2008 23:27:04 19.8 C 9.05 g/m*3 19.8 C 0 km/h
1648 09-09-2008 23:32:04 19.8 C 8.88 g/m*3 19.8 C 0 km/h
1649 09-09-2008 23:37:04 19.8 C 9.05 g/m*3 19.8 C 0 km/h
1650 09-09-2008 23:42:04 19.7 C 9 g/m*3 19.7 C 0 km/h
Sensor: Nr:Datum:Temp:Abs-Feuchte:Windchill:Wind:
Aussen-T/F 1651 09-09-2008 23:47:04 19.7 C 9.17 g/m*3 19.7 C 0 km/h
1652 09-09-2008 23:52:04 19.7 C 9.17 g/m*3 19.7 C 0 km/h
1653 09-09-2008 23:57:04 19.7 C 9.17 g/m*3 19.7 C 0 km/h
1654 10-09-2008 00:02:04 19.5 C 9.06 g/m*3 19.5 C 0 km/h
1655 10-09-2008 00:07:04 19.5 C 8.89 g/m*3 19.5 C 0 km/h
1656 10-09-2008 00:12:04 19.6 C 9.12 g/m*3 19.6 C 0 km/h
1657 10-09-2008 00:17:04 19.4 C 9.34 g/m*3 19.4 C 0 km/h
1658 10-09-2008 00:22:04 19.2 C 9.4 g/m*3 19.2 C 0 km/h
1659 10-09-2008 00:27:04 18.9 C 10.04 g/m*3 18.9 C 0 km/h
1660 10-09-2008 00:32:04 18.9 C 10.04 g/m*3 18.9 C 0 km/h
1661 10-09-2008 00:37:05 18.8 C 9.82 g/m*3 18.8 C 0 km/h
1662 10-09-2008 00:42:05 18.8 C 9.66 g/m*3 18.8 C 0 km/h
1663 10-09-2008 00:47:05 18.9 C 9.56 g/m*3 18.9 C 0 km/h
1664 10-09-2008 00:52:05 18.9 C 9.72 g/m*3 18.9 C 0 km/h
1665 10-09-2008 00:57:05 18.8 C 9.66 g/m*3 18.8 C 0 km/h
1666 10-09-2008 01:02:05 18.7 C 9.45 g/m*3 18.7 C 0 km/h
1667 10-09-2008 01:07:05 18.5 C 9.65 g/m*3 18.5 C 0 km/h
1668 10-09-2008 01:12:05 18.4 C 9.75 g/m*3 18.4 C 0 km/h
1669 10-09-2008 01:17:05 18.2 C 9.64 g/m*3 18.2 C 0 km/h
1670 10-09-2008 01:22:05 18 C 9.68 g/m*3 18 C 0 km/h
1671 10-09-2008 01:27:05 17.9 C 9.92 g/m*3 17.9 C 0 km/h
1672 10-09-2008 01:32:05 17.8 C 9.87 g/m*3 17.8 C 0 km/h
1673 10-09-2008 01:37:05 17.9 C 9.92 g/m*3 17.9 C 0 km/h
1674 10-09-2008 01:42:05 18 C 9.83 g/m*3 18 C 0 km/h
1675 10-09-2008 01:47:05 18 C 9.83 g/m*3 18 C 0 km/h
Sensor: Nr:Datum:Temp:Abs-Feuchte:Windchill:Wind:
Aussen-T/F 1676 10-09-2008 01:52:05 18 C 9.83 g/m*3 18 C 0 km/h
1677 10-09-2008 01:57:05 18.1 C 9.73 g/m*3 18.1 C 0 km/h
1678 10-09-2008 02:02:05 18.1 C 9.73 g/m*3 18.1 C 0 km/h
1679 10-09-2008 02:07:05 18.1 C 9.58 g/m*3 18.1 C 0 km/h
1680 10-09-2008 02:12:05 17.9 C 9.62 g/m*3 17.9 C 0 km/h
1681 10-09-2008 02:17:06 17.8 C 9.71 g/m*3 17.8 C 0 km/h
1682 10-09-2008 02:22:06 17.7 C 9.66 g/m*3 17.7 C 0 km/h
1683 10-09-2008 02:27:06 17.5 C 9.54 g/m*3 17.5 C 0 km/h
1684 10-09-2008 02:32:06 17.4 C 9.48 g/m*3 17.4 C 0 km/h
1685 10-09-2008 02:37:06 17.3 C 9.58 g/m*3 17.3 C 0 km/h
1686 10-09-2008 02:42:06 17.2 C 9.67 g/m*3 17.2 C 0 km/h
1687 10-09-2008 02:47:06 17.2 C 9.67 g/m*3 17.2 C 0 km/h
1688 10-09-2008 02:52:06 17 C 9.55 g/m*3 17 C 0 km/h
1689 10-09-2008 02:57:06 16.9 C 9.78 g/m*3 16.9 C 0 km/h
1690 10-09-2008 03:02:06 16.9 C 9.78 g/m*3 16.9 C 0 km/h
1691 10-09-2008 03:07:06 16.9 C 9.78 g/m*3 16.9 C 0 km/h
1692 10-09-2008 03:12:06 16.7 C 9.81 g/m*3 16.7 C 0 km/h
1693 10-09-2008 03:17:06 16.6 C 9.75 g/m*3 16.6 C 0 km/h
1694 10-09-2008 03:22:06 16.6 C 9.75 g/m*3 16.6 C 0 km/h
1695 10-09-2008 03:27:06 16.6 C 9.75 g/m*3 16.6 C 0 km/h
1696 10-09-2008 03:32:06 16.4 C 9.77 g/m*3 16.4 C 0 km/h
1697 10-09-2008 03:37:06 16.4 C 9.77 g/m*3 16.4 C 0 km/h
1698 10-09-2008 03:42:06 16.3 C 9.71 g/m*3 16.3 C 0 km/h
1699 10-09-2008 03:47:06 16.2 C 9.65 g/m*3 16.2 C 0 km/h
1700 10-09-2008 03:52:06 16.2 C 9.79 g/m*3 16.2 C 0 km/h
Sensor: Nr:Datum:Temp:Abs-Feuchte:Windchill:Wind:
Aussen-T/F 1701 10-09-2008 03:57:06 16.2 C 9.79 g/m*3 16.2 C 0 km/h
1702 10-09-2008 04:02:07 16 C 9.81 g/m*3 16 C 0 km/h
1703 10-09-2008 04:07:07 15.9 C 10.02 g/m*3 15.9 C 0 km/h
1704 10-09-2008 04:12:07 15.9 C 10.02 g/m*3 15.9 C 0 km/h
1705 10-09-2008 04:17:07 15.9 C 10.02 g/m*3 15.9 C 0 km/h
1706 10-09-2008 04:22:07 15.8 C 9.96 g/m*3 15.8 C 0 km/h
1707 10-09-2008 04:27:07 15.8 C 9.96 g/m*3 15.8 C 0 km/h
1708 10-09-2008 04:32:07 15.8 C 9.96 g/m*3 15.8 C 0 km/h
1709 10-09-2008 04:37:07 15.8 C 9.96 g/m*3 15.8 C 0 km/h
1710 10-09-2008 04:42:07 15.8 C 10.1 g/m*3 15.8 C 0 km/h
1711 10-09-2008 04:47:07 15.8 C 10.1 g/m*3 15.8 C 0 km/h
1712 10-09-2008 04:52:07 15.7 C 10.17 g/m*3 15.7 C 0 km/h
1713 10-09-2008 04:57:07 15.7 C 10.17 g/m*3 15.7 C 0 km/h
1714 10-09-2008 05:02:07 15.6 C 10.11 g/m*3 15.6 C 0 km/h
1715 10-09-2008 05:07:07 15.6 C 10.11 g/m*3 15.6 C 0 km/h
1716 10-09-2008 05:12:07 15.6 C 10.24 g/m*3 15.6 C 0 km/h
1717 10-09-2008 05:17:07 15.5 C 10.31 g/m*3 15.5 C 0 km/h
1718 10-09-2008 05:22:07 15.5 C 10.31 g/m*3 15.5 C 0 km/h
1719 10-09-2008 05:27:07 15.5 C 10.31 g/m*3 15.5 C 0 km/h
1720 10-09-2008 05:32:07 15.5 C 10.57 g/m*3 15.5 C 0 km/h
1721 10-09-2008 05:37:07 15.6 C 10.77 g/m*3 15.6 C 0 km/h
1722 10-09-2008 05:42:07 15.8 C 11.04 g/m*3 15.8 C 0 km/h
1723 10-09-2008 05:47:08 15.8 C 11.04 g/m*3 15.8 C 0 km/h
1724 10-09-2008 05:52:08 16 C 11.04 g/m*3 16 C 0 km/h
1725 10-09-2008 05:57:08 16 C 10.9 g/m*3 16 C 0 km/h
Sensor: Nr:Datum:Temp:Abs-Feuchte:Windchill:Wind:
Aussen-T/F 1726 10-09-2008 06:02:08 15.9 C 10.83 g/m*3 15.9 C 0 km/h
1727 10-09-2008 06:07:08 16 C 10.76 g/m*3 16 C 0 km/h
1728 10-09-2008 06:12:08 16.1 C 10.83 g/m*3 16.1 C 0 km/h
1729 10-09-2008 06:17:08 16.1 C 10.69 g/m*3 16.1 C 0 km/h
1730 10-09-2008 06:22:08 16.1 C 10.69 g/m*3 16.1 C 0 km/h
1731 10-09-2008 06:27:08 15.9 C 10.56 g/m*3 15.9 C 0 km/h
1732 10-09-2008 06:32:08 15.7 C 10.57 g/m*3 15.7 C 0 km/h
1733 10-09-2008 06:37:08 15.7 C 10.57 g/m*3 15.7 C 0 km/h
1734 10-09-2008 06:42:08 15.6 C 10.51 g/m*3 15.6 C 0 km/h
1735 10-09-2008 06:47:02 15.6 C 10.64 g/m*3 15.6 C 0 km/h
1736 10-09-2008 06:52:02 15.6 C 10.64 g/m*3 15.6 C 0 km/h
1737 10-09-2008 06:57:02 15.8 C 10.9 g/m*3 15.8 C 0 km/h
1738 10-09-2008 07:02:02 15.8 C 10.9 g/m*3 15.8 C 0 km/h
1739 10-09-2008 07:07:02 15.7 C 10.84 g/m*3 15.7 C 0 km/h
1740 10-09-2008 07:12:02 15.7 C 10.84 g/m*3 15.7 C 0 km/h
1741 10-09-2008 07:17:02 15.8 C 10.9 g/m*3 15.8 C 0 km/h
1742 10-09-2008 07:22:02 15.8 C 10.9 g/m*3 15.8 C 0 km/h
1743 10-09-2008 07:27:02 15.8 C 10.9 g/m*3 15.8 C 0 km/h
1744 10-09-2008 07:32:02 16.2 C 11.03 g/m*3 16.2 C 0 km/h
1745 10-09-2008 07:37:02 16.2 C 10.89 g/m*3 16.2 C 0 km/h
1746 10-09-2008 07:42:02 16.2 C 10.89 g/m*3 16.2 C 0 km/h
1747 10-09-2008 07:47:01 16.5 C 11.09 g/m*3 16.5 C 0 km/h
1748 10-09-2008 07:52:01 16.5 C 11.09 g/m*3 16.5 C 0 km/h
1749 10-09-2008 07:57:01 16.8 C 11.01 g/m*3 16.8 C 0 km/h
1750 10-09-2008 08:02:02 17 C 10.85 g/m*3 17 C 0 km/h
Sensor: Nr:Datum:Temp:Abs-Feuchte:Windchill:Wind:
Aussen-T/F 1751 10-09-2008 08:07:02 17.1 C 10.77 g/m*3 17.1 C 0 km/h
1752 10-09-2008 08:12:02 17.2 C 10.84 g/m*3 17.2 C 0 km/h
1753 10-09-2008 08:17:01 17.1 C 10.77 g/m*3 17.1 C 0 km/h
1754 10-09-2008 08:22:01 17.9 C 11.3 g/m*3 17.9 C 0 km/h
1755 10-09-2008 08:27:01 17.2 C 10.84 g/m*3 17.2 C 0 km/h
1756 10-09-2008 08:32:02 17.4 C 10.82 g/m*3 17.4 C 0 km/h
1757 10-09-2008 08:37:02 17.5 C 10.88 g/m*3 17.5 C 0 km/h
1758 10-09-2008 08:42:02 17.5 C 10.88 g/m*3 17.5 C 0 km/h
1759 10-09-2008 08:47:02 17.5 C 10.88 g/m*3 17.5 C 0 km/h
1760 10-09-2008 08:52:02 17.5 C 10.88 g/m*3 17.5 C 0 km/h
1761 10-09-2008 08:57:02 17.6 C 10.95 g/m*3 17.6 C 0 km/h
1762 10-09-2008 09:02:01 17.8 C 11.08 g/m*3 17.8 C 0 km/h
1763 10-09-2008 09:07:01 17.9 C 10.99 g/m*3 17.9 C 0 km/h
1764 10-09-2008 09:12:01 18 C 11.06 g/m*3 18 C 0 km/h
1765 10-09-2008 09:17:02 18.1 C 11.12 g/m*3 18.1 C 0 km/h
1766 10-09-2008 09:22:02 18.3 C 11.1 g/m*3 18.3 C 0 km/h
1767 10-09-2008 09:27:02 18.4 C 11.17 g/m*3 18.4 C 0 km/h
1768 10-09-2008 09:32:01 18.5 C 11.08 g/m*3 18.5 C 0 km/h
1769 10-09-2008 09:37:01 18.8 C 11.27 g/m*3 18.8 C 0 km/h
1770 10-09-2008 09:42:02 19 C 10.92 g/m*3 19 C 0 km/h
1771 10-09-2008 09:47:02 19 C 10.92 g/m*3 19 C 0 km/h
1772 10-09-2008 09:52:02 19.4 C 11.18 g/m*3 19.4 C 0 km/h
1773 10-09-2008 09:57:02 20 C 11.23 g/m*3 20 C 0 km/h
1774 10-09-2008 10:02:02 20.1 C 11.13 g/m*3 20.1 C 0 km/h
1775 10-09-2008 10:07:02 20.5 C 11.03 g/m*3 20.5 C 0 km/h
Sensor: Nr:Datum:Temp:Abs-Feuchte:Windchill:Wind:
Aussen-T/F 1776 10-09-2008 10:12:02 20.8 C 11.23 g/m*3 20.8 C 0 km/h
1777 10-09-2008 10:17:01 21 C 10.99 g/m*3 21 C 0 km/h
1778 10-09-2008 10:22:01 21.3 C 11.18 g/m*3 21.3 C 0 km/h
1779 10-09-2008 10:27:01 21.4 C 11.25 g/m*3 21.4 C 0 km/h
1780 10-09-2008 10:32:02 21.5 C 11.31 g/m*3 21.5 C 0 km/h
1781 10-09-2008 10:37:02 21.6 C 11.19 g/m*3 21.6 C 0 km/h
1782 10-09-2008 10:42:02 21.5 C 11.13 g/m*3 21.5 C 0 km/h
1783 10-09-2008 10:47:02 21.5 C 11.13 g/m*3 21.5 C 0 km/h
1784 10-09-2008 10:52:02 21.5 C 11.13 g/m*3 21.5 C 0 km/h
1785 10-09-2008 10:57:03 21.4 C 11.06 g/m*3 21.4 C 0 km/h
1786 10-09-2008 11:02:02 21.4 C 11.25 g/m*3 21.4 C 0 km/h
1787 10-09-2008 11:07:02 21.6 C 11.19 g/m*3 21.6 C 0 km/h
1788 10-09-2008 11:12:02 21.9 C 11.19 g/m*3 21.9 C 0 km/h
1789 10-09-2008 11:17:02 22.1 C 10.93 g/m*3 22.1 C 0 km/h
1790 10-09-2008 11:22:02 22.2 C 10.99 g/m*3 22.2 C 0 km/h
1791 10-09-2008 11:27:02 22.5 C 10.99 g/m*3 22.5 C 0 km/h
1792 10-09-2008 11:32:02 22.6 C 11.05 g/m*3 22.6 C 0 km/h
1793 10-09-2008 11:37:02 22.7 C 11.31 g/m*3 22.7 C 0 km/h
1794 10-09-2008 11:42:02 22.7 C 11.11 g/m*3 22.7 C 0 km/h
1795 10-09-2008 11:47:02 22.6 C 11.25 g/m*3 22.6 C 0 km/h
1796 10-09-2008 11:52:02 22.6 C 11.25 g/m*3 22.6 C 0 km/h
1797 10-09-2008 11:57:02 22.7 C 11.31 g/m*3 22.7 C 0 km/h
1798 10-09-2008 12:02:02 23 C 11.1 g/m*3 23 C 0 km/h
1799 10-09-2008 12:07:03 23.2 C 11.02 g/m*3 23.2 C 0 km/h
1800 10-09-2008 12:12:03 23.2 C 11.02 g/m*3 23.2 C 0 km/h
Sensor: Nr:Datum:Temp:Abs-Feuchte:Windchill:Wind:
Aussen-T/F 1801 10-09-2008 12:17:02 23.5 C 11.21 g/m*3 23.5 C 0 km/h
1802 10-09-2008 12:22:02 23.4 C 11.14 g/m*3 23.4 C 0 km/h
1803 10-09-2008 12:27:02 23.2 C 11.23 g/m*3 23.2 C 0 km/h
1804 10-09-2008 12:32:02 23.2 C 11.23 g/m*3 23.2 C 0 km/h
1805 10-09-2008 12:37:02 23.5 C 11.42 g/m*3 23.5 C 0 km/h
1806 10-09-2008 12:42:02 24 C 11.1 g/m*3 24 C 0 km/h
1807 10-09-2008 12:47:02 24 C 10.88 g/m*3 24 C 0 km/h
1808 10-09-2008 12:52:02 24.2 C 11 g/m*3 24.2 C 0 km/h
1809 10-09-2008 12:57:03 24.4 C 10.9 g/m*3 24.4 C 0 km/h
1810 10-09-2008 13:02:01 24.5 C 10.97 g/m*3 24.5 C 0 km/h
1811 10-09-2008 13:07:01 24.9 C 10.76 g/m*3 24.9 C 0 km/h
1812 10-09-2008 13:12:01 25 C 10.59 g/m*3 25 C 0 km/h
1813 10-09-2008 13:17:02 24.9 C 10.53 g/m*3 24.9 C 0 km/h
1814 10-09-2008 13:22:02 24.8 C 10.7 g/m*3 24.8 C 0 km/h
1815 10-09-2008 13:27:02 24.7 C 10.41 g/m*3 24.7 C 0 km/h
1816 10-09-2008 13:32:02 24.9 C 10.99 g/m*3 24.9 C 0 km/h
1817 10-09-2008 13:37:02 24.9 C 10.76 g/m*3 24.9 C 0 km/h
1818 10-09-2008 13:42:02 24.6 C 10.58 g/m*3 24.6 C 0 km/h
1819 10-09-2008 13:47:01 24.4 C 10.46 g/m*3 24.4 C 0 km/h
1820 10-09-2008 13:52:01 24.4 C 10.46 g/m*3 24.4 C 0 km/h
1821 10-09-2008 13:57:01 24.6 C 10.8 g/m*3 24.6 C 0 km/h
1822 10-09-2008 14:02:02 25.4 C 10.83 g/m*3 25.4 C 0 km/h
1823 10-09-2008 14:07:02 25.7 C 10.29 g/m*3 25.7 C 0 km/h
1824 10-09-2008 14:12:02 26 C 10.23 g/m*3 26 C 0 km/h
1825 10-09-2008 14:17:02 26.1 C 9.79 g/m*3 26.1 C 0 km/h
Sensor: Nr:Datum:Temp:Abs-Feuchte:Windchill:Wind:
Aussen-T/F 1826 10-09-2008 14:22:02 25.9 C 9.93 g/m*3 25.9 C 0 km/h
1827 10-09-2008 14:27:02 25.9 C 9.93 g/m*3 25.9 C 0 km/h
1828 10-09-2008 14:32:02 25.8 C 9.87 g/m*3 25.8 C 0 km/h
1829 10-09-2008 14:37:02 25.5 C 9.71 g/m*3 25.5 C 0 km/h
1830 10-09-2008 14:42:02 25.6 C 9.76 g/m*3 25.6 C 0 km/h
1831 10-09-2008 14:47:02 25.6 C 10 g/m*3 25.6 C 0 km/h
1832 10-09-2008 14:52:03 25.7 C 9.82 g/m*3 25.7 C 0 km/h
1833 10-09-2008 14:57:03 25.9 C 9.68 g/m*3 25.9 C 0 km/h
1834 10-09-2008 15:02:01 26.5 C 9.51 g/m*3 26.5 C 0 km/h
1835 10-09-2008 15:07:01 26.6 C 9.57 g/m*3 26.6 C 0 km/h
1836 10-09-2008 15:12:01 26.8 C 9.67 g/m*3 26.8 C 0 km/h
1837 10-09-2008 15:17:02 26.9 C 9.47 g/m*3 26.9 C 0 km/h
1838 10-09-2008 15:22:02 27.3 C 9.42 g/m*3 27.3 C 0 km/h
1839 10-09-2008 15:27:02 27.3 C 9.16 g/m*3 27.3 C 0 km/h
1840 10-09-2008 15:32:01 27.2 C 9.11 g/m*3 27.2 C 0 km/h
1841 10-09-2008 15:37:01 27.3 C 9.42 g/m*3 27.3 C 0 km/h
1842 10-09-2008 15:42:01 27.1 C 9.32 g/m*3 27.1 C 0 km/h
1843 10-09-2008 15:47:01 26.9 C 9.21 g/m*3 26.9 C 0 km/h
1844 10-09-2008 15:52:01 27 C 9.26 g/m*3 27 C 0 km/h
1845 10-09-2008 15:57:01 26.7 C 9.37 g/m*3 26.7 C 0 km/h
1846 10-09-2008 16:02:02 26.9 C 9.73 g/m*3 26.9 C 0 km/h
1847 10-09-2008 16:07:02 26.8 C 9.42 g/m*3 26.8 C 0 km/h
1848 10-09-2008 16:12:02 27 C 9.01 g/m*3 27 C 0 km/h
1849 10-09-2008 16:17:01 27 C 9.01 g/m*3 27 C 0 km/h
1850 10-09-2008 16:22:01 27.4 C 9.21 g/m*3 27.4 C 0 km/h
Sensor: Nr:Datum:Temp:Abs-Feuchte:Windchill:Wind:
Aussen-T/F 1851 10-09-2008 16:27:01 27.7 C 9.36 g/m*3 27.7 C 0 km/h
1852 10-09-2008 16:32:02 27.7 C 9.09 g/m*3 27.7 C 0 km/h
1853 10-09-2008 16:37:02 27.5 C 8.73 g/m*3 27.5 C 0 km/h
1854 10-09-2008 16:42:02 27.8 C 9.15 g/m*3 27.8 C 0 km/h
1855 10-09-2008 16:47:02 27.9 C 8.92 g/m*3 27.9 C 0 km/h
1856 10-09-2008 16:52:03 27.8 C 8.88 g/m*3 27.8 C 0 km/h
1857 10-09-2008 16:57:03 27.8 C 8.88 g/m*3 27.8 C 0 km/h
1858 10-09-2008 17:02:02 27.6 C 8.78 g/m*3 27.6 C 0 km/h
1859 10-09-2008 17:07:02 27.6 C 9.04 g/m*3 27.6 C 0 km/h
1860 10-09-2008 17:12:02 27.3 C 8.9 g/m*3 27.3 C 0 km/h
1861 10-09-2008 17:17:02 27.7 C 9.09 g/m*3 27.7 C 0 km/h
1862 10-09-2008 17:22:02 27.8 C 8.88 g/m*3 27.8 C 0 km/h
1863 10-09-2008 17:27:02 27.8 C 8.88 g/m*3 27.8 C 0 km/h
1864 10-09-2008 17:32:02 28 C 8.7 g/m*3 28 C 0 km/h
1865 10-09-2008 17:37:02 28.3 C 8.57 g/m*3 28.3 C 0 km/h
1866 10-09-2008 17:42:02 28 C 8.43 g/m*3 28 C 0 km/h
1867 10-09-2008 17:47:02 28.2 C 8.52 g/m*3 28.2 C 0 km/h
1868 10-09-2008 17:52:02 27.7 C 8.83 g/m*3 27.7 C 0 km/h
1869 10-09-2008 17:57:02 27.6 C 8.78 g/m*3 27.6 C 0 km/h
1870 10-09-2008 18:02:02 27.5 C 9 g/m*3 27.5 C 0 km/h
1871 10-09-2008 18:07:02 27.5 C 9 g/m*3 27.5 C 0 km/h
1872 10-09-2008 18:12:02 27.7 C 8.83 g/m*3 27.7 C 0 km/h
1873 10-09-2008 18:17:02 27.9 C 8.92 g/m*3 27.9 C 0 km/h
1874 10-09-2008 18:22:02 27.3 C 8.63 g/m*3 27.3 C 0 km/h
1875 10-09-2008 18:27:02 27.4 C 8.95 g/m*3 27.4 C 0 km/h
Sensor: Nr:Datum:Temp:Abs-Feuchte:Windchill:Wind:
Aussen-T/F 1876 10-09-2008 18:32:02 27.2 C 9.11 g/m*3 27.2 C 0 km/h
1877 10-09-2008 18:37:02 27.5 C 9.26 g/m*3 27.5 C 0 km/h
1878 10-09-2008 18:42:02 27.7 C 9.36 g/m*3 27.7 C 0 km/h
1879 10-09-2008 18:47:02 27.5 C 9 g/m*3 27.5 C 0 km/h
1880 10-09-2008 18:52:02 27.4 C 8.95 g/m*3 27.4 C 0 km/h
1881 10-09-2008 18:57:02 27.2 C 8.85 g/m*3 27.2 C 0 km/h
1882 10-09-2008 19:02:01 26.6 C 8.81 g/m*3 26.6 C 0 km/h
1883 10-09-2008 19:07:01 26.5 C 9.01 g/m*3 26.5 C 0 km/h
1884 10-09-2008 19:12:01 26.4 C 9.46 g/m*3 26.4 C 0 km/h
1885 10-09-2008 19:17:02 26.3 C 9.41 g/m*3 26.3 C 0 km/h
1886 10-09-2008 19:22:02 26 C 9.25 g/m*3 26 C 0 km/h
1887 10-09-2008 19:27:02 25.8 C 9.63 g/m*3 25.8 C 0 km/h
1888 10-09-2008 19:32:01 25.3 C 9.6 g/m*3 25.3 C 0 km/h
1889 10-09-2008 19:37:01 24.7 C 9.51 g/m*3 24.7 C 0 km/h
1890 10-09-2008 19:42:01 24.4 C 9.79 g/m*3 24.4 C 0 km/h
1891 10-09-2008 19:47:01 23.9 C 9.95 g/m*3 23.9 C 0 km/h
1892 10-09-2008 19:52:01 23.7 C 9.84 g/m*3 23.7 C 0 km/h
1893 10-09-2008 19:57:01 23.6 C 10 g/m*3 23.6 C 0 km/h
1894 10-09-2008 20:02:02 23.3 C 10.04 g/m*3 23.3 C 0 km/h
1895 10-09-2008 20:07:02 23.1 C 10.13 g/m*3 23.1 C 0 km/h
1896 10-09-2008 20:12:02 22.9 C 10.42 g/m*3 22.9 C 0 km/h
1897 10-09-2008 20:17:01 22.7 C 10.51 g/m*3 22.7 C 0 km/h
1898 10-09-2008 20:22:01 22.5 C 10.39 g/m*3 22.5 C 0 km/h
1899 10-09-2008 20:27:01 22.5 C 10.59 g/m*3 22.5 C 0 km/h
1900 10-09-2008 20:32:02 22.3 C 10.66 g/m*3 22.3 C 0 km/h
Sensor: Nr:Datum:Temp:Abs-Feuchte:Windchill:Wind:
Aussen-T/F 1901 10-09-2008 20:37:02 22.2 C 10.6 g/m*3 22.2 C 0 km/h
1902 10-09-2008 20:42:02 22.1 C 10.74 g/m*3 22.1 C 0 km/h
1903 10-09-2008 20:47:02 21.9 C 11 g/m*3 21.9 C 0 km/h
1904 10-09-2008 20:52:02 21.7 C 10.87 g/m*3 21.7 C 0 km/h
1905 10-09-2008 20:57:02 21.7 C 11.06 g/m*3 21.7 C 0 km/h
1906 10-09-2008 21:02:02 21.6 C 11 g/m*3 21.6 C 0 km/h
1907 10-09-2008 21:07:02 21.4 C 11.06 g/m*3 21.4 C 0 km/h
1908 10-09-2008 21:12:02 21.4 C 11.06 g/m*3 21.4 C 0 km/h
1909 10-09-2008 21:18:02 21.2 C 10.93 g/m*3 21.2 C 0 km/h
1910 10-09-2008 21:23:02 21.1 C 11.06 g/m*3 21.1 C 0 km/h
1911 10-09-2008 21:28:02 21 C 11.17 g/m*3 21 C 0 km/h
1912 10-09-2008 21:33:02 20.9 C 11.29 g/m*3 20.9 C 0 km/h
1913 10-09-2008 21:38:03 20.9 C 11.29 g/m*3 20.9 C 0 km/h
1914 10-09-2008 21:43:03 20.8 C 11.23 g/m*3 20.8 C 0 km/h
1915 10-09-2008 21:48:03 20.7 C 11.34 g/m*3 20.7 C 0 km/h
1916 10-09-2008 21:53:03 20.6 C 11.28 g/m*3 20.6 C 0 km/h
1917 10-09-2008 21:58:03 20.6 C 11.28 g/m*3 20.6 C 0 km/h
1918 10-09-2008 22:03:03 20.6 C 11.28 g/m*3 20.6 C 0 km/h
1919 10-09-2008 22:08:03 20.5 C 11.21 g/m*3 20.5 C 0 km/h
1920 10-09-2008 22:13:03 20.4 C 11.14 g/m*3 20.4 C 0 km/h
1921 10-09-2008 22:18:03 20.4 C 11.14 g/m*3 20.4 C 0 km/h
1922 10-09-2008 22:23:03 20.4 C 11.14 g/m*3 20.4 C 0 km/h
1923 10-09-2008 22:28:03 20.4 C 11.32 g/m*3 20.4 C 0 km/h
1924 10-09-2008 22:33:03 20.3 C 11.26 g/m*3 20.3 C 0 km/h
1925 10-09-2008 22:38:03 20.2 C 11.19 g/m*3 20.2 C 0 km/h
Sensor: Nr:Datum:Temp:Abs-Feuchte:Windchill:Wind:
Aussen-T/F 1926 10-09-2008 22:43:03 20.1 C 11.13 g/m*3 20.1 C 0 km/h
1927 10-09-2008 22:48:03 20.1 C 11.3 g/m*3 20.1 C 0 km/h
1928 10-09-2008 22:53:03 20 C 11.23 g/m*3 20 C 0 km/h
1929 10-09-2008 22:58:03 19.9 C 11.51 g/m*3 19.9 C 0 km/h
1930 10-09-2008 23:03:03 19.8 C 11.61 g/m*3 19.8 C 0 km/h
1931 10-09-2008 23:08:03 19.9 C 11.85 g/m*3 19.9 C 0 km/h
1932 10-09-2008 23:13:03 19.9 C 11.85 g/m*3 19.9 C 0 km/h
1933 10-09-2008 23:18:04 20 C 11.75 g/m*3 20 C 0 km/h
1934 10-09-2008 23:23:04 19.7 C 11.72 g/m*3 19.7 C 0 km/h
1935 10-09-2008 23:28:04 19.7 C 11.72 g/m*3 19.7 C 0 km/h
1936 10-09-2008 23:33:04 19.6 C 11.82 g/m*3 19.6 C 0 km/h
1937 10-09-2008 23:38:04 19.6 C 11.99 g/m*3 19.6 C 0 km/h
1938 10-09-2008 23:43:04 19.5 C 11.92 g/m*3 19.5 C 0 km/h
1939 10-09-2008 23:48:04 19.5 C 11.92 g/m*3 19.5 C 0 km/h
1940 10-09-2008 23:53:04 19.4 C 12.01 g/m*3 19.4 C 0 km/h
1941 10-09-2008 23:58:04 19.3 C 11.94 g/m*3 19.3 C 0 km/h
1942 11-09-2008 00:03:04 19.2 C 12.04 g/m*3 19.2 C 0 km/h
1943 11-09-2008 00:08:04 19.1 C 11.97 g/m*3 19.1 C 0 km/h
1944 11-09-2008 00:13:04 19.1 C 12.13 g/m*3 19.1 C 0 km/h
1945 11-09-2008 00:18:04 18.9 C 12.15 g/m*3 18.9 C 0 km/h
1946 11-09-2008 00:23:04 18.7 C 12.17 g/m*3 18.7 C 0 km/h
1947 11-09-2008 00:28:04 18.7 C 12.17 g/m*3 18.7 C 0 km/h
1948 11-09-2008 00:33:04 18.7 C 12.17 g/m*3 18.7 C 0 km/h
1949 11-09-2008 00:38:04 18.5 C 12.02 g/m*3 18.5 C 0 km/h
1950 11-09-2008 00:43:04 18.4 C 11.95 g/m*3 18.4 C 0 km/h
Sensor: Nr:Datum:Temp:Abs-Feuchte:Windchill:Wind:
Aussen-T/F 1951 11-09-2008 00:48:04 18.3 C 11.88 g/m*3 18.3 C 0 km/h
1952 11-09-2008 00:53:05 18.2 C 11.81 g/m*3 18.2 C 0 km/h
1953 11-09-2008 00:58:05 18 C 11.67 g/m*3 18 C 0 km/h
1954 11-09-2008 01:03:05 18 C 11.67 g/m*3 18 C 0 km/h
1955 11-09-2008 01:08:05 17.8 C 11.69 g/m*3 17.8 C 0 km/h
1956 11-09-2008 01:13:05 17.6 C 11.7 g/m*3 17.6 C 0 km/h
1957 11-09-2008 01:18:05 17.5 C 11.63 g/m*3 17.5 C 0 km/h
1958 11-09-2008 01:23:05 17.5 C 11.63 g/m*3 17.5 C 0 km/h
1959 11-09-2008 01:28:05 17.5 C 11.63 g/m*3 17.5 C 0 km/h
1960 11-09-2008 01:33:05 17.4 C 11.56 g/m*3 17.4 C 0 km/h
1961 11-09-2008 01:38:05 17.3 C 11.49 g/m*3 17.3 C 0 km/h
1962 11-09-2008 01:43:05 17.2 C 11.42 g/m*3 17.2 C 0 km/h
1963 11-09-2008 01:48:05 17.2 C 11.57 g/m*3 17.2 C 0 km/h
1964 11-09-2008 01:53:05 17.2 C 11.57 g/m*3 17.2 C 0 km/h
1965 11-09-2008 01:58:05 17.3 C 11.64 g/m*3 17.3 C 0 km/h
1966 11-09-2008 02:03:05 17.1 C 11.5 g/m*3 17.1 C 0 km/h
1967 11-09-2008 02:08:05 17 C 11.43 g/m*3 17 C 0 km/h
1968 11-09-2008 02:13:05 16.9 C 11.65 g/m*3 16.9 C 0 km/h
1969 11-09-2008 02:18:05 16.7 C 11.51 g/m*3 16.7 C 0 km/h
1970 11-09-2008 02:23:05 16.6 C 11.44 g/m*3 16.6 C 0 km/h
1971 11-09-2008 02:28:06 16.6 C 11.44 g/m*3 16.6 C 0 km/h
1972 11-09-2008 02:33:06 16.5 C 11.51 g/m*3 16.5 C 0 km/h
1973 11-09-2008 02:38:06 16.4 C 11.45 g/m*3 16.4 C 0 km/h
1974 11-09-2008 02:43:06 16.4 C 11.31 g/m*3 16.4 C 0 km/h
1975 11-09-2008 02:48:06 16.3 C 11.24 g/m*3 16.3 C 0 km/h
Sensor: Nr:Datum:Temp:Abs-Feuchte:Windchill:Wind:
Aussen-T/F 1976 11-09-2008 02:53:06 16.3 C 11.24 g/m*3 16.3 C 0 km/h
1977 11-09-2008 02:58:06 16.2 C 11.17 g/m*3 16.2 C 0 km/h
1978 11-09-2008 03:03:06 16.2 C 11.17 g/m*3 16.2 C 0 km/h
1979 11-09-2008 03:08:06 16.1 C 11.1 g/m*3 16.1 C 0 km/h
1980 11-09-2008 03:13:06 16.1 C 11.1 g/m*3 16.1 C 0 km/h
1981 11-09-2008 03:18:06 16 C 11.04 g/m*3 16 C 0 km/h
1982 11-09-2008 03:23:06 16 C 11.04 g/m*3 16 C 0 km/h
1983 11-09-2008 03:28:06 16 C 11.17 g/m*3 16 C 0 km/h
1984 11-09-2008 03:33:06 15.9 C 11.1 g/m*3 15.9 C 0 km/h
1985 11-09-2008 03:38:06 15.9 C 11.1 g/m*3 15.9 C 0 km/h
1986 11-09-2008 03:43:06 15.8 C 11.04 g/m*3 15.8 C 0 km/h
1987 11-09-2008 03:48:06 15.8 C 11.04 g/m*3 15.8 C 0 km/h
1988 11-09-2008 03:53:06 15.8 C 11.04 g/m*3 15.8 C 0 km/h
1989 11-09-2008 03:58:06 15.7 C 10.97 g/m*3 15.7 C 0 km/h
1990 11-09-2008 04:03:06 15.6 C 10.91 g/m*3 15.6 C 0 km/h
1991 11-09-2008 04:08:07 15.7 C 10.97 g/m*3 15.7 C 0 km/h
1992 11-09-2008 04:13:07 15.5 C 10.84 g/m*3 15.5 C 0 km/h
1993 11-09-2008 04:18:07 15.4 C 10.9 g/m*3 15.4 C 0 km/h
1994 11-09-2008 04:23:07 15.4 C 10.9 g/m*3 15.4 C 0 km/h
1995 11-09-2008 04:28:07 15.4 C 10.9 g/m*3 15.4 C 0 km/h
1996 11-09-2008 04:33:07 15.3 C 10.84 g/m*3 15.3 C 0 km/h
1997 11-09-2008 04:38:07 15.3 C 10.84 g/m*3 15.3 C 0 km/h
1998 11-09-2008 04:43:07 15.3 C 10.84 g/m*3 15.3 C 0 km/h
1999 11-09-2008 04:48:07 15.3 C 10.97 g/m*3 15.3 C 0 km/h
2000 11-09-2008 04:53:07 15.3 C 10.97 g/m*3 15.3 C 0 km/h
Sensor: Nr:Datum:Temp:Abs-Feuchte:Windchill:Wind:
Aussen-T/F 2001 11-09-2008 04:58:07 15.3 C 10.97 g/m*3 15.3 C 0 km/h
2002 11-09-2008 05:03:07 15.4 C 11.04 g/m*3 15.4 C 0 km/h
2003 11-09-2008 05:08:07 15.5 C 11.1 g/m*3 15.5 C 0 km/h
2004 11-09-2008 05:13:07 15.5 C 11.1 g/m*3 15.5 C 0 km/h
2005 11-09-2008 05:18:07 15.6 C 11.17 g/m*3 15.6 C 0 km/h
2006 11-09-2008 05:23:07 15.6 C 11.17 g/m*3 15.6 C 0 km/h
2007 11-09-2008 05:28:07 15.6 C 11.17 g/m*3 15.6 C 0 km/h
2008 11-09-2008 05:33:07 15.6 C 11.17 g/m*3 15.6 C 0 km/h
2009 11-09-2008 05:38:07 15.5 C 11.1 g/m*3 15.5 C 0 km/h
2010 11-09-2008 05:43:08 15.5 C 11.1 g/m*3 15.5 C 0 km/h
2011 11-09-2008 05:48:08 15.5 C 11.1 g/m*3 15.5 C 0 km/h
2012 11-09-2008 05:53:08 15.5 C 10.97 g/m*3 15.5 C 0 km/h
2013 11-09-2008 05:58:08 15.4 C 11.04 g/m*3 15.4 C 0 km/h
2014 11-09-2008 06:03:08 15.4 C 11.04 g/m*3 15.4 C 0 km/h
2015 11-09-2008 06:08:08 15.3 C 10.97 g/m*3 15.3 C 0 km/h
2016 11-09-2008 06:13:08 15.2 C 10.9 g/m*3 15.2 C 0 km/h
2017 11-09-2008 06:18:08 15.1 C 10.84 g/m*3 15.1 C 0 km/h
2018 11-09-2008 06:23:08 15.1 C 10.84 g/m*3 15.1 C 0 km/h
2019 11-09-2008 06:28:08 15.2 C 11.03 g/m*3 15.2 C 0 km/h
2020 11-09-2008 06:33:08 15.1 C 10.97 g/m*3 15.1 C 0 km/h
2021 11-09-2008 06:38:08 15.1 C 10.97 g/m*3 15.1 C 0 km/h
2022 11-09-2008 06:43:08 15.2 C 11.03 g/m*3 15.2 C 0 km/h
2023 11-09-2008 06:48:08 15.3 C 11.1 g/m*3 15.3 C 0 km/h
2024 11-09-2008 06:53:08 15.3 C 11.1 g/m*3 15.3 C 0 km/h
2025 11-09-2008 06:58:08 15.4 C 11.17 g/m*3 15.4 C 0 km/h
Sensor: Nr:Datum:Temp:Abs-Feuchte:Windchill:Wind:
Aussen-T/F 2026 11-09-2008 07:03:02 15.4 C 11.17 g/m*3 15.4 C 0 km/h
2027 11-09-2008 07:08:02 15.4 C 11.17 g/m*3 15.4 C 0 km/h
2028 11-09-2008 07:13:02 15.4 C 11.17 g/m*3 15.4 C 0 km/h
2029 11-09-2008 07:18:02 15.4 C 11.17 g/m*3 15.4 C 0 km/h
2030 11-09-2008 07:23:02 15.4 C 11.17 g/m*3 15.4 C 0 km/h
2031 11-09-2008 07:28:02 15.4 C 11.17 g/m*3 15.4 C 0 km/h
2032 11-09-2008 07:33:02 15.4 C 11.17 g/m*3 15.4 C 0 km/h
2033 11-09-2008 07:38:02 15.4 C 11.3 g/m*3 15.4 C 0 km/h
2034 11-09-2008 07:43:02 15.5 C 11.37 g/m*3 15.5 C 0 km/h
2035 11-09-2008 07:48:02 15.6 C 11.44 g/m*3 15.6 C 0 km/h
2036 11-09-2008 07:53:02 15.7 C 11.51 g/m*3 15.7 C 0 km/h
2037 11-09-2008 07:58:02 15.8 C 11.58 g/m*3 15.8 C 0 km/h
2038 11-09-2008 08:03:02 15.8 C 11.58 g/m*3 15.8 C 0 km/h
2039 11-09-2008 08:08:02 15.8 C 11.44 g/m*3 15.8 C 0 km/h
2040 11-09-2008 08:13:02 15.9 C 11.51 g/m*3 15.9 C 0 km/h
2041 11-09-2008 08:18:02 16 C 11.44 g/m*3 16 C 0 km/h
2042 11-09-2008 08:23:02 16 C 11.44 g/m*3 16 C 0 km/h
2043 11-09-2008 08:28:02 16.1 C 11.65 g/m*3 16.1 C 0 km/h
2044 11-09-2008 08:33:03 16.2 C 11.72 g/m*3 16.2 C 0 km/h
2045 11-09-2008 08:38:03 16.4 C 11.86 g/m*3 16.4 C 0 km/h
2046 11-09-2008 08:43:03 16.5 C 11.8 g/m*3 16.5 C 0 km/h
2047 11-09-2008 08:48:02 16.6 C 11.87 g/m*3 16.6 C 0 km/h
2048 11-09-2008 08:53:02 16.6 C 11.87 g/m*3 16.6 C 0 km/h
2049 11-09-2008 08:58:02 16.7 C 11.94 g/m*3 16.7 C 0 km/h
2050 11-09-2008 09:03:02 16.8 C 11.87 g/m*3 16.8 C 0 km/h
Sensor: Nr:Datum:Temp:Abs-Feuchte:Windchill:Wind:
Aussen-T/F 2051 11-09-2008 09:08:02 16.8 C 11.87 g/m*3 16.8 C 0 km/h
2052 11-09-2008 09:13:02 17 C 12.01 g/m*3 17 C 0 km/h
2053 11-09-2008 09:18:02 17.2 C 12.15 g/m*3 17.2 C 0 km/h
2054 11-09-2008 09:23:02 17.3 C 12.08 g/m*3 17.3 C 0 km/h
2055 11-09-2008 09:28:02 17.5 C 12.23 g/m*3 17.5 C 0 km/h
2056 11-09-2008 09:33:03 17.6 C 12.15 g/m*3 17.6 C 0 km/h
2057 11-09-2008 09:38:03 17.6 C 12 g/m*3 17.6 C 0 km/h
2058 11-09-2008 09:43:03 17.7 C 12.07 g/m*3 17.7 C 0 km/h
2059 11-09-2008 09:48:02 17.8 C 11.99 g/m*3 17.8 C 0 km/h
2060 11-09-2008 09:53:02 17.9 C 12.06 g/m*3 17.9 C 0 km/h
2061 11-09-2008 09:58:02 18.2 C 12.12 g/m*3 18.2 C 0 km/h
2062 11-09-2008 10:03:03 18.4 C 12.11 g/m*3 18.4 C 0 km/h
2063 11-09-2008 10:08:03 18.7 C 12.33 g/m*3 18.7 C 0 km/h
2064 11-09-2008 10:13:03 18.8 C 12.24 g/m*3 18.8 C 0 km/h
2065 11-09-2008 10:18:02 19 C 12.06 g/m*3 19 C 0 km/h
2066 11-09-2008 10:23:02 19.2 C 12.04 g/m*3 19.2 C 0 km/h
2067 11-09-2008 10:28:02 19.3 C 12.11 g/m*3 19.3 C 0 km/h
2068 11-09-2008 10:33:02 19.5 C 12.08 g/m*3 19.5 C 0 km/h
2069 11-09-2008 10:38:02 19.7 C 12.06 g/m*3 19.7 C 0 km/h
2070 11-09-2008 10:43:02 19.9 C 12.03 g/m*3 19.9 C 0 km/h
2071 11-09-2008 10:48:03 20.1 C 11.82 g/m*3 20.1 C 0 km/h
2072 11-09-2008 10:53:03 20.5 C 12.1 g/m*3 20.5 C 0 km/h
2073 11-09-2008 10:58:03 20.4 C 11.85 g/m*3 20.4 C 0 km/h
2074 11-09-2008 11:03:02 20.5 C 11.74 g/m*3 20.5 C 0 km/h
2075 11-09-2008 11:08:02 20.8 C 11.95 g/m*3 20.8 C 0 km/h
Sensor: Nr:Datum:Temp:Abs-Feuchte:Windchill:Wind:
Aussen-T/F 2076 11-09-2008 11:13:02 20.9 C 11.84 g/m*3 20.9 C 0 km/h
2077 11-09-2008 11:18:02 21 C 11.72 g/m*3 21 C 0 km/h
2078 11-09-2008 11:23:02 21.1 C 11.79 g/m*3 21.1 C 0 km/h
2079 11-09-2008 11:28:02 21.2 C 11.68 g/m*3 21.2 C 0 km/h
2080 11-09-2008 11:33:02 21.1 C 11.61 g/m*3 21.1 C 0 km/h
2081 11-09-2008 11:38:02 20.9 C 11.66 g/m*3 20.9 C 0 km/h
2082 11-09-2008 11:43:03 20.8 C 11.95 g/m*3 20.8 C 0 km/h
2083 11-09-2008 11:48:01 20.9 C 12.02 g/m*3 20.9 C 0 km/h
2084 11-09-2008 11:53:01 21 C 11.91 g/m*3 21 C 0 km/h
2085 11-09-2008 11:58:01 21.1 C 11.79 g/m*3 21.1 C 0 km/h
2086 11-09-2008 12:03:02 21.1 C 11.98 g/m*3 21.1 C 0 km/h
2087 11-09-2008 12:08:02 21.2 C 12.05 g/m*3 21.2 C 0 km/h
2088 11-09-2008 12:13:02 21.2 C 12.05 g/m*3 21.2 C 0 km/h
2089 11-09-2008 12:18:02 21.5 C 12.26 g/m*3 21.5 C 0 km/h
2090 11-09-2008 12:23:02 21.6 C 12.14 g/m*3 21.6 C 0 km/h
2091 11-09-2008 12:28:03 21.9 C 12.35 g/m*3 21.9 C 0 km/h
2092 11-09-2008 12:33:01 22.2 C 12.17 g/m*3 22.2 C 0 km/h
2093 11-09-2008 12:38:01 22.5 C 12.38 g/m*3 22.5 C 0 km/h
2094 11-09-2008 12:43:01 22.8 C 12.19 g/m*3 22.8 C 0 km/h
2095 11-09-2008 12:48:02 23 C 12.13 g/m*3 23 C 0 km/h
2096 11-09-2008 12:53:02 23.1 C 12.2 g/m*3 23.1 C 0 km/h
2097 11-09-2008 12:58:02 23.3 C 12.13 g/m*3 23.3 C 0 km/h
2098 11-09-2008 13:03:01 23.7 C 12.19 g/m*3 23.7 C 0 km/h
2099 11-09-2008 13:08:01 24.1 C 12.03 g/m*3 24.1 C 0 km/h
2100 11-09-2008 13:13:01 24.3 C 12.17 g/m*3 24.3 C 0 km/h
Sensor: Nr:Datum:Temp:Abs-Feuchte:Windchill:Wind:
Aussen-T/F 2101 11-09-2008 13:18:01 24.7 C 12.22 g/m*3 24.7 C 0 km/h
2102 11-09-2008 13:23:01 24.9 C 12.13 g/m*3 24.9 C 0 km/h
2103 11-09-2008 13:28:01 24.9 C 11.9 g/m*3 24.9 C 0 km/h
2104 11-09-2008 13:33:02 25.4 C 11.77 g/m*3 25.4 C 0 km/h
2105 11-09-2008 13:38:02 25.7 C 11.73 g/m*3 25.7 C 0 km/h
2106 11-09-2008 13:43:02 25.9 C 11.86 g/m*3 25.9 C 0 km/h
2107 11-09-2008 13:48:02 26.1 C 12 g/m*3 26.1 C 0 km/h
2108 11-09-2008 13:53:02 26.4 C 11.7 g/m*3 26.4 C 0 km/h
2109 11-09-2008 13:58:02 26.5 C 11.77 g/m*3 26.5 C 0 km/h
2110 11-09-2008 14:03:01 26.9 C 11.77 g/m*3 26.9 C 0 km/h
2111 11-09-2008 14:08:01 27.2 C 11.45 g/m*3 27.2 C 0 km/h
2112 11-09-2008 14:13:01 27.5 C 11.38 g/m*3 27.5 C 0 km/h
2113 11-09-2008 14:18:02 27.7 C 11.5 g/m*3 27.7 C 0 km/h
2114 11-09-2008 14:23:02 27.8 C 11.3 g/m*3 27.8 C 0 km/h
2115 11-09-2008 14:28:02 27.9 C 11.09 g/m*3 27.9 C 0 km/h
2116 11-09-2008 14:33:02 27.8 C 11.03 g/m*3 27.8 C 0 km/h
2117 11-09-2008 14:38:02 28.2 C 11.27 g/m*3 28.2 C 0 km/h
2118 11-09-2008 14:43:02 28.3 C 11.06 g/m*3 28.3 C 0 km/h
2119 11-09-2008 14:48:01 28.3 C 11.33 g/m*3 28.3 C 0 km/h
2120 11-09-2008 14:53:01 28.7 C 11.3 g/m*3 28.7 C 0 km/h
2121 11-09-2008 14:58:01 29 C 10.63 g/m*3 29 C 0 km/h
2122 11-09-2008 15:03:02 29.4 C 10.27 g/m*3 29.4 C 0 km/h
2123 11-09-2008 15:08:03 29.6 C 10.68 g/m*3 29.6 C 0 km/h
2124 11-09-2008 15:13:03 29.4 C 9.98 g/m*3 29.4 C 0 km/h
2125 11-09-2008 15:18:02 29 C 10.63 g/m*3 29 C 0 km/h
Sensor: Nr:Datum:Temp:Abs-Feuchte:Windchill:Wind:
Aussen-T/F 2126 11-09-2008 15:23:02 28.8 C 10.51 g/m*3 28.8 C 0 km/h
2127 11-09-2008 15:28:02 28.7 C 10.17 g/m*3 28.7 C 0 km/h
2128 11-09-2008 15:33:02 28.8 C 10.51 g/m*3 28.8 C 0 km/h
2129 11-09-2008 15:38:02 28.9 C 10.86 g/m*3 28.9 C 0 km/h
2130 11-09-2008 15:43:02 29 C 9.77 g/m*3 29 C 0 km/h
2131 11-09-2008 15:48:02 29.2 C 9.29 g/m*3 29.2 C 0 km/h
2132 11-09-2008 15:53:02 29 C 8.9 g/m*3 29 C 0 km/h
2133 11-09-2008 15:58:02 28.6 C 8.99 g/m*3 28.6 C 0 km/h
2134 11-09-2008 16:03:01 28.3 C 9.68 g/m*3 28.3 C 0 km/h
2135 11-09-2008 16:08:01 28 C 10.06 g/m*3 28 C 0 km/h
2136 11-09-2008 16:13:01 27.7 C 10.7 g/m*3 27.7 C 0 km/h
2137 11-09-2008 16:18:02 27.1 C 10.61 g/m*3 27.1 C 0 km/h
2138 11-09-2008 16:23:02 26.6 C 11.08 g/m*3 26.6 C 0 km/h
2139 11-09-2008 16:28:02 26.5 C 10.51 g/m*3 26.5 C 0 km/h
2140 11-09-2008 16:33:02 26.3 C 11.39 g/m*3 26.3 C 0 km/h
2141 11-09-2008 16:38:02 26 C 11.2 g/m*3 26 C 0 km/h
2142 11-09-2008 16:43:02 25.9 C 11.62 g/m*3 25.9 C 0 km/h
2143 11-09-2008 16:48:02 25.8 C 11.56 g/m*3 25.8 C 0 km/h
2144 11-09-2008 16:53:02 25.6 C 10.95 g/m*3 25.6 C 0 km/h
2145 11-09-2008 16:58:02 25.4 C 11.06 g/m*3 25.4 C 0 km/h
2146 11-09-2008 17:03:02 25.1 C 11.11 g/m*3 25.1 C 0 km/h
2147 11-09-2008 17:08:02 25.3 C 10.77 g/m*3 25.3 C 0 km/h
2148 11-09-2008 17:13:02 25.2 C 10.94 g/m*3 25.2 C 0 km/h
2149 11-09-2008 17:18:02 25.1 C 10.88 g/m*3 25.1 C 0 km/h
2150 11-09-2008 17:23:02 25.1 C 10.88 g/m*3 25.1 C 0 km/h
Sensor: Nr:Datum:Temp:Abs-Feuchte:Windchill:Wind:
Aussen-T/F 2151 11-09-2008 17:28:02 24.8 C 11.38 g/m*3 24.8 C 0 km/h
2152 11-09-2008 17:33:02 24.7 C 11.54 g/m*3 24.7 C 0 km/h
2153 11-09-2008 17:38:02 24.6 C 11.7 g/m*3 24.6 C 0 km/h
2154 11-09-2008 17:43:02 23.2 C 13.1 g/m*3 23.2 C 0 km/h
2155 11-09-2008 17:48:02 22.7 C 13.74 g/m*3 22.7 C 0 km/h
2156 11-09-2008 17:53:02 21.6 C 14.22 g/m*3 21.6 C 0 km/h
2157 11-09-2008 17:58:02 21.1 C 14.56 g/m*3 21.1 C 0 km/h
2158 11-09-2008 18:03:01 20.9 C 14.75 g/m*3 20.9 C 0 km/h
2159 11-09-2008 18:08:01 20.8 C 14.85 g/m*3 20.8 C 0 km/h
2160 11-09-2008 18:13:01 20.9 C 15.12 g/m*3 20.9 C 0 km/h
2161 11-09-2008 18:18:02 21 C 15.02 g/m*3 21 C 0 km/h
2162 11-09-2008 18:23:02 21.1 C 15.11 g/m*3 21.1 C 0 km/h
2163 11-09-2008 18:28:02 21.4 C 15.37 g/m*3 21.4 C 0 km/h
2164 11-09-2008 18:33:02 21.6 C 15.36 g/m*3 21.6 C 0 km/h
2165 11-09-2008 18:38:02 21.8 C 15.54 g/m*3 21.8 C 0 km/h
2166 11-09-2008 18:43:02 22.1 C 15.42 g/m*3 22.1 C 0 km/h
2167 11-09-2008 18:48:02 22.2 C 15.31 g/m*3 22.2 C 0 km/h
2168 11-09-2008 18:53:02 22.2 C 15.31 g/m*3 22.2 C 0 km/h
2169 11-09-2008 18:58:02 22.2 C 15.12 g/m*3 22.2 C 0 km/h
2170 11-09-2008 19:03:02 22.2 C 15.12 g/m*3 22.2 C 0 km/h
2171 11-09-2008 19:08:02 22.1 C 15.03 g/m*3 22.1 C 0 km/h
2172 11-09-2008 19:13:02 22 C 14.94 g/m*3 22 C 0 km/h
2173 11-09-2008 19:18:02 21.8 C 15.16 g/m*3 21.8 C 0 km/h
2174 11-09-2008 19:23:02 21.6 C 14.98 g/m*3 21.6 C 0 km/h
2175 11-09-2008 19:28:02 21.4 C 14.81 g/m*3 21.4 C 0 km/h
Sensor: Nr:Datum:Temp:Abs-Feuchte:Windchill:Wind:
Aussen-T/F 2176 11-09-2008 19:33:01 21.2 C 14.83 g/m*3 21.2 C 0 km/h
2177 11-09-2008 19:38:01 21.1 C 14.74 g/m*3 21.1 C 0 km/h
2178 11-09-2008 19:43:01 21.1 C 14.92 g/m*3 21.1 C 0 km/h
2179 11-09-2008 19:48:02 20.9 C 14.93 g/m*3 20.9 C 0 km/h
2180 11-09-2008 19:53:02 20.8 C 14.85 g/m*3 20.8 C 0 km/h
2181 11-09-2008 19:58:02 20.7 C 14.76 g/m*3 20.7 C 0 km/h
2182 11-09-2008 20:03:02 20.6 C 14.68 g/m*3 20.6 C 0 km/h
2183 11-09-2008 20:08:02 20.4 C 14.51 g/m*3 20.4 C 0 km/h
2184 11-09-2008 20:13:02 20.3 C 14.42 g/m*3 20.3 C 0 km/h
2185 11-09-2008 20:18:02 20.1 C 14.25 g/m*3 20.1 C 0 km/h
2186 11-09-2008 20:23:02 20 C 14.17 g/m*3 20 C 0 km/h
2187 11-09-2008 20:28:02 19.9 C 14.26 g/m*3 19.9 C 0 km/h
2188 11-09-2008 20:33:02 19.9 C 14.26 g/m*3 19.9 C 0 km/h
2189 11-09-2008 20:38:02 19.9 C 14.26 g/m*3 19.9 C 0 km/h
2190 11-09-2008 20:43:02 19.9 C 14.26 g/m*3 19.9 C 0 km/h
2191 11-09-2008 20:48:01 20 C 14.17 g/m*3 20 C 0 km/h
2192 11-09-2008 20:53:01 19.7 C 14.26 g/m*3 19.7 C 0 km/h
2193 11-09-2008 20:58:01 19.6 C 14.18 g/m*3 19.6 C 0 km/h
2194 11-09-2008 21:03:01 19.5 C 14.1 g/m*3 19.5 C 0 km/h
2195 11-09-2008 21:08:01 19.6 C 14.18 g/m*3 19.6 C 0 km/h
2196 11-09-2008 21:13:01 19.5 C 14.1 g/m*3 19.5 C 0 km/h
2197 11-09-2008 21:18:01 19.5 C 14.1 g/m*3 19.5 C 0 km/h
2198 11-09-2008 21:23:01 19.5 C 14.1 g/m*3 19.5 C 0 km/h
2199 11-09-2008 21:28:01 19.4 C 14.01 g/m*3 19.4 C 0 km/h
2200 11-09-2008 21:33:01 19.3 C 13.93 g/m*3 19.3 C 0 km/h
Sensor: Nr:Datum:Temp:Abs-Feuchte:Windchill:Wind:
Aussen-T/F 2201 11-09-2008 21:38:01 19.3 C 13.93 g/m*3 19.3 C 0 km/h
2202 11-09-2008 21:43:01 19.3 C 14.1 g/m*3 19.3 C 0 km/h
2203 11-09-2008 21:49:03 19.2 C 14.02 g/m*3 19.2 C 0 km/h
2204 11-09-2008 21:54:03 19.2 C 14.02 g/m*3 19.2 C 0 km/h
2205 11-09-2008 21:59:03 19.1 C 13.93 g/m*3 19.1 C 0 km/h
2206 11-09-2008 22:04:03 19 C 13.85 g/m*3 19 C 0 km/h
2207 11-09-2008 22:09:03 19 C 13.85 g/m*3 19 C 0 km/h
2208 11-09-2008 22:14:03 19 C 13.85 g/m*3 19 C 0 km/h
2209 11-09-2008 22:19:03 18.9 C 13.93 g/m*3 18.9 C 0 km/h
2210 11-09-2008 22:24:03 18.9 C 13.93 g/m*3 18.9 C 0 km/h
2211 11-09-2008 22:29:03 18.8 C 13.85 g/m*3 18.8 C 0 km/h
2212 11-09-2008 22:34:03 18.8 C 13.85 g/m*3 18.8 C 0 km/h
2213 11-09-2008 22:39:03 18.7 C 13.93 g/m*3 18.7 C 0 km/h
2214 11-09-2008 22:44:03 18.7 C 13.93 g/m*3 18.7 C 0 km/h
2215 11-09-2008 22:49:03 18.7 C 13.77 g/m*3 18.7 C 0 km/h
2216 11-09-2008 22:54:03 18.6 C 13.69 g/m*3 18.6 C 0 km/h
2217 11-09-2008 22:59:03 18.6 C 13.85 g/m*3 18.6 C 0 km/h
2218 11-09-2008 23:04:04 18.6 C 13.85 g/m*3 18.6 C 0 km/h
2219 11-09-2008 23:09:04 18.5 C 13.77 g/m*3 18.5 C 0 km/h
2220 11-09-2008 23:14:04 18.5 C 13.77 g/m*3 18.5 C 0 km/h
2221 11-09-2008 23:19:04 18.5 C 13.77 g/m*3 18.5 C 0 km/h
2222 11-09-2008 23:24:04 18.4 C 13.68 g/m*3 18.4 C 0 km/h
2223 11-09-2008 23:29:04 18.3 C 13.6 g/m*3 18.3 C 0 km/h
2224 11-09-2008 23:34:04 18.2 C 13.52 g/m*3 18.2 C 0 km/h
2225 11-09-2008 23:39:04 18.1 C 13.44 g/m*3 18.1 C 0 km/h
Sensor: Nr:Datum:Temp:Abs-Feuchte:Windchill:Wind:
Aussen-T/F 2226 11-09-2008 23:44:04 18.1 C 13.44 g/m*3 18.1 C 0 km/h
2227 11-09-2008 23:49:04 18.1 C 13.44 g/m*3 18.1 C 0 km/h
2228 11-09-2008 23:54:04 18 C 13.36 g/m*3 18 C 0 km/h
2229 11-09-2008 23:59:04 18 C 13.52 g/m*3 18 C 0 km/h
2230 12-09-2008 00:04:04 18 C 13.52 g/m*3 18 C 0 km/h
2231 12-09-2008 00:09:04 18.1 C 13.6 g/m*3 18.1 C 0 km/h
2232 12-09-2008 00:14:04 18.1 C 13.6 g/m*3 18.1 C 0 km/h
2233 12-09-2008 00:19:04 18.1 C 13.6 g/m*3 18.1 C 0 km/h
2234 12-09-2008 00:24:04 18.1 C 13.6 g/m*3 18.1 C 0 km/h
2235 12-09-2008 00:29:04 18.1 C 13.6 g/m*3 18.1 C 0 km/h
2236 12-09-2008 00:34:04 18.1 C 13.6 g/m*3 18.1 C 0 km/h
2237 12-09-2008 00:39:05 18.1 C 13.6 g/m*3 18.1 C 0 km/h
2238 12-09-2008 00:44:05 18.1 C 13.6 g/m*3 18.1 C 0 km/h
2239 12-09-2008 00:49:05 18.1 C 13.6 g/m*3 18.1 C 0 km/h
2240 12-09-2008 00:54:05 18.1 C 13.6 g/m*3 18.1 C 0 km/h
2241 12-09-2008 00:59:05 18.1 C 13.6 g/m*3 18.1 C 0 km/h
2242 12-09-2008 01:04:05 18.1 C 13.6 g/m*3 18.1 C 0 km/h
2243 12-09-2008 01:09:05 18.1 C 13.6 g/m*3 18.1 C 0 km/h
2244 12-09-2008 01:14:05 18.1 C 13.6 g/m*3 18.1 C 0 km/h
2245 12-09-2008 01:19:05 18.2 C 13.68 g/m*3 18.2 C 0 km/h
2246 12-09-2008 01:24:05 18.2 C 13.68 g/m*3 18.2 C 0 km/h
2247 12-09-2008 01:29:05 18.2 C 13.68 g/m*3 18.2 C 0 km/h
2248 12-09-2008 01:34:05 18.2 C 13.52 g/m*3 18.2 C 0 km/h
2249 12-09-2008 01:39:05 18.3 C 13.6 g/m*3 18.3 C 0 km/h
2250 12-09-2008 01:44:05 18.3 C 13.6 g/m*3 18.3 C 0 km/h
Sensor: Nr:Datum:Temp:Abs-Feuchte:Windchill:Wind:
Aussen-T/F 2251 12-09-2008 01:49:05 18.3 C 13.6 g/m*3 18.3 C 0 km/h
2252 12-09-2008 01:54:05 18.3 C 13.45 g/m*3 18.3 C 0 km/h
2253 12-09-2008 01:59:05 18.3 C 13.45 g/m*3 18.3 C 0 km/h
2254 12-09-2008 02:04:05 18.2 C 13.37 g/m*3 18.2 C 0 km/h
2255 12-09-2008 02:09:05 18.3 C 13.45 g/m*3 18.3 C 0 km/h
2256 12-09-2008 02:14:06 18.2 C 13.37 g/m*3 18.2 C 0 km/h
2257 12-09-2008 02:19:06 18.3 C 13.45 g/m*3 18.3 C 0 km/h
2258 12-09-2008 02:24:06 18.3 C 13.45 g/m*3 18.3 C 0 km/h
2259 12-09-2008 02:29:06 18.3 C 13.45 g/m*3 18.3 C 0 km/h
2260 12-09-2008 02:34:06 18.3 C 13.45 g/m*3 18.3 C 0 km/h
2261 12-09-2008 02:39:06 18.3 C 13.45 g/m*3 18.3 C 0 km/h
2262 12-09-2008 02:44:06 18.3 C 13.45 g/m*3 18.3 C 0 km/h
2263 12-09-2008 02:49:06 18.3 C 13.45 g/m*3 18.3 C 0 km/h
2264 12-09-2008 02:54:06 18.3 C 13.45 g/m*3 18.3 C 0 km/h
2265 12-09-2008 02:59:06 18.3 C 13.45 g/m*3 18.3 C 0 km/h
2266 12-09-2008 03:04:06 18.3 C 13.45 g/m*3 18.3 C 0 km/h
2267 12-09-2008 03:09:06 18.2 C 13.37 g/m*3 18.2 C 0 km/h
2268 12-09-2008 03:14:06 18.1 C 13.44 g/m*3 18.1 C 0 km/h
2269 12-09-2008 03:19:06 18.1 C 13.44 g/m*3 18.1 C 0 km/h
2270 12-09-2008 03:24:06 18.1 C 13.44 g/m*3 18.1 C 0 km/h
2271 12-09-2008 03:29:06 18.2 C 13.52 g/m*3 18.2 C 0 km/h
2272 12-09-2008 03:34:06 18 C 13.36 g/m*3 18 C 0 km/h
2273 12-09-2008 03:39:06 17.9 C 13.44 g/m*3 17.9 C 0 km/h
2274 12-09-2008 03:44:06 17.9 C 13.59 g/m*3 17.9 C 0 km/h
2275 12-09-2008 03:49:07 17.8 C 13.51 g/m*3 17.8 C 0 km/h
Sensor: Nr:Datum:Temp:Abs-Feuchte:Windchill:Wind:
Aussen-T/F 2276 12-09-2008 03:54:07 17.8 C 13.51 g/m*3 17.8 C 0 km/h
2277 12-09-2008 03:59:07 17.8 C 13.51 g/m*3 17.8 C 0 km/h
2278 12-09-2008 04:04:07 17.9 C 13.59 g/m*3 17.9 C 0 km/h
2279 12-09-2008 04:09:07 17.9 C 13.59 g/m*3 17.9 C 0 km/h
2280 12-09-2008 04:14:07 17.9 C 13.59 g/m*3 17.9 C 0 km/h
2281 12-09-2008 04:19:07 17.8 C 13.51 g/m*3 17.8 C 0 km/h
2282 12-09-2008 04:24:07 17.8 C 13.51 g/m*3 17.8 C 0 km/h
2283 12-09-2008 04:29:07 17.8 C 13.51 g/m*3 17.8 C 0 km/h
2284 12-09-2008 04:34:07 17.8 C 13.51 g/m*3 17.8 C 0 km/h
2285 12-09-2008 04:39:07 17.8 C 13.51 g/m*3 17.8 C 0 km/h
2286 12-09-2008 04:44:07 17.7 C 13.43 g/m*3 17.7 C 0 km/h
2287 12-09-2008 04:49:07 17.7 C 13.43 g/m*3 17.7 C 0 km/h
2288 12-09-2008 04:54:07 17.7 C 13.43 g/m*3 17.7 C 0 km/h
2289 12-09-2008 04:59:07 17.7 C 13.58 g/m*3 17.7 C 0 km/h
2290 12-09-2008 05:04:07 17.7 C 13.58 g/m*3 17.7 C 0 km/h
2291 12-09-2008 05:09:07 17.7 C 13.58 g/m*3 17.7 C 0 km/h
2292 12-09-2008 05:14:07 17.7 C 13.58 g/m*3 17.7 C 0 km/h
2293 12-09-2008 05:19:07 17.5 C 13.27 g/m*3 17.5 C 0 km/h
2294 12-09-2008 05:24:07 17.5 C 13.27 g/m*3 17.5 C 0 km/h
2295 12-09-2008 05:29:08 17.5 C 13.42 g/m*3 17.5 C 0 km/h
2296 12-09-2008 05:34:08 17.4 C 13.19 g/m*3 17.4 C 0 km/h
2297 12-09-2008 05:39:08 17.4 C 13.19 g/m*3 17.4 C 0 km/h
2298 12-09-2008 05:44:08 17.4 C 13.19 g/m*3 17.4 C 0 km/h
2299 12-09-2008 05:49:08 17.4 C 13.34 g/m*3 17.4 C 0 km/h
2300 12-09-2008 05:54:08 17.2 C 13.03 g/m*3 17.2 C 0 km/h
Sensor: Nr:Datum:Temp:Abs-Feuchte:Windchill:Wind:
Aussen-T/F 2301 12-09-2008 05:59:08 17.2 C 13.03 g/m*3 17.2 C 0 km/h
2302 12-09-2008 06:04:08 17.3 C 13.26 g/m*3 17.3 C 0 km/h
2303 12-09-2008 06:09:08 17.5 C 13.42 g/m*3 17.5 C 0 km/h
2304 12-09-2008 06:14:08 17.5 C 13.42 g/m*3 17.5 C 0 km/h
2305 12-09-2008 06:19:08 17.4 C 13.34 g/m*3 17.4 C 0 km/h
2306 12-09-2008 06:24:08 17.4 C 13.34 g/m*3 17.4 C 0 km/h
2307 12-09-2008 06:29:08 17.5 C 13.42 g/m*3 17.5 C 0 km/h
2308 12-09-2008 06:34:08 17.4 C 13.34 g/m*3 17.4 C 0 km/h
2309 12-09-2008 06:39:08 17.2 C 13.18 g/m*3 17.2 C 0 km/h
2310 12-09-2008 06:44:08 17.2 C 13.18 g/m*3 17.2 C 0 km/h
2311 12-09-2008 06:49:08 17.2 C 13.03 g/m*3 17.2 C 0 km/h
2312 12-09-2008 06:54:08 17 C 12.88 g/m*3 17 C 0 km/h
2313 12-09-2008 06:59:08 16.9 C 12.94 g/m*3 16.9 C 0 km/h
2314 12-09-2008 07:04:02 16.9 C 12.94 g/m*3 16.9 C 0 km/h
2315 12-09-2008 07:09:02 16.9 C 12.94 g/m*3 16.9 C 0 km/h
2316 12-09-2008 07:14:02 17 C 12.88 g/m*3 17 C 0 km/h
2317 12-09-2008 07:19:03 17 C 12.88 g/m*3 17 C 0 km/h
2318 12-09-2008 07:24:03 16.9 C 12.94 g/m*3 16.9 C 0 km/h
2319 12-09-2008 07:29:03 16.9 C 12.94 g/m*3 16.9 C 0 km/h
2320 12-09-2008 07:34:02 17 C 12.88 g/m*3 17 C 0 km/h
2321 12-09-2008 07:39:02 16.8 C 12.87 g/m*3 16.8 C 0 km/h
2322 12-09-2008 07:44:02 16.9 C 12.8 g/m*3 16.9 C 0 km/h
2323 12-09-2008 07:49:01 16.8 C 12.87 g/m*3 16.8 C 0 km/h
2324 12-09-2008 07:54:01 16.8 C 12.87 g/m*3 16.8 C 0 km/h
2325 12-09-2008 07:59:01 16.9 C 12.94 g/m*3 16.9 C 0 km/h
Sensor: Nr:Datum:Temp:Abs-Feuchte:Windchill:Wind:
Aussen-T/F 2326 12-09-2008 08:04:02 16.9 C 12.94 g/m*3 16.9 C 0 km/h
2327 12-09-2008 08:09:02 16.9 C 12.94 g/m*3 16.9 C 0 km/h
2328 12-09-2008 08:14:02 17 C 12.88 g/m*3 17 C 0 km/h
2329 12-09-2008 08:19:01 17.1 C 12.96 g/m*3 17.1 C 0 km/h
2330 12-09-2008 08:24:01 17.1 C 12.96 g/m*3 17.1 C 0 km/h
2331 12-09-2008 08:29:01 17.1 C 12.81 g/m*3 17.1 C 0 km/h
2332 12-09-2008 08:34:02 17.2 C 12.89 g/m*3 17.2 C 0 km/h
2333 12-09-2008 08:39:02 17.3 C 12.96 g/m*3 17.3 C 0 km/h
2334 12-09-2008 08:44:02 17.5 C 13.12 g/m*3 17.5 C 0 km/h
2335 12-09-2008 08:49:02 17.4 C 12.89 g/m*3 17.4 C 0 km/h
2336 12-09-2008 08:54:02 17.5 C 12.97 g/m*3 17.5 C 0 km/h
2337 12-09-2008 08:59:02 17.4 C 12.89 g/m*3 17.4 C 0 km/h
2338 12-09-2008 09:04:02 17.2 C 12.74 g/m*3 17.2 C 0 km/h
2339 12-09-2008 09:09:02 17 C 12.73 g/m*3 17 C 0 km/h
2340 12-09-2008 09:14:02 16.9 C 12.8 g/m*3 16.9 C 0 km/h
2341 12-09-2008 09:19:02 16.9 C 12.8 g/m*3 16.9 C 0 km/h
2342 12-09-2008 09:24:02 17 C 12.88 g/m*3 17 C 0 km/h
2343 12-09-2008 09:29:02 17 C 12.88 g/m*3 17 C 0 km/h
2344 12-09-2008 09:34:02 16.9 C 12.94 g/m*3 16.9 C 0 km/h
2345 12-09-2008 09:39:02 16.8 C 12.87 g/m*3 16.8 C 0 km/h
2346 12-09-2008 09:44:02 16.9 C 13.09 g/m*3 16.9 C 0 km/h
2347 12-09-2008 09:49:02 17 C 13.02 g/m*3 17 C 0 km/h
2348 12-09-2008 09:54:02 17.3 C 13.41 g/m*3 17.3 C 0 km/h
2349 12-09-2008 09:59:02 17.5 C 13.57 g/m*3 17.5 C 0 km/h
2350 12-09-2008 10:04:01 17.5 C 13.57 g/m*3 17.5 C 0 km/h
Sensor: Nr:Datum:Temp:Abs-Feuchte:Windchill:Wind:
Aussen-T/F 2351 12-09-2008 10:09:01 17.3 C 13.26 g/m*3 17.3 C 0 km/h
2352 12-09-2008 10:14:01 17.3 C 13.26 g/m*3 17.3 C 0 km/h
2353 12-09-2008 10:19:02 17.4 C 13.34 g/m*3 17.4 C 0 km/h
2354 12-09-2008 10:24:02 17.7 C 13.73 g/m*3 17.7 C 0 km/h
2355 12-09-2008 10:29:02 17.6 C 13.65 g/m*3 17.6 C 0 km/h
2356 12-09-2008 10:34:01 17.5 C 13.57 g/m*3 17.5 C 0 km/h
2357 12-09-2008 10:39:01 17.6 C 13.65 g/m*3 17.6 C 0 km/h
2358 12-09-2008 10:44:01 17.6 C 13.65 g/m*3 17.6 C 0 km/h
2359 12-09-2008 10:49:01 17.6 C 13.65 g/m*3 17.6 C 0 km/h
2360 12-09-2008 10:54:01 17.7 C 13.73 g/m*3 17.7 C 0 km/h
2361 12-09-2008 10:59:01 17.7 C 13.73 g/m*3 17.7 C 0 km/h
2362 12-09-2008 11:04:02 17.7 C 13.73 g/m*3 17.7 C 0 km/h
2363 12-09-2008 11:09:02 17.6 C 13.65 g/m*3 17.6 C 0 km/h
2364 12-09-2008 11:14:02 17.5 C 13.57 g/m*3 17.5 C 0 km/h
2365 12-09-2008 11:19:01 17.6 C 13.65 g/m*3 17.6 C 0 km/h
2366 12-09-2008 11:24:01 17.6 C 13.65 g/m*3 17.6 C 0 km/h
2367 12-09-2008 11:29:01 17.7 C 13.73 g/m*3 17.7 C 0 km/h
2368 12-09-2008 11:34:02 17.6 C 13.65 g/m*3 17.6 C 0 km/h
2369 12-09-2008 11:39:02 17.6 C 13.8 g/m*3 17.6 C 0 km/h
2370 12-09-2008 11:44:02 17.7 C 13.88 g/m*3 17.7 C 0 km/h
2371 12-09-2008 11:49:02 17.7 C 13.88 g/m*3 17.7 C 0 km/h
2372 12-09-2008 11:54:02 17.7 C 13.88 g/m*3 17.7 C 0 km/h
2373 12-09-2008 11:59:02 17.7 C 13.88 g/m*3 17.7 C 0 km/h
2374 12-09-2008 12:04:02 17.7 C 13.88 g/m*3 17.7 C 0 km/h
2375 12-09-2008 12:09:02 17.9 C 14.05 g/m*3 17.9 C 0 km/h
Sensor: Nr:Datum:Temp:Abs-Feuchte:Windchill:Wind:
Aussen-T/F 2376 12-09-2008 12:14:02 17.9 C 14.05 g/m*3 17.9 C 0 km/h
2377 12-09-2008 12:19:02 17.7 C 13.88 g/m*3 17.7 C 0 km/h
2378 12-09-2008 12:24:02 17.7 C 13.88 g/m*3 17.7 C 0 km/h
2379 12-09-2008 12:29:02 17.7 C 13.88 g/m*3 17.7 C 0 km/h
2380 12-09-2008 12:34:02 17.8 C 13.96 g/m*3 17.8 C 0 km/h
2381 12-09-2008 12:39:02 17.9 C 14.05 g/m*3 17.9 C 0 km/h
2382 12-09-2008 12:44:02 17.9 C 14.05 g/m*3 17.9 C 0 km/h
2383 12-09-2008 12:49:02 18 C 13.98 g/m*3 18 C 0 km/h
2384 12-09-2008 12:54:02 18 C 13.98 g/m*3 18 C 0 km/h
2385 12-09-2008 12:59:02 18 C 13.98 g/m*3 18 C 0 km/h
2386 12-09-2008 13:04:02 17.9 C 14.05 g/m*3 17.9 C 0 km/h
2387 12-09-2008 13:09:02 18 C 13.98 g/m*3 18 C 0 km/h
2388 12-09-2008 13:14:02 18.1 C 14.06 g/m*3 18.1 C 0 km/h
2389 12-09-2008 13:19:02 18.1 C 14.06 g/m*3 18.1 C 0 km/h
2390 12-09-2008 13:24:02 18.1 C 14.06 g/m*3 18.1 C 0 km/h
2391 12-09-2008 13:29:02 18 C 13.98 g/m*3 18 C 0 km/h
2392 12-09-2008 13:34:02 17.9 C 14.05 g/m*3 17.9 C 0 km/h
2393 12-09-2008 13:39:02 17.9 C 14.05 g/m*3 17.9 C 0 km/h
2394 12-09-2008 13:44:02 17.9 C 14.05 g/m*3 17.9 C 0 km/h
2395 12-09-2008 13:49:02 18 C 13.98 g/m*3 18 C 0 km/h
2396 12-09-2008 13:54:02 18.1 C 14.21 g/m*3 18.1 C 0 km/h
2397 12-09-2008 13:59:02 18.2 C 14.3 g/m*3 18.2 C 0 km/h
2398 12-09-2008 14:04:02 18.1 C 14.21 g/m*3 18.1 C 0 km/h
2399 12-09-2008 14:09:02 18.2 C 14.3 g/m*3 18.2 C 0 km/h
2400 12-09-2008 14:14:02 18.2 C 14.3 g/m*3 18.2 C 0 km/h
Sensor: Nr:Datum:Temp:Abs-Feuchte:Windchill:Wind:
Aussen-T/F 2401 12-09-2008 14:19:02 18.1 C 14.21 g/m*3 18.1 C 0 km/h
2402 12-09-2008 14:24:02 17.9 C 14.2 g/m*3 17.9 C 0 km/h
2403 12-09-2008 14:29:02 17.4 C 13.63 g/m*3 17.4 C 0 km/h
2404 12-09-2008 14:34:02 17 C 13.17 g/m*3 17 C 0 km/h
2405 12-09-2008 14:39:03 17 C 13.17 g/m*3 17 C 0 km/h
2406 12-09-2008 14:44:03 16.8 C 13.15 g/m*3 16.8 C 0 km/h
2407 12-09-2008 14:49:02 16.7 C 13.07 g/m*3 16.7 C 0 km/h
2408 12-09-2008 14:54:02 16.7 C 13.07 g/m*3 16.7 C 0 km/h
2409 12-09-2008 14:59:02 16.6 C 13 g/m*3 16.6 C 0 km/h
2410 12-09-2008 15:04:03 16.4 C 12.84 g/m*3 16.4 C 0 km/h
2411 12-09-2008 15:09:03 16.2 C 12.69 g/m*3 16.2 C 0 km/h
2412 12-09-2008 15:14:03 16.1 C 12.61 g/m*3 16.1 C 0 km/h
2413 12-09-2008 15:19:02 15.8 C 12.38 g/m*3 15.8 C 0 km/h
2414 12-09-2008 15:24:03 15.7 C 12.31 g/m*3 15.7 C 0 km/h
2415 12-09-2008 15:29:03 15.7 C 12.31 g/m*3 15.7 C 0 km/h
2416 12-09-2008 15:34:02 15.7 C 12.31 g/m*3 15.7 C 0 km/h
2417 12-09-2008 15:39:02 15.8 C 12.52 g/m*3 15.8 C 0 km/h
2418 12-09-2008 15:44:02 15.8 C 12.52 g/m*3 15.8 C 0 km/h
2419 12-09-2008 15:49:03 15.8 C 12.52 g/m*3 15.8 C 0 km/h
2420 12-09-2008 15:54:03 15.9 C 12.59 g/m*3 15.9 C 0 km/h
2421 12-09-2008 15:59:03 15.8 C 12.52 g/m*3 15.8 C 0 km/h
2422 12-09-2008 16:04:02 15.8 C 12.52 g/m*3 15.8 C 0 km/h
2423 12-09-2008 16:09:02 15.8 C 12.52 g/m*3 15.8 C 0 km/h
2424 12-09-2008 16:14:02 15.7 C 12.44 g/m*3 15.7 C 0 km/h
2425 12-09-2008 16:19:02 15.8 C 12.52 g/m*3 15.8 C 0 km/h
Sensor: Nr:Datum:Temp:Abs-Feuchte:Windchill:Wind:
Aussen-T/F 2426 12-09-2008 16:24:02 15.8 C 12.52 g/m*3 15.8 C 0 km/h
2427 12-09-2008 16:29:02 15.8 C 12.52 g/m*3 15.8 C 0 km/h
2428 12-09-2008 16:34:02 15.8 C 12.52 g/m*3 15.8 C 0 km/h
2429 12-09-2008 16:39:03 15.8 C 12.65 g/m*3 15.8 C 0 km/h
2430 12-09-2008 16:44:03 15.8 C 12.65 g/m*3 15.8 C 0 km/h
2431 12-09-2008 16:49:01 15.9 C 12.73 g/m*3 15.9 C 0 km/h
2432 12-09-2008 16:54:01 15.8 C 12.65 g/m*3 15.8 C 0 km/h
2433 12-09-2008 16:59:01 15.6 C 12.5 g/m*3 15.6 C 0 km/h
2434 12-09-2008 17:04:02 15.6 C 12.5 g/m*3 15.6 C 0 km/h
2435 12-09-2008 17:09:02 15.7 C 12.58 g/m*3 15.7 C 0 km/h
2436 12-09-2008 17:14:02 15.7 C 12.58 g/m*3 15.7 C 0 km/h
2437 12-09-2008 17:19:01 15.7 C 12.58 g/m*3 15.7 C 0 km/h
2438 12-09-2008 17:24:01 15.7 C 12.58 g/m*3 15.7 C 0 km/h
2439 12-09-2008 17:29:01 15.7 C 12.58 g/m*3 15.7 C 0 km/h
2440 12-09-2008 17:34:01 15.8 C 12.65 g/m*3 15.8 C 0 km/h
2441 12-09-2008 17:39:01 15.7 C 12.58 g/m*3 15.7 C 0 km/h
2442 12-09-2008 17:44:01 15.7 C 12.58 g/m*3 15.7 C 0 km/h
2443 12-09-2008 17:49:03 15.5 C 12.43 g/m*3 15.5 C 0 km/h
2444 12-09-2008 17:54:03 15.5 C 12.43 g/m*3 15.5 C 0 km/h
2445 12-09-2008 17:59:03 15.5 C 12.43 g/m*3 15.5 C 0 km/h
2446 12-09-2008 18:04:02 15.6 C 12.5 g/m*3 15.6 C 0 km/h
2447 12-09-2008 18:09:02 15.6 C 12.5 g/m*3 15.6 C 0 km/h
2448 12-09-2008 18:14:02 15.6 C 12.5 g/m*3 15.6 C 0 km/h
2449 12-09-2008 18:19:03 15.6 C 12.5 g/m*3 15.6 C 0 km/h
2450 12-09-2008 18:24:03 15.6 C 12.5 g/m*3 15.6 C 0 km/h
Sensor: Nr:Datum:Temp:Abs-Feuchte:Windchill:Wind:
Aussen-T/F 2451 12-09-2008 18:29:03 15.6 C 12.5 g/m*3 15.6 C 0 km/h
2452 12-09-2008 18:34:02 15.6 C 12.5 g/m*3 15.6 C 0 km/h
2453 12-09-2008 18:39:02 15.5 C 12.43 g/m*3 15.5 C 0 km/h
2454 12-09-2008 18:44:02 15.4 C 12.35 g/m*3 15.4 C 0 km/h
2455 12-09-2008 18:49:01 15.4 C 12.35 g/m*3 15.4 C 0 km/h
2456 12-09-2008 18:54:01 15.4 C 12.35 g/m*3 15.4 C 0 km/h
2457 12-09-2008 18:59:01 15.3 C 12.28 g/m*3 15.3 C 0 km/h
2458 12-09-2008 19:04:02 15.3 C 12.28 g/m*3 15.3 C 0 km/h
2459 12-09-2008 19:09:02 15.2 C 12.2 g/m*3 15.2 C 0 km/h
2460 12-09-2008 19:14:02 15.2 C 12.2 g/m*3 15.2 C 0 km/h
2461 12-09-2008 19:19:01 15.2 C 12.2 g/m*3 15.2 C 0 km/h
2462 12-09-2008 19:24:01 15.2 C 12.2 g/m*3 15.2 C 0 km/h
2463 12-09-2008 19:29:01 15.2 C 12.2 g/m*3 15.2 C 0 km/h
2464 12-09-2008 19:34:02 15.2 C 12.2 g/m*3 15.2 C 0 km/h
2465 12-09-2008 19:39:02 15.1 C 12.13 g/m*3 15.1 C 0 km/h
2466 12-09-2008 19:44:02 15 C 12.05 g/m*3 15 C 0 km/h
2467 12-09-2008 19:49:03 14.9 C 12.11 g/m*3 14.9 C 0 km/h
2468 12-09-2008 19:54:03 14.9 C 12.11 g/m*3 14.9 C 0 km/h
2469 12-09-2008 19:59:03 14.9 C 12.11 g/m*3 14.9 C 0 km/h
2470 12-09-2008 20:04:02 15 C 12.05 g/m*3 15 C 0 km/h
2471 12-09-2008 20:09:02 14.8 C 12.03 g/m*3 14.8 C 0 km/h
2472 12-09-2008 20:14:02 14.8 C 12.03 g/m*3 14.8 C 0 km/h
2473 12-09-2008 20:19:03 15 C 12.05 g/m*3 15 C 0 km/h
2474 12-09-2008 20:24:03 15 C 12.05 g/m*3 15 C 0 km/h
2475 12-09-2008 20:29:03 15 C 12.05 g/m*3 15 C 0 km/h
Sensor: Nr:Datum:Temp:Abs-Feuchte:Windchill:Wind:
Aussen-T/F 2476 12-09-2008 20:34:02 14.8 C 11.91 g/m*3 14.8 C 0 km/h
2477 12-09-2008 20:39:02 14.8 C 11.91 g/m*3 14.8 C 0 km/h
2478 12-09-2008 20:44:02 14.8 C 11.91 g/m*3 14.8 C 0 km/h
2479 12-09-2008 20:49:01 14.8 C 11.91 g/m*3 14.8 C 0 km/h
2480 12-09-2008 20:54:01 14.8 C 11.91 g/m*3 14.8 C 0 km/h
2481 12-09-2008 20:59:01 14.7 C 11.83 g/m*3 14.7 C 0 km/h
2482 12-09-2008 21:04:02 14.6 C 11.64 g/m*3 14.6 C 0 km/h
2483 12-09-2008 21:09:02 14.7 C 11.71 g/m*3 14.7 C 0 km/h
2484 12-09-2008 21:14:02 14.6 C 11.64 g/m*3 14.6 C 0 km/h
2485 12-09-2008 21:19:01 14.6 C 11.64 g/m*3 14.6 C 0 km/h
2486 12-09-2008 21:24:01 14.6 C 11.64 g/m*3 14.6 C 0 km/h
2487 12-09-2008 21:29:01 14.6 C 11.64 g/m*3 14.6 C 0 km/h
2488 12-09-2008 21:34:02 14.6 C 11.64 g/m*3 14.6 C 0 km/h
2489 12-09-2008 21:39:02 14.5 C 11.57 g/m*3 14.5 C 0 km/h
2490 12-09-2008 21:44:02 14.5 C 11.57 g/m*3 14.5 C 0 km/h
2491 12-09-2008 21:49:02 14.5 C 11.57 g/m*3 14.5 C 0 km/h
2492 12-09-2008 21:54:02 14.5 C 11.57 g/m*3 14.5 C 0 km/h
2493 12-09-2008 21:59:02 14.4 C 11.5 g/m*3 14.4 C 0 km/h
2494 12-09-2008 22:04:02 14.4 C 11.5 g/m*3 14.4 C 0 km/h
2495 12-09-2008 22:09:02 14.4 C 11.5 g/m*3 14.4 C 0 km/h
2496 12-09-2008 22:14:02 14.4 C 11.5 g/m*3 14.4 C 0 km/h
2497 12-09-2008 22:19:02 14.4 C 11.5 g/m*3 14.4 C 0 km/h
2498 12-09-2008 22:24:02 14.4 C 11.5 g/m*3 14.4 C 0 km/h
2499 12-09-2008 22:29:02 14.4 C 11.5 g/m*3 14.4 C 0 km/h
2500 12-09-2008 22:34:02 14.4 C 11.5 g/m*3 14.4 C 0 km/h
Sensor: Nr:Datum:Temp:Abs-Feuchte:Windchill:Wind:
Aussen-T/F 2501 12-09-2008 22:39:02 14.3 C 11.3 g/m*3 14.3 C 0 km/h
2502 12-09-2008 22:44:02 14.3 C 11.43 g/m*3 14.3 C 0 km/h
2503 12-09-2008 22:49:02 14.2 C 11.23 g/m*3 14.2 C 0 km/h
2504 12-09-2008 22:54:02 14.2 C 11.23 g/m*3 14.2 C 0 km/h
2505 12-09-2008 22:59:02 14.2 C 11.23 g/m*3 14.2 C 0 km/h
2506 12-09-2008 23:04:02 14.2 C 11.23 g/m*3 14.2 C 0 km/h
2507 12-09-2008 23:09:02 14.2 C 11.23 g/m*3 14.2 C 0 km/h
2508 12-09-2008 23:14:02 14.2 C 11.23 g/m*3 14.2 C 0 km/h
2509 12-09-2008 23:19:02 14.2 C 11.23 g/m*3 14.2 C 0 km/h
2510 12-09-2008 23:24:02 14.2 C 11.23 g/m*3 14.2 C 0 km/h
2511 12-09-2008 23:29:02 14.2 C 11.23 g/m*3 14.2 C 0 km/h
2512 12-09-2008 23:34:02 14.2 C 11.23 g/m*3 14.2 C 0 km/h
2513 12-09-2008 23:39:02 14.1 C 11.17 g/m*3 14.1 C 0 km/h
2514 12-09-2008 23:44:02 14.1 C 11.17 g/m*3 14.1 C 0 km/h
2515 12-09-2008 23:49:02 14.2 C 11.23 g/m*3 14.2 C 0 km/h
2516 12-09-2008 23:54:02 14.2 C 11.23 g/m*3 14.2 C 0 km/h
2517 12-09-2008 23:59:03 14.2 C 11.23 g/m*3 14.2 C 0 km/h
2518 13-09-2008 00:04:01 14.1 C 11.04 g/m*3 14.1 C 0 km/h
2519 13-09-2008 00:09:01 14.1 C 11.04 g/m*3 14.1 C 0 km/h
2520 13-09-2008 00:14:01 14.1 C 11.04 g/m*3 14.1 C 0 km/h
2521 13-09-2008 00:19:02 14.2 C 11.11 g/m*3 14.2 C 0 km/h
2522 13-09-2008 00:24:02 14.1 C 11.04 g/m*3 14.1 C 0 km/h
2523 13-09-2008 00:29:02 14.1 C 11.04 g/m*3 14.1 C 0 km/h
2524 13-09-2008 00:34:02 14.1 C 11.04 g/m*3 14.1 C 0 km/h
2525 13-09-2008 00:39:02 14.1 C 11.04 g/m*3 14.1 C 0 km/h
Sensor: Nr:Datum:Temp:Abs-Feuchte:Windchill:Wind:
Aussen-T/F 2526 13-09-2008 00:44:02 14.1 C 11.04 g/m*3 14.1 C 0 km/h
2527 13-09-2008 00:49:02 14.1 C 11.04 g/m*3 14.1 C 0 km/h
2528 13-09-2008 00:54:02 14.1 C 11.04 g/m*3 14.1 C 0 km/h
2529 13-09-2008 00:59:02 14.1 C 11.04 g/m*3 14.1 C 0 km/h
2530 13-09-2008 01:04:01 14.1 C 11.04 g/m*3 14.1 C 0 km/h
2531 13-09-2008 01:09:01 14.1 C 11.04 g/m*3 14.1 C 0 km/h
2532 13-09-2008 01:14:01 14.1 C 11.04 g/m*3 14.1 C 0 km/h
2533 13-09-2008 01:19:02 14.1 C 11.04 g/m*3 14.1 C 0 km/h
2534 13-09-2008 01:24:02 14.1 C 11.04 g/m*3 14.1 C 0 km/h
2535 13-09-2008 01:29:02 14.2 C 11.11 g/m*3 14.2 C 0 km/h
2536 13-09-2008 01:34:01 14.2 C 11.11 g/m*3 14.2 C 0 km/h
2537 13-09-2008 01:39:01 14.2 C 11.11 g/m*3 14.2 C 0 km/h
2538 13-09-2008 01:44:01 14.1 C 11.04 g/m*3 14.1 C 0 km/h
2539 13-09-2008 01:49:01 14.1 C 11.04 g/m*3 14.1 C 0 km/h
2540 13-09-2008 01:54:01 14.1 C 10.92 g/m*3 14.1 C 0 km/h
2541 13-09-2008 01:59:01 14 C 10.86 g/m*3 14 C 0 km/h
2542 13-09-2008 02:04:02 13.9 C 10.91 g/m*3 13.9 C 0 km/h
2543 13-09-2008 02:09:02 13.9 C 10.91 g/m*3 13.9 C 0 km/h
2544 13-09-2008 02:14:02 13.9 C 10.91 g/m*3 13.9 C 0 km/h
2545 13-09-2008 02:19:01 13.8 C 10.84 g/m*3 13.8 C 0 km/h
2546 13-09-2008 02:24:01 13.9 C 10.91 g/m*3 13.9 C 0 km/h
2547 13-09-2008 02:29:01 13.9 C 11.03 g/m*3 13.9 C 0 km/h
2548 13-09-2008 02:34:02 13.8 C 10.96 g/m*3 13.8 C 0 km/h
2549 13-09-2008 02:39:02 13.8 C 10.96 g/m*3 13.8 C 0 km/h
2550 13-09-2008 02:44:02 13.8 C 10.96 g/m*3 13.8 C 0 km/h
Sensor: Nr:Datum:Temp:Abs-Feuchte:Windchill:Wind:
Aussen-T/F 2551 13-09-2008 02:50:04 13.7 C 11.01 g/m*3 13.7 C 0 km/h
2552 13-09-2008 02:55:05 13.7 C 11.01 g/m*3 13.7 C 0 km/h
2553 13-09-2008 03:00:05 13.7 C 11.01 g/m*3 13.7 C 0 km/h
2554 13-09-2008 03:05:05 13.7 C 11.01 g/m*3 13.7 C 0 km/h
2555 13-09-2008 03:10:03 13.7 C 11.01 g/m*3 13.7 C 0 km/h
2556 13-09-2008 03:15:03 13.7 C 11.01 g/m*3 13.7 C 0 km/h
2557 13-09-2008 03:20:03 13.7 C 11.13 g/m*3 13.7 C 0 km/h
2558 13-09-2008 03:25:03 13.7 C 11.13 g/m*3 13.7 C 0 km/h
2559 13-09-2008 03:30:03 13.7 C 11.13 g/m*3 13.7 C 0 km/h
2560 13-09-2008 03:35:01 13.7 C 11.13 g/m*3 13.7 C 0 km/h
2561 13-09-2008 03:40:01 13.7 C 11.13 g/m*3 13.7 C 0 km/h
2562 13-09-2008 03:45:01 13.7 C 11.13 g/m*3 13.7 C 0 km/h
2563 13-09-2008 03:50:01 13.7 C 11.13 g/m*3 13.7 C 0 km/h
2564 13-09-2008 03:55:01 13.6 C 11.06 g/m*3 13.6 C 0 km/h
2565 13-09-2008 04:00:01 13.7 C 11.13 g/m*3 13.7 C 0 km/h
2566 13-09-2008 04:05:02 13.6 C 11.06 g/m*3 13.6 C 0 km/h
2567 13-09-2008 04:10:02 13.7 C 11.13 g/m*3 13.7 C 0 km/h
2568 13-09-2008 04:15:02 13.7 C 11.13 g/m*3 13.7 C 0 km/h
2569 13-09-2008 04:20:02 13.7 C 11.13 g/m*3 13.7 C 0 km/h
2570 13-09-2008 04:25:02 13.8 C 11.2 g/m*3 13.8 C 0 km/h
2571 13-09-2008 04:30:02 13.8 C 11.2 g/m*3 13.8 C 0 km/h
2572 13-09-2008 04:35:02 13.9 C 11.27 g/m*3 13.9 C 0 km/h
2573 13-09-2008 04:40:02 13.9 C 11.27 g/m*3 13.9 C 0 km/h
2574 13-09-2008 04:45:02 13.9 C 11.27 g/m*3 13.9 C 0 km/h
2575 13-09-2008 04:50:02 14 C 11.34 g/m*3 14 C 0 km/h
Sensor: Nr:Datum:Temp:Abs-Feuchte:Windchill:Wind:
Aussen-T/F 2576 13-09-2008 04:55:02 13.9 C 11.27 g/m*3 13.9 C 0 km/h
2577 13-09-2008 05:00:02 13.9 C 11.27 g/m*3 13.9 C 0 km/h
2578 13-09-2008 05:05:01 13.9 C 11.27 g/m*3 13.9 C 0 km/h
2579 13-09-2008 05:10:01 13.8 C 11.2 g/m*3 13.8 C 0 km/h
2580 13-09-2008 05:15:02 13.8 C 11.2 g/m*3 13.8 C 0 km/h
2581 13-09-2008 05:20:02 13.9 C 11.27 g/m*3 13.9 C 0 km/h
2582 13-09-2008 05:25:02 13.7 C 11.13 g/m*3 13.7 C 0 km/h
2583 13-09-2008 05:30:02 13.7 C 11.13 g/m*3 13.7 C 0 km/h
2584 13-09-2008 05:35:01 13.6 C 11.06 g/m*3 13.6 C 0 km/h
2585 13-09-2008 05:40:01 13.6 C 11.06 g/m*3 13.6 C 0 km/h
2586 13-09-2008 05:45:02 13.6 C 10.95 g/m*3 13.6 C 0 km/h
2587 13-09-2008 05:50:02 13.6 C 10.95 g/m*3 13.6 C 0 km/h
2588 13-09-2008 05:55:02 13.6 C 10.95 g/m*3 13.6 C 0 km/h
2589 13-09-2008 06:00:02 13.6 C 10.95 g/m*3 13.6 C 0 km/h
2590 13-09-2008 06:05:01 13.5 C 10.88 g/m*3 13.5 C 0 km/h
2591 13-09-2008 06:10:01 13.5 C 10.88 g/m*3 13.5 C 0 km/h
2592 13-09-2008 06:15:01 13.5 C 10.88 g/m*3 13.5 C 0 km/h
2593 13-09-2008 06:20:01 13.5 C 10.88 g/m*3 13.5 C 0 km/h
2594 13-09-2008 06:25:01 13.6 C 10.95 g/m*3 13.6 C 0 km/h
2595 13-09-2008 06:30:01 13.5 C 10.88 g/m*3 13.5 C 0 km/h
2596 13-09-2008 06:35:01 13.5 C 10.99 g/m*3 13.5 C 0 km/h
2597 13-09-2008 06:40:02 13.6 C 11.06 g/m*3 13.6 C 0 km/h
2598 13-09-2008 06:45:02 13.5 C 10.99 g/m*3 13.5 C 0 km/h
2599 13-09-2008 06:50:02 13.6 C 11.06 g/m*3 13.6 C 0 km/h
2600 13-09-2008 06:55:02 13.5 C 10.99 g/m*3 13.5 C 0 km/h
Sensor: Nr:Datum:Temp:Abs-Feuchte:Windchill:Wind:
Aussen-T/F 2601 13-09-2008 07:00:02 13.6 C 11.06 g/m*3 13.6 C 0 km/h
2602 13-09-2008 07:05:01 13.5 C 10.99 g/m*3 13.5 C 0 km/h
2603 13-09-2008 07:10:01 13.5 C 10.99 g/m*3 13.5 C 0 km/h
2604 13-09-2008 07:15:02 13.5 C 10.99 g/m*3 13.5 C 0 km/h
2605 13-09-2008 07:20:02 13.5 C 11.11 g/m*3 13.5 C 0 km/h
2606 13-09-2008 07:25:02 13.5 C 11.11 g/m*3 13.5 C 0 km/h
2607 13-09-2008 07:30:03 13.5 C 11.11 g/m*3 13.5 C 0 km/h
2608 13-09-2008 07:35:01 13.6 C 11.18 g/m*3 13.6 C 0 km/h
2609 13-09-2008 07:40:01 13.6 C 11.18 g/m*3 13.6 C 0 km/h
2610 13-09-2008 07:45:02 13.6 C 11.18 g/m*3 13.6 C 0 km/h
2611 13-09-2008 07:50:02 13.7 C 11.25 g/m*3 13.7 C 0 km/h
2612 13-09-2008 07:55:02 13.7 C 11.25 g/m*3 13.7 C 0 km/h
2613 13-09-2008 08:00:02 13.7 C 11.25 g/m*3 13.7 C 0 km/h
2614 13-09-2008 08:05:01 13.7 C 11.25 g/m*3 13.7 C 0 km/h
2615 13-09-2008 08:10:01 13.7 C 11.25 g/m*3 13.7 C 0 km/h
2616 13-09-2008 08:15:01 13.7 C 11.25 g/m*3 13.7 C 0 km/h
2617 13-09-2008 08:20:01 13.8 C 11.32 g/m*3 13.8 C 0 km/h
2618 13-09-2008 08:25:01 13.8 C 11.32 g/m*3 13.8 C 0 km/h
2619 13-09-2008 08:30:01 13.7 C 11.25 g/m*3 13.7 C 0 km/h
2620 13-09-2008 08:35:01 13.6 C 11.18 g/m*3 13.6 C 0 km/h
2621 13-09-2008 08:40:01 13.5 C 11.11 g/m*3 13.5 C 0 km/h
2622 13-09-2008 08:45:01 13.4 C 11.04 g/m*3 13.4 C 0 km/h
2623 13-09-2008 08:50:01 13.4 C 11.04 g/m*3 13.4 C 0 km/h
2624 13-09-2008 08:55:01 13.4 C 11.04 g/m*3 13.4 C 0 km/h
2625 13-09-2008 09:00:01 13.4 C 11.04 g/m*3 13.4 C 0 km/h
Sensor: Nr:Datum:Temp:Abs-Feuchte:Windchill:Wind:
Aussen-T/F 2626 13-09-2008 09:05:02 13.4 C 11.04 g/m*3 13.4 C 0 km/h
2627 13-09-2008 09:10:02 13.4 C 11.04 g/m*3 13.4 C 0 km/h
2628 13-09-2008 09:15:01 13.3 C 10.98 g/m*3 13.3 C 0 km/h
2629 13-09-2008 09:20:01 13.3 C 10.98 g/m*3 13.3 C 0 km/h
2630 13-09-2008 09:25:01 13.1 C 10.84 g/m*3 13.1 C 0 km/h
2631 13-09-2008 09:30:01 13.1 C 10.84 g/m*3 13.1 C 0 km/h
2632 13-09-2008 09:35:01 13.1 C 10.84 g/m*3 13.1 C 0 km/h
2633 13-09-2008 09:40:01 13 C 10.77 g/m*3 13 C 0 km/h
2634 13-09-2008 09:45:02 13 C 10.77 g/m*3 13 C 0 km/h
2635 13-09-2008 09:50:02 13 C 10.77 g/m*3 13 C 0 km/h
2636 13-09-2008 09:55:02 13 C 10.77 g/m*3 13 C 0 km/h
2637 13-09-2008 10:00:02 12.9 C 10.71 g/m*3 12.9 C 0 km/h
2638 13-09-2008 10:05:02 13 C 10.77 g/m*3 13 C 0 km/h
2639 13-09-2008 10:10:02 13 C 10.77 g/m*3 13 C 0 km/h
2640 13-09-2008 10:15:02 13.1 C 10.84 g/m*3 13.1 C 0 km/h
2641 13-09-2008 10:20:02 13.1 C 10.84 g/m*3 13.1 C 0 km/h
2642 13-09-2008 10:25:02 13.1 C 10.84 g/m*3 13.1 C 0 km/h
2643 13-09-2008 10:30:02 13.1 C 10.84 g/m*3 13.1 C 0 km/h
2644 13-09-2008 10:35:02 13 C 10.77 g/m*3 13 C 0 km/h
2645 13-09-2008 10:40:02 12.9 C 10.71 g/m*3 12.9 C 0 km/h
2646 13-09-2008 10:45:02 12.8 C 10.64 g/m*3 12.8 C 0 km/h
2647 13-09-2008 10:50:02 12.8 C 10.64 g/m*3 12.8 C 0 km/h
2648 13-09-2008 10:55:02 12.8 C 10.64 g/m*3 12.8 C 0 km/h
2649 13-09-2008 11:00:02 12.7 C 10.58 g/m*3 12.7 C 0 km/h
2650 13-09-2008 11:05:02 12.5 C 10.44 g/m*3 12.5 C 0 km/h
Sensor: Nr:Datum:Temp:Abs-Feuchte:Windchill:Wind:
Aussen-T/F 2651 13-09-2008 11:10:02 12.5 C 10.44 g/m*3 12.5 C 0 km/h
2652 13-09-2008 11:15:02 12.5 C 10.44 g/m*3 12.5 C 0 km/h
2653 13-09-2008 11:20:02 12.5 C 10.44 g/m*3 12.5 C 0 km/h
2654 13-09-2008 11:25:02 12.5 C 10.44 g/m*3 12.5 C 0 km/h
2655 13-09-2008 11:30:02 12.3 C 10.32 g/m*3 12.3 C 0 km/h
2656 13-09-2008 11:35:02 12.3 C 10.32 g/m*3 12.3 C 0 km/h
2657 13-09-2008 11:40:02 12.4 C 10.38 g/m*3 12.4 C 0 km/h
2658 13-09-2008 11:45:02 12.2 C 10.25 g/m*3 12.2 C 0 km/h
2659 13-09-2008 11:50:02 12.2 C 10.25 g/m*3 12.2 C 0 km/h
2660 13-09-2008 11:55:02 12.2 C 10.25 g/m*3 12.2 C 0 km/h
2661 13-09-2008 12:00:02 12.3 C 10.32 g/m*3 12.3 C 0 km/h
2662 13-09-2008 12:05:01 12.3 C 10.32 g/m*3 12.3 C 0 km/h
2663 13-09-2008 12:10:01 12.2 C 10.25 g/m*3 12.2 C 0 km/h
2664 13-09-2008 12:15:02 12.2 C 10.25 g/m*3 12.2 C 0 km/h
2665 13-09-2008 12:20:02 12.2 C 10.25 g/m*3 12.2 C 0 km/h
2666 13-09-2008 12:25:02 12.2 C 10.25 g/m*3 12.2 C 0 km/h
2667 13-09-2008 12:30:02 12.1 C 10.19 g/m*3 12.1 C 0 km/h
2668 13-09-2008 12:35:01 12 C 10.12 g/m*3 12 C 0 km/h
2669 13-09-2008 12:40:01 12 C 10.12 g/m*3 12 C 0 km/h
2670 13-09-2008 12:45:01 11.9 C 10.06 g/m*3 11.9 C 0 km/h
2671 13-09-2008 12:50:01 11.9 C 10.06 g/m*3 11.9 C 0 km/h
2672 13-09-2008 12:55:01 11.9 C 10.06 g/m*3 11.9 C 0 km/h
2673 13-09-2008 13:00:01 12 C 10.12 g/m*3 12 C 0 km/h
2674 13-09-2008 13:05:02 11.9 C 10.06 g/m*3 11.9 C 0 km/h
2675 13-09-2008 13:10:02 11.9 C 10.06 g/m*3 11.9 C 0 km/h
Sensor: Nr:Datum:Temp:Abs-Feuchte:Windchill:Wind:
Aussen-T/F 2676 13-09-2008 13:15:01 11.9 C 10.06 g/m*3 11.9 C 0 km/h
2677 13-09-2008 13:20:01 11.9 C 10.06 g/m*3 11.9 C 0 km/h
2678 13-09-2008 13:25:01 12 C 10.02 g/m*3 12 C 0 km/h
2679 13-09-2008 13:30:01 12 C 10.02 g/m*3 12 C 0 km/h
2680 13-09-2008 13:35:02 11.7 C 9.94 g/m*3 11.7 C 0 km/h
2681 13-09-2008 13:40:02 11.7 C 9.94 g/m*3 11.7 C 0 km/h
2682 13-09-2008 13:45:02 11.7 C 9.94 g/m*3 11.7 C 0 km/h
2683 13-09-2008 13:50:02 11.7 C 9.94 g/m*3 11.7 C 0 km/h
2684 13-09-2008 13:55:03 11.6 C 9.77 g/m*3 11.6 C 0 km/h
2685 13-09-2008 14:00:03 11.6 C 9.77 g/m*3 11.6 C 0 km/h
2686 13-09-2008 14:05:02 11.8 C 9.89 g/m*3 11.8 C 0 km/h
2687 13-09-2008 14:10:02 11.9 C 9.96 g/m*3 11.9 C 0 km/h
2688 13-09-2008 14:15:02 11.9 C 9.96 g/m*3 11.9 C 0 km/h
2689 13-09-2008 14:20:02 12 C 10.02 g/m*3 12 C 0 km/h
2690 13-09-2008 14:25:02 12.1 C 10.08 g/m*3 12.1 C 0 km/h
2691 13-09-2008 14:30:02 12.1 C 9.97 g/m*3 12.1 C 0 km/h
2692 13-09-2008 14:35:02 12.1 C 9.97 g/m*3 12.1 C 0 km/h
2693 13-09-2008 14:40:02 12.1 C 9.97 g/m*3 12.1 C 0 km/h
2694 13-09-2008 14:45:01 12.2 C 10.04 g/m*3 12.2 C 0 km/h
2695 13-09-2008 14:50:01 12.3 C 10.1 g/m*3 12.3 C 0 km/h
2696 13-09-2008 14:55:01 12.5 C 10.22 g/m*3 12.5 C 0 km/h
2697 13-09-2008 15:00:01 12.8 C 10.3 g/m*3 12.8 C 0 km/h
2698 13-09-2008 15:05:02 13 C 10.43 g/m*3 13 C 0 km/h
2699 13-09-2008 15:10:02 13.5 C 10.76 g/m*3 13.5 C 0 km/h
2700 13-09-2008 15:15:02 13.7 C 10.78 g/m*3 13.7 C 0 km/h
Sensor: Nr:Datum:Temp:Abs-Feuchte:Windchill:Wind:
Aussen-T/F 2701 13-09-2008 15:20:02 13.9 C 10.91 g/m*3 13.9 C 0 km/h
2702 13-09-2008 15:25:02 14 C 10.86 g/m*3 14 C 0 km/h
2703 13-09-2008 15:30:02 14.3 C 11.06 g/m*3 14.3 C 0 km/h
2704 13-09-2008 15:35:02 14.4 C 11.13 g/m*3 14.4 C 0 km/h
2705 13-09-2008 15:40:02 14.4 C 11 g/m*3 14.4 C 0 km/h
2706 13-09-2008 15:45:02 14.4 C 11 g/m*3 14.4 C 0 km/h
2707 13-09-2008 15:50:02 14.5 C 11.07 g/m*3 14.5 C 0 km/h
2708 13-09-2008 15:55:02 14.5 C 11.07 g/m*3 14.5 C 0 km/h
2709 13-09-2008 16:00:03 14.8 C 11.15 g/m*3 14.8 C 0 km/h
2710 13-09-2008 16:05:02 14.9 C 11.09 g/m*3 14.9 C 0 km/h
2711 13-09-2008 16:10:02 15.1 C 10.97 g/m*3 15.1 C 0 km/h
2712 13-09-2008 16:15:02 15 C 10.64 g/m*3 15 C 0 km/h
2713 13-09-2008 16:20:03 14.7 C 10.45 g/m*3 14.7 C 0 km/h
2714 13-09-2008 16:25:03 15 C 10.51 g/m*3 15 C 0 km/h
2715 13-09-2008 16:30:03 15 C 10.39 g/m*3 15 C 0 km/h
2716 13-09-2008 16:35:02 15 C 10.39 g/m*3 15 C 0 km/h
2717 13-09-2008 16:40:02 15 C 10.39 g/m*3 15 C 0 km/h
2718 13-09-2008 16:45:03 14.9 C 10.45 g/m*3 14.9 C 0 km/h
2719 13-09-2008 16:50:03 14.8 C 10.51 g/m*3 14.8 C 0 km/h
2720 13-09-2008 16:55:03 14.9 C 10.58 g/m*3 14.9 C 0 km/h
2721 13-09-2008 17:00:03 14.9 C 10.58 g/m*3 14.9 C 0 km/h
2722 13-09-2008 17:05:02 14.8 C 10.39 g/m*3 14.8 C 0 km/h
2723 13-09-2008 17:10:02 14.7 C 10.32 g/m*3 14.7 C 0 km/h
2724 13-09-2008 17:15:02 14.6 C 10.26 g/m*3 14.6 C 0 km/h
2725 13-09-2008 17:20:02 14.4 C 10.14 g/m*3 14.4 C 0 km/h
Sensor: Nr:Datum:Temp:Abs-Feuchte:Windchill:Wind:
Aussen-T/F 2726 13-09-2008 17:25:02 14.3 C 10.07 g/m*3 14.3 C 0 km/h
2727 13-09-2008 17:30:02 14.3 C 9.95 g/m*3 14.3 C 0 km/h
2728 13-09-2008 17:35:03 14.3 C 9.95 g/m*3 14.3 C 0 km/h
2729 13-09-2008 17:40:03 14.2 C 9.89 g/m*3 14.2 C 0 km/h
2730 13-09-2008 17:45:02 14.2 C 10.01 g/m*3 14.2 C 0 km/h
2731 13-09-2008 17:50:02 14.1 C 9.95 g/m*3 14.1 C 0 km/h
2732 13-09-2008 17:55:02 14 C 9.89 g/m*3 14 C 0 km/h
2733 13-09-2008 18:00:03 13.9 C 9.95 g/m*3 13.9 C 0 km/h
2734 13-09-2008 18:05:01 13.8 C 9.77 g/m*3 13.8 C 0 km/h
2735 13-09-2008 18:10:01 13.7 C 9.71 g/m*3 13.7 C 0 km/h
2736 13-09-2008 18:15:02 13.5 C 9.59 g/m*3 13.5 C 0 km/h
2737 13-09-2008 18:20:03 13.4 C 9.65 g/m*3 13.4 C 0 km/h
2738 13-09-2008 18:25:03 13.4 C 9.65 g/m*3 13.4 C 0 km/h
2739 13-09-2008 18:30:03 13.2 C 9.64 g/m*3 13.2 C 0 km/h
2740 13-09-2008 18:35:02 13.1 C 9.59 g/m*3 13.1 C 0 km/h
2741 13-09-2008 18:40:02 13 C 9.64 g/m*3 13 C 0 km/h
2742 13-09-2008 18:45:01 12.9 C 9.69 g/m*3 12.9 C 0 km/h
2743 13-09-2008 18:50:01 12.9 C 9.69 g/m*3 12.9 C 0 km/h
2744 13-09-2008 18:55:01 12.9 C 9.69 g/m*3 12.9 C 0 km/h
2745 13-09-2008 19:00:01 12.8 C 9.74 g/m*3 12.8 C 0 km/h
2746 13-09-2008 19:05:02 12.8 C 9.74 g/m*3 12.8 C 0 km/h
2747 13-09-2008 19:10:02 12.7 C 9.68 g/m*3 12.7 C 0 km/h
2748 13-09-2008 19:15:01 12.5 C 9.57 g/m*3 12.5 C 0 km/h
2749 13-09-2008 19:20:01 12.4 C 9.4 g/m*3 12.4 C 0 km/h
2750 13-09-2008 19:25:01 12.1 C 9.22 g/m*3 12.1 C 0 km/h
Sensor: Nr:Datum:Temp:Abs-Feuchte:Windchill:Wind:
Aussen-T/F 2751 13-09-2008 19:30:01 12.1 C 9.22 g/m*3 12.1 C 0 km/h
2752 13-09-2008 19:35:02 11.8 C 9.05 g/m*3 11.8 C 0 km/h
2753 13-09-2008 19:40:02 11.7 C 9.1 g/m*3 11.7 C 0 km/h
2754 13-09-2008 19:45:02 11.6 C 9.04 g/m*3 11.6 C 0 km/h
2755 13-09-2008 19:50:02 11.4 C 8.93 g/m*3 11.4 C 0 km/h
2756 13-09-2008 19:55:02 11.2 C 8.82 g/m*3 11.2 C 0 km/h
2757 13-09-2008 20:00:02 11.2 C 8.82 g/m*3 11.2 C 0 km/h
2758 13-09-2008 20:05:02 11 C 8.71 g/m*3 11 C 0 km/h
2759 13-09-2008 20:10:02 10.8 C 8.7 g/m*3 10.8 C 0 km/h
2760 13-09-2008 20:15:02 10.7 C 8.64 g/m*3 10.7 C 0 km/h
2761 13-09-2008 20:20:02 10.6 C 8.59 g/m*3 10.6 C 0 km/h
2762 13-09-2008 20:25:03 10.4 C 8.48 g/m*3 10.4 C 0 km/h
2763 13-09-2008 20:30:03 10.2 C 8.37 g/m*3 10.2 C 0 km/h
2764 13-09-2008 20:35:02 10.1 C 8.32 g/m*3 10.1 C 0 km/h
2765 13-09-2008 20:40:02 10 C 8.27 g/m*3 10 C 0 km/h
2766 13-09-2008 20:45:03 9.9 C 8.31 g/m*3 9.9 C 0 km/h
2767 13-09-2008 20:50:03 9.9 C 8.31 g/m*3 9.9 C 0 km/h
2768 13-09-2008 20:55:03 9.7 C 8.2 g/m*3 9.7 C 0 km/h
2769 13-09-2008 21:00:03 9.6 C 8.06 g/m*3 9.6 C 0 km/h
2770 13-09-2008 21:05:02 9.6 C 8.06 g/m*3 9.6 C 0 km/h
2771 13-09-2008 21:10:02 9.5 C 8.01 g/m*3 9.5 C 0 km/h
2772 13-09-2008 21:15:02 9.4 C 7.96 g/m*3 9.4 C 0 km/h
2773 13-09-2008 21:20:02 9.4 C 7.96 g/m*3 9.4 C 0 km/h
2774 13-09-2008 21:25:02 9.2 C 7.86 g/m*3 9.2 C 0 km/h
2775 13-09-2008 21:30:02 9.2 C 7.86 g/m*3 9.2 C 0 km/h
Sensor: Nr:Datum:Temp:Abs-Feuchte:Windchill:Wind:
Aussen-T/F 2776 13-09-2008 21:35:02 9.1 C 7.81 g/m*3 9.1 C 0 km/h
2777 13-09-2008 21:40:02 9 C 7.76 g/m*3 9 C 0 km/h
2778 13-09-2008 21:45:02 8.9 C 7.8 g/m*3 8.9 C 0 km/h
2779 13-09-2008 21:50:02 8.8 C 7.75 g/m*3 8.8 C 0 km/h
2780 13-09-2008 21:55:02 8.8 C 7.75 g/m*3 8.8 C 0 km/h
2781 13-09-2008 22:00:02 8.7 C 7.7 g/m*3 8.7 C 0 km/h
2782 13-09-2008 22:05:01 8.6 C 7.65 g/m*3 8.6 C 0 km/h
2783 13-09-2008 22:10:01 8.6 C 7.65 g/m*3 8.6 C 0 km/h
2784 13-09-2008 22:15:02 8.5 C 7.6 g/m*3 8.5 C 0 km/h
2785 13-09-2008 22:20:02 8.5 C 7.51 g/m*3 8.5 C 0 km/h
2786 13-09-2008 22:25:03 8.5 C 7.51 g/m*3 8.5 C 0 km/h
2787 13-09-2008 22:30:03 8.5 C 7.51 g/m*3 8.5 C 0 km/h
2788 13-09-2008 22:35:01 8.5 C 7.43 g/m*3 8.5 C 0 km/h
2789 13-09-2008 22:40:01 8.4 C 7.38 g/m*3 8.4 C 0 km/h
2790 13-09-2008 22:45:02 8.4 C 7.3 g/m*3 8.4 C 0 km/h
2791 13-09-2008 22:50:02 8.5 C 7.26 g/m*3 8.5 C 0 km/h
2792 13-09-2008 22:55:02 8.4 C 7.13 g/m*3 8.4 C 0 km/h
2793 13-09-2008 23:00:02 8.4 C 7.13 g/m*3 8.4 C 0 km/h
2794 13-09-2008 23:06:01 8.4 C 7.04 g/m*3 8.4 C 0 km/h
2795 13-09-2008 23:11:01 8.4 C 6.96 g/m*3 8.4 C 0 km/h
2796 13-09-2008 23:16:01 8.3 C 6.91 g/m*3 8.3 C 0 km/h
2797 13-09-2008 23:21:01 8.2 C 6.87 g/m*3 8.2 C 0 km/h
2798 13-09-2008 23:26:01 8.1 C 6.82 g/m*3 8.1 C 0 km/h
2799 13-09-2008 23:31:01 8.1 C 6.82 g/m*3 8.1 C 0 km/h
2800 13-09-2008 23:36:01 8.1 C 6.82 g/m*3 8.1 C 0 km/h
Sensor: Nr:Datum:Temp:Abs-Feuchte:Windchill:Wind:
Aussen-T/F 2801 13-09-2008 23:41:01 8.1 C 6.82 g/m*3 8.1 C 0 km/h
2802 13-09-2008 23:46:01 8 C 6.78 g/m*3 8 C 0 km/h
2803 13-09-2008 23:51:01 8 C 6.78 g/m*3 8 C 0 km/h
2804 13-09-2008 23:56:02 7.9 C 6.82 g/m*3 7.9 C 0 km/h
2805 14-09-2008 00:01:02 8 C 6.78 g/m*3 8 C 0 km/h
2806 14-09-2008 00:06:02 8 C 6.7 g/m*3 8 C 0 km/h
2807 14-09-2008 00:11:02 7.9 C 6.74 g/m*3 7.9 C 0 km/h
2808 14-09-2008 00:16:02 8 C 6.7 g/m*3 8 C 0 km/h
2809 14-09-2008 00:21:02 8 C 6.61 g/m*3 8 C 0 km/h
2810 14-09-2008 00:26:02 8 C 6.53 g/m*3 8 C 0 km/h
2811 14-09-2008 00:31:02 8.1 C 6.57 g/m*3 8.1 C 0 km/h
2812 14-09-2008 00:36:02 8.1 C 6.49 g/m*3 8.1 C 0 km/h
2813 14-09-2008 00:41:02 8.2 C 6.53 g/m*3 8.2 C 0 km/h
2814 14-09-2008 00:46:02 8.2 C 6.36 g/m*3 8.2 C 0 km/h
2815 14-09-2008 00:51:02 8.2 C 6.36 g/m*3 8.2 C 0 km/h
2816 14-09-2008 00:56:02 8.2 C 6.36 g/m*3 8.2 C 0 km/h
2817 14-09-2008 01:01:02 8.2 C 6.28 g/m*3 8.2 C 0 km/h
2818 14-09-2008 01:06:02 8.2 C 6.2 g/m*3 8.2 C 0 km/h
2819 14-09-2008 01:11:02 8.1 C 6.16 g/m*3 8.1 C 0 km/h
2820 14-09-2008 01:16:02 8.1 C 6.16 g/m*3 8.1 C 0 km/h
2821 14-09-2008 01:21:02 8.1 C 6.24 g/m*3 8.1 C 0 km/h
2822 14-09-2008 01:26:02 8.1 C 6.24 g/m*3 8.1 C 0 km/h
2823 14-09-2008 01:31:02 8.1 C 6.24 g/m*3 8.1 C 0 km/h
2824 14-09-2008 01:36:03 8.1 C 6.24 g/m*3 8.1 C 0 km/h
2825 14-09-2008 01:41:03 8.3 C 6.24 g/m*3 8.3 C 0 km/h
Sensor: Nr:Datum:Temp:Abs-Feuchte:Windchill:Wind:
Aussen-T/F 2826 14-09-2008 01:46:03 8.3 C 6.15 g/m*3 8.3 C 0 km/h
2827 14-09-2008 01:51:03 8.4 C 6.19 g/m*3 8.4 C 0 km/h
2828 14-09-2008 01:56:03 8.4 C 6.19 g/m*3 8.4 C 0 km/h
2829 14-09-2008 02:01:03 8.4 C 6.19 g/m*3 8.4 C 0 km/h
2830 14-09-2008 02:06:03 8.5 C 6.23 g/m*3 8.5 C 0 km/h
2831 14-09-2008 02:11:03 8.4 C 6.19 g/m*3 8.4 C 0 km/h
2832 14-09-2008 02:16:03 8.4 C 6.19 g/m*3 8.4 C 0 km/h
2833 14-09-2008 02:21:03 8.4 C 6.28 g/m*3 8.4 C 0 km/h
2834 14-09-2008 02:26:03 8.3 C 6.15 g/m*3 8.3 C 0 km/h
2835 14-09-2008 02:31:03 8.2 C 6.2 g/m*3 8.2 C 0 km/h
2836 14-09-2008 02:36:03 8.2 C 6.2 g/m*3 8.2 C 0 km/h
2837 14-09-2008 02:41:03 8.2 C 6.11 g/m*3 8.2 C 0 km/h
2838 14-09-2008 02:46:03 8.2 C 6.11 g/m*3 8.2 C 0 km/h
2839 14-09-2008 02:51:03 8.2 C 6.11 g/m*3 8.2 C 0 km/h
2840 14-09-2008 02:56:03 8.5 C 6.06 g/m*3 8.5 C 0 km/h
2841 14-09-2008 03:01:03 8.4 C 6.02 g/m*3 8.4 C 0 km/h
2842 14-09-2008 03:06:03 8.5 C 5.98 g/m*3 8.5 C 0 km/h
2843 14-09-2008 03:11:03 8.4 C 6.02 g/m*3 8.4 C 0 km/h
2844 14-09-2008 03:16:04 8.3 C 6.07 g/m*3 8.3 C 0 km/h
2845 14-09-2008 03:21:04 8.3 C 5.98 g/m*3 8.3 C 0 km/h
2846 14-09-2008 03:26:04 8.2 C 6.03 g/m*3 8.2 C 0 km/h
2847 14-09-2008 03:31:04 8.2 C 6.03 g/m*3 8.2 C 0 km/h
2848 14-09-2008 03:36:04 8.2 C 6.03 g/m*3 8.2 C 0 km/h
2849 14-09-2008 03:41:04 8 C 6.04 g/m*3 8 C 0 km/h
2850 14-09-2008 03:46:04 8 C 6.04 g/m*3 8 C 0 km/h
Sensor: Nr:Datum:Temp:Abs-Feuchte:Windchill:Wind:
Aussen-T/F 2851 14-09-2008 03:51:04 8 C 6.04 g/m*3 8 C 0 km/h
2852 14-09-2008 03:56:04 8 C 6.04 g/m*3 8 C 0 km/h
2853 14-09-2008 04:01:04 7.9 C 6.08 g/m*3 7.9 C 0 km/h
2854 14-09-2008 04:06:04 7.8 C 6.04 g/m*3 7.8 C 0 km/h
2855 14-09-2008 04:11:04 7.7 C 6.08 g/m*3 7.7 C 0 km/h
2856 14-09-2008 04:16:04 7.5 C 6.08 g/m*3 7.5 C 0 km/h
2857 14-09-2008 04:21:04 7.4 C 6.12 g/m*3 7.4 C 0 km/h
2858 14-09-2008 04:26:04 7.3 C 6.08 g/m*3 7.3 C 0 km/h
2859 14-09-2008 04:31:04 7.2 C 6.12 g/m*3 7.2 C 0 km/h
2860 14-09-2008 04:36:04 7.2 C 6.12 g/m*3 7.2 C 0 km/h
2861 14-09-2008 04:41:04 7.1 C 6.08 g/m*3 7.1 C 0 km/h
2862 14-09-2008 04:46:04 7 C 6.12 g/m*3 7 C 0 km/h
2863 14-09-2008 04:51:05 7.1 C 6.16 g/m*3 7.1 C 0 km/h
2864 14-09-2008 04:56:05 7.1 C 6.16 g/m*3 7.1 C 0 km/h
2865 14-09-2008 05:01:05 7.3 C 6.16 g/m*3 7.3 C 0 km/h
2866 14-09-2008 05:06:05 7.3 C 6.16 g/m*3 7.3 C 0 km/h
2867 14-09-2008 05:11:05 7.7 C 6.32 g/m*3 7.7 C 0 km/h
2868 14-09-2008 05:16:05 7.3 C 6.08 g/m*3 7.3 C 0 km/h
2869 14-09-2008 05:21:05 7.1 C 6.01 g/m*3 7.1 C 0 km/h
2870 14-09-2008 05:26:05 7.1 C 6.08 g/m*3 7.1 C 0 km/h
2871 14-09-2008 05:31:05 7.1 C 6.01 g/m*3 7.1 C 0 km/h
2872 14-09-2008 05:36:05 6.9 C 6 g/m*3 6.9 C 0 km/h
2873 14-09-2008 05:41:05 6.9 C 6.08 g/m*3 6.9 C 0 km/h
2874 14-09-2008 05:46:05 6.8 C 6.12 g/m*3 6.8 C 0 km/h
2875 14-09-2008 05:51:05 6.8 C 6.12 g/m*3 6.8 C 0 km/h
Sensor: Nr:Datum:Temp:Abs-Feuchte:Windchill:Wind:
Aussen-T/F 2876 14-09-2008 05:56:05 6.8 C 6.12 g/m*3 6.8 C 0 km/h
2877 14-09-2008 06:01:05 6.8 C 6.19 g/m*3 6.8 C 0 km/h
2878 14-09-2008 06:06:05 6.8 C 6.12 g/m*3 6.8 C 0 km/h
2879 14-09-2008 06:11:05 6.8 C 6.19 g/m*3 6.8 C 0 km/h
2880 14-09-2008 06:16:05 6.7 C 6.15 g/m*3 6.7 C 0 km/h
2881 14-09-2008 06:21:05 6.7 C 6.15 g/m*3 6.7 C 0 km/h
2882 14-09-2008 06:26:06 6.8 C 6.12 g/m*3 6.8 C 0 km/h
2883 14-09-2008 06:31:06 6.8 C 6.04 g/m*3 6.8 C 0 km/h
2884 14-09-2008 06:36:06 6.8 C 5.97 g/m*3 6.8 C 0 km/h
2885 14-09-2008 06:41:06 6.7 C 5.93 g/m*3 6.7 C 0 km/h
2886 14-09-2008 06:46:06 6.6 C 5.96 g/m*3 6.6 C 0 km/h
2887 14-09-2008 06:51:06 6.5 C 6 g/m*3 6.5 C 0 km/h
2888 14-09-2008 06:56:06 6.4 C 5.96 g/m*3 6.4 C 0 km/h
2889 14-09-2008 07:01:02 6.4 C 5.96 g/m*3 6.4 C 0 km/h
2890 14-09-2008 07:06:02 6.2 C 5.96 g/m*3 6.2 C 0 km/h
2891 14-09-2008 07:11:02 6 C 5.88 g/m*3 6 C 0 km/h
2892 14-09-2008 07:16:02 5.9 C 5.98 g/m*3 5.9 C 0 km/h
2893 14-09-2008 07:21:02 5.8 C 5.95 g/m*3 5.8 C 0 km/h
2894 14-09-2008 07:26:02 5.8 C 5.95 g/m*3 5.8 C 0 km/h
2895 14-09-2008 07:31:01 5.8 C 6.02 g/m*3 5.8 C 0 km/h
2896 14-09-2008 07:36:01 5.8 C 6.02 g/m*3 5.8 C 0 km/h
2897 14-09-2008 07:41:01 5.7 C 5.98 g/m*3 5.7 C 0 km/h
2898 14-09-2008 07:46:02 5.8 C 6.09 g/m*3 5.8 C 0 km/h
2899 14-09-2008 07:51:02 5.8 C 6.09 g/m*3 5.8 C 0 km/h
2900 14-09-2008 07:56:02 5.8 C 6.09 g/m*3 5.8 C 0 km/h
Sensor: Nr:Datum:Temp:Abs-Feuchte:Windchill:Wind:
Aussen-T/F 2901 14-09-2008 08:01:02 5.8 C 6.09 g/m*3 5.8 C 0 km/h
2902 14-09-2008 08:06:02 5.7 C 6.05 g/m*3 5.7 C 0 km/h
2903 14-09-2008 08:11:02 5.7 C 6.12 g/m*3 5.7 C 0 km/h
2904 14-09-2008 08:16:01 5.8 C 6.16 g/m*3 5.8 C 0 km/h
2905 14-09-2008 08:21:01 5.9 C 6.2 g/m*3 5.9 C 0 km/h
2906 14-09-2008 08:26:01 5.9 C 6.2 g/m*3 5.9 C 0 km/h
2907 14-09-2008 08:31:02 5.9 C 6.27 g/m*3 5.9 C 0 km/h
2908 14-09-2008 08:36:03 5.9 C 6.27 g/m*3 5.9 C 0 km/h
2909 14-09-2008 08:41:03 5.9 C 6.27 g/m*3 5.9 C 0 km/h
2910 14-09-2008 08:46:02 6 C 6.24 g/m*3 6 C 0 km/h
2911 14-09-2008 08:51:02 6.2 C 6.4 g/m*3 6.2 C 0 km/h
2912 14-09-2008 08:56:02 6.2 C 6.4 g/m*3 6.2 C 0 km/h
2913 14-09-2008 09:01:02 6.3 C 6.44 g/m*3 6.3 C 0 km/h
2914 14-09-2008 09:06:02 6.4 C 6.48 g/m*3 6.4 C 0 km/h
2915 14-09-2008 09:11:02 6.6 C 6.64 g/m*3 6.6 C 0 km/h
2916 14-09-2008 09:16:02 6.7 C 6.69 g/m*3 6.7 C 0 km/h
2917 14-09-2008 09:21:02 6.8 C 6.65 g/m*3 6.8 C 0 km/h
2918 14-09-2008 09:26:03 7 C 6.66 g/m*3 7 C 0 km/h
2919 14-09-2008 09:31:01 7.1 C 6.71 g/m*3 7.1 C 0 km/h
2920 14-09-2008 09:36:01 7.3 C 6.79 g/m*3 7.3 C 0 km/h
2921 14-09-2008 09:41:01 7.6 C 6.85 g/m*3 7.6 C 0 km/h
2922 14-09-2008 09:46:02 7.6 C 6.85 g/m*3 7.6 C 0 km/h
2923 14-09-2008 09:51:02 7.7 C 6.89 g/m*3 7.7 C 0 km/h
2924 14-09-2008 09:56:02 8.1 C 6.91 g/m*3 8.1 C 0 km/h
2925 14-09-2008 10:01:02 8.4 C 7.04 g/m*3 8.4 C 0 km/h
Sensor: Nr:Datum:Temp:Abs-Feuchte:Windchill:Wind:
Aussen-T/F 2926 14-09-2008 10:06:02 8.5 C 7.09 g/m*3 8.5 C 0 km/h
2927 14-09-2008 10:11:02 8.8 C 7.14 g/m*3 8.8 C 0 km/h
2928 14-09-2008 10:16:01 9.2 C 7.05 g/m*3 9.2 C 0 km/h
2929 14-09-2008 10:21:01 9.4 C 7.05 g/m*3 9.4 C 0 km/h
2930 14-09-2008 10:26:01 9.6 C 6.96 g/m*3 9.6 C 0 km/h
2931 14-09-2008 10:31:02 9.8 C 6.96 g/m*3 9.8 C 0 km/h
2932 14-09-2008 10:36:02 10 C 6.86 g/m*3 10 C 0 km/h
2933 14-09-2008 10:41:03 10.3 C 6.7 g/m*3 10.3 C 0 km/h
2934 14-09-2008 10:46:02 10.7 C 6.48 g/m*3 10.7 C 0 km/h
2935 14-09-2008 10:51:02 10.9 C 6.56 g/m*3 10.9 C 0 km/h
2936 14-09-2008 10:56:02 11.1 C 6.25 g/m*3 11.1 C 0 km/h
2937 14-09-2008 11:01:03 11.4 C 6.16 g/m*3 11.4 C 0 km/h
2938 14-09-2008 11:06:03 11.8 C 6.1 g/m*3 11.8 C 0 km/h
2939 14-09-2008 11:11:03 12 C 6.18 g/m*3 12 C 0 km/h
2940 14-09-2008 11:16:02 12.2 C 5.5 g/m*3 12.2 C 0 km/h
2941 14-09-2008 11:21:02 12.5 C 5.5 g/m*3 12.5 C 0 km/h
2942 14-09-2008 11:26:03 12.6 C 5.42 g/m*3 12.6 C 0 km/h
2943 14-09-2008 11:31:02 12.8 C 5.6 g/m*3 12.8 C 0 km/h
2944 14-09-2008 11:36:02 13.1 C 5.36 g/m*3 13.1 C 0 km/h
2945 14-09-2008 11:41:02 13.2 C 5.4 g/m*3 13.2 C 0 km/h
2946 14-09-2008 11:46:02 13.6 C 5.41 g/m*3 13.6 C 0 km/h
2947 14-09-2008 11:51:02 13.7 C 5.09 g/m*3 13.7 C 0 km/h
2948 14-09-2008 11:56:02 13.7 C 5.09 g/m*3 13.7 C 0 km/h
2949 14-09-2008 12:01:02 14.1 C 4.85 g/m*3 14.1 C 0 km/h
2950 14-09-2008 12:06:02 14.3 C 4.79 g/m*3 14.3 C 0 km/h
Sensor: Nr:Datum:Temp:Abs-Feuchte:Windchill:Wind:
Aussen-T/F 2951 14-09-2008 12:11:02 14.4 C 4.7 g/m*3 14.4 C 0 km/h
2952 14-09-2008 12:16:02 14.5 C 4.6 g/m*3 14.5 C 0 km/h
2953 14-09-2008 12:21:02 14.7 C 4.78 g/m*3 14.7 C 0 km/h
2954 14-09-2008 12:26:02 14.6 C 4.63 g/m*3 14.6 C 0 km/h
2955 14-09-2008 12:31:02 14.6 C 4.63 g/m*3 14.6 C 0 km/h
2956 14-09-2008 12:36:02 14.2 C 4.52 g/m*3 14.2 C 0 km/h
2957 14-09-2008 12:41:02 14.2 C 4.88 g/m*3 14.2 C 0 km/h
2958 14-09-2008 12:46:02 14.4 C 4.7 g/m*3 14.4 C 0 km/h
2959 14-09-2008 12:51:02 14.9 C 4.72 g/m*3 14.9 C 0 km/h
2960 14-09-2008 12:56:02 15.3 C 4.83 g/m*3 15.3 C 0 km/h
2961 14-09-2008 13:01:01 15.8 C 4.71 g/m*3 15.8 C 0 km/h
2962 14-09-2008 13:06:01 16 C 4.77 g/m*3 16 C 0 km/h
2963 14-09-2008 13:11:01 16.4 C 5.02 g/m*3 16.4 C 0 km/h
2964 14-09-2008 13:16:02 16.1 C 4.8 g/m*3 16.1 C 0 km/h
2965 14-09-2008 13:21:02 15.9 C 4.74 g/m*3 15.9 C 0 km/h
2966 14-09-2008 13:26:02 15.5 C 4.76 g/m*3 15.5 C 0 km/h
2967 14-09-2008 13:31:01 15.2 C 4.67 g/m*3 15.2 C 0 km/h
2968 14-09-2008 13:36:01 15.1 C 4.64 g/m*3 15.1 C 0 km/h
2969 14-09-2008 13:41:01 15.8 C 5.12 g/m*3 15.8 C 0 km/h
2970 14-09-2008 13:46:01 16.3 C 4.86 g/m*3 16.3 C 0 km/h
2971 14-09-2008 13:51:01 16.5 C 5.06 g/m*3 16.5 C 0 km/h
2972 14-09-2008 13:56:01 16.9 C 4.75 g/m*3 16.9 C 0 km/h
2973 14-09-2008 14:01:02 17.4 C 4.74 g/m*3 17.4 C 0 km/h
2974 14-09-2008 14:06:03 17 C 4.63 g/m*3 17 C 0 km/h
2975 14-09-2008 14:11:03 16.8 C 4.58 g/m*3 16.8 C 0 km/h
Sensor: Nr:Datum:Temp:Abs-Feuchte:Windchill:Wind:
Aussen-T/F 2976 14-09-2008 14:16:01 17.5 C 4.92 g/m*3 17.5 C 0 km/h
2977 14-09-2008 14:21:01 18.3 C 4.85 g/m*3 18.3 C 0 km/h
2978 14-09-2008 14:26:01 18.6 C 4.62 g/m*3 18.6 C 0 km/h
2979 14-09-2008 14:31:02 18.9 C 4.86 g/m*3 18.9 C 0 km/h
2980 14-09-2008 14:36:02 19.1 C 4.92 g/m*3 19.1 C 0 km/h
2981 14-09-2008 14:41:02 19.4 C 5.01 g/m*3 19.4 C 0 km/h
2982 14-09-2008 14:46:01 19.6 C 4.56 g/m*3 19.6 C 0 km/h
2983 14-09-2008 14:51:01 19.5 C 4.53 g/m*3 19.5 C 0 km/h
2984 14-09-2008 14:56:01 19.3 C 4.81 g/m*3 19.3 C 0 km/h
2985 14-09-2008 15:01:02 19.3 C 4.64 g/m*3 19.3 C 0 km/h
2986 14-09-2008 15:06:02 19.3 C 4.81 g/m*3 19.3 C 0 km/h
2987 14-09-2008 15:11:02 19.1 C 4.43 g/m*3 19.1 C 0 km/h
2988 14-09-2008 15:16:02 19 C 4.73 g/m*3 19 C 0 km/h
2989 14-09-2008 15:21:02 19 C 4.73 g/m*3 19 C 0 km/h
2990 14-09-2008 15:26:02 18.7 C 4.64 g/m*3 18.7 C 0 km/h
2991 14-09-2008 15:31:01 18.5 C 4.75 g/m*3 18.5 C 0 km/h
2992 14-09-2008 15:36:01 18.5 C 4.9 g/m*3 18.5 C 0 km/h
2993 14-09-2008 15:41:01 18.2 C 4.82 g/m*3 18.2 C 0 km/h
2994 14-09-2008 15:46:02 18.1 C 4.79 g/m*3 18.1 C 0 km/h
2995 14-09-2008 15:51:02 17.9 C 4.89 g/m*3 17.9 C 0 km/h
2996 14-09-2008 15:56:02 17.8 C 5.01 g/m*3 17.8 C 0 km/h
2997 14-09-2008 16:01:02 18.1 C 5.25 g/m*3 18.1 C 0 km/h
2998 14-09-2008 16:06:02 18.5 C 5.22 g/m*3 18.5 C 0 km/h
2999 14-09-2008 16:11:02 19.1 C 4.92 g/m*3 19.1 C 0 km/h
3000 14-09-2008 16:16:02 18.8 C 4.83 g/m*3 18.8 C 0 km/h
Sensor: Nr:Datum:Temp:Abs-Feuchte:Windchill:Wind:
Aussen-T/F 3001 14-09-2008 16:21:02 18.9 C 4.86 g/m*3 18.9 C 0 km/h
3002 14-09-2008 16:26:02 18.7 C 4.8 g/m*3 18.7 C 0 km/h
3003 14-09-2008 16:31:01 18.6 C 4.77 g/m*3 18.6 C 0 km/h
3004 14-09-2008 16:36:01 18.5 C 4.75 g/m*3 18.5 C 0 km/h
3005 14-09-2008 16:41:01 19 C 4.89 g/m*3 19 C 0 km/h
3006 14-09-2008 16:46:02 20 C 5.01 g/m*3 20 C 0 km/h
3007 14-09-2008 16:51:02 20 C 4.84 g/m*3 20 C 0 km/h
3008 14-09-2008 16:56:02 20.3 C 4.75 g/m*3 20.3 C 0 km/h
3009 14-09-2008 17:01:02 21.3 C 4.66 g/m*3 21.3 C 0 km/h
3010 14-09-2008 17:06:02 20.6 C 4.47 g/m*3 20.6 C 0 km/h
3011 14-09-2008 17:11:02 20.4 C 4.6 g/m*3 20.4 C 0 km/h
3012 14-09-2008 17:16:02 19.7 C 4.75 g/m*3 19.7 C 0 km/h
3013 14-09-2008 17:21:02 19.2 C 4.95 g/m*3 19.2 C 0 km/h
3014 14-09-2008 17:26:02 18.7 C 4.8 g/m*3 18.7 C 0 km/h
3015 14-09-2008 17:31:02 18.4 C 5.35 g/m*3 18.4 C 0 km/h
3016 14-09-2008 17:36:02 18.2 C 5.44 g/m*3 18.2 C 0 km/h
3017 14-09-2008 17:41:02 18 C 5.53 g/m*3 18 C 0 km/h
3018 14-09-2008 17:46:02 17.7 C 5.73 g/m*3 17.7 C 0 km/h
3019 14-09-2008 17:51:02 17.6 C 5.55 g/m*3 17.6 C 0 km/h
3020 14-09-2008 17:56:02 17.9 C 6.11 g/m*3 17.9 C 0 km/h
3021 14-09-2008 18:01:02 17.9 C 6.11 g/m*3 17.9 C 0 km/h
3022 14-09-2008 18:06:02 17.8 C 5.62 g/m*3 17.8 C 0 km/h
3023 14-09-2008 18:11:03 17.6 C 5.55 g/m*3 17.6 C 0 km/h
3024 14-09-2008 18:16:01 17.5 C 5.52 g/m*3 17.5 C 0 km/h
3025 14-09-2008 18:21:01 17 C 5.5 g/m*3 17 C 0 km/h
Sensor: Nr:Datum:Temp:Abs-Feuchte:Windchill:Wind:
Aussen-T/F 3026 14-09-2008 18:26:01 16.9 C 5.9 g/m*3 16.9 C 0 km/h
3027 14-09-2008 18:31:02 16.8 C 5.72 g/m*3 16.8 C 0 km/h
3028 14-09-2008 18:36:02 16.6 C 5.79 g/m*3 16.6 C 0 km/h
3029 14-09-2008 18:41:02 16.1 C 5.35 g/m*3 16.1 C 0 km/h
3030 14-09-2008 18:46:02 16 C 5.18 g/m*3 16 C 0 km/h
3031 14-09-2008 18:51:02 15.8 C 5.25 g/m*3 15.8 C 0 km/h
3032 14-09-2008 18:56:02 15.5 C 5.42 g/m*3 15.5 C 0 km/h
3033 14-09-2008 19:01:02 15.4 C 5.39 g/m*3 15.4 C 0 km/h
3034 14-09-2008 19:06:02 15.3 C 5.35 g/m*3 15.3 C 0 km/h
3035 14-09-2008 19:11:02 15.2 C 5.58 g/m*3 15.2 C 0 km/h
3036 14-09-2008 19:16:02 15 C 5.26 g/m*3 15 C 0 km/h
3037 14-09-2008 19:21:02 14.9 C 5.48 g/m*3 14.9 C 0 km/h
3038 14-09-2008 19:26:02 14.8 C 5.57 g/m*3 14.8 C 0 km/h
3039 14-09-2008 19:31:02 14.7 C 5.67 g/m*3 14.7 C 0 km/h
3040 14-09-2008 19:36:02 14.4 C 5.81 g/m*3 14.4 C 0 km/h
3041 14-09-2008 19:41:02 14.3 C 5.65 g/m*3 14.3 C 0 km/h
3042 14-09-2008 19:46:02 14.1 C 5.34 g/m*3 14.1 C 0 km/h
3043 14-09-2008 19:51:02 13.8 C 5.48 g/m*3 13.8 C 0 km/h
3044 14-09-2008 19:56:03 13.7 C 5.45 g/m*3 13.7 C 0 km/h
3045 14-09-2008 20:01:01 13.5 C 5.38 g/m*3 13.5 C 0 km/h
3046 14-09-2008 20:06:01 13.2 C 5.28 g/m*3 13.2 C 0 km/h
3047 14-09-2008 20:11:01 13.1 C 5.25 g/m*3 13.1 C 0 km/h
3048 14-09-2008 20:16:02 13 C 5.33 g/m*3 13 C 0 km/h
3049 14-09-2008 20:21:02 12.8 C 5.38 g/m*3 12.8 C 0 km/h
3050 14-09-2008 20:26:02 12.7 C 5.57 g/m*3 12.7 C 0 km/h
Sensor: Nr:Datum:Temp:Abs-Feuchte:Windchill:Wind:
Aussen-T/F 3051 14-09-2008 20:31:01 12.5 C 5.72 g/m*3 12.5 C 0 km/h
3052 14-09-2008 20:36:01 12.4 C 5.68 g/m*3 12.4 C 0 km/h
3053 14-09-2008 20:41:01 12.3 C 5.65 g/m*3 12.3 C 0 km/h
3054 14-09-2008 20:46:01 12.2 C 5.61 g/m*3 12.2 C 0 km/h
3055 14-09-2008 20:51:01 12.3 C 5.75 g/m*3 12.3 C 0 km/h
3056 14-09-2008 20:56:01 12.2 C 5.83 g/m*3 12.2 C 0 km/h
3057 14-09-2008 21:01:02 12.2 C 5.94 g/m*3 12.2 C 0 km/h
3058 14-09-2008 21:06:02 12.3 C 6.08 g/m*3 12.3 C 0 km/h
3059 14-09-2008 21:11:02 12.4 C 6.01 g/m*3 12.4 C 0 km/h
3060 14-09-2008 21:16:01 12.2 C 5.94 g/m*3 12.2 C 0 km/h
3061 14-09-2008 21:21:01 12.4 C 6.01 g/m*3 12.4 C 0 km/h
3062 14-09-2008 21:26:01 12.4 C 6.01 g/m*3 12.4 C 0 km/h
3063 14-09-2008 21:31:02 12.2 C 6.04 g/m*3 12.2 C 0 km/h
3064 14-09-2008 21:36:02 12.2 C 6.04 g/m*3 12.2 C 0 km/h
3065 14-09-2008 21:41:02 12.4 C 6.23 g/m*3 12.4 C 0 km/h
3066 14-09-2008 21:46:02 12.4 C 6.23 g/m*3 12.4 C 0 km/h
3067 14-09-2008 21:51:02 12.4 C 6.12 g/m*3 12.4 C 0 km/h
3068 14-09-2008 21:56:02 12.2 C 6.04 g/m*3 12.2 C 0 km/h
3069 14-09-2008 22:02:02 12.2 C 6.15 g/m*3 12.2 C 0 km/h
3070 14-09-2008 22:07:02 12.2 C 6.15 g/m*3 12.2 C 0 km/h
3071 14-09-2008 22:12:02 12.1 C 6.11 g/m*3 12.1 C 0 km/h
3072 14-09-2008 22:17:02 12.1 C 6.33 g/m*3 12.1 C 0 km/h
3073 14-09-2008 22:22:02 12.1 C 6.33 g/m*3 12.1 C 0 km/h
3074 14-09-2008 22:27:02 12.1 C 6.43 g/m*3 12.1 C 0 km/h
3075 14-09-2008 22:32:02 12 C 6.39 g/m*3 12 C 0 km/h
Sensor: Nr:Datum:Temp:Abs-Feuchte:Windchill:Wind:
Aussen-T/F 3076 14-09-2008 22:37:02 11.8 C 6.31 g/m*3 11.8 C 0 km/h
3077 14-09-2008 22:42:02 11.7 C 6.48 g/m*3 11.7 C 0 km/h
3078 14-09-2008 22:47:02 11.5 C 6.4 g/m*3 11.5 C 0 km/h
3079 14-09-2008 22:52:02 11.3 C 6.32 g/m*3 11.3 C 0 km/h
3080 14-09-2008 22:57:03 11.2 C 6.28 g/m*3 11.2 C 0 km/h
3081 14-09-2008 23:02:03 11 C 6.31 g/m*3 11 C 0 km/h
3082 14-09-2008 23:07:03 10.9 C 6.47 g/m*3 10.9 C 0 km/h
3083 14-09-2008 23:12:03 10.8 C 6.42 g/m*3 10.8 C 0 km/h
3084 14-09-2008 23:17:03 10.8 C 6.52 g/m*3 10.8 C 0 km/h
3085 14-09-2008 23:22:03 10.9 C 6.56 g/m*3 10.9 C 0 km/h
3086 14-09-2008 23:27:03 10.8 C 6.52 g/m*3 10.8 C 0 km/h
3087 14-09-2008 23:32:03 10.8 C 6.52 g/m*3 10.8 C 0 km/h
3088 14-09-2008 23:37:03 10.7 C 6.48 g/m*3 10.7 C 0 km/h
3089 14-09-2008 23:42:03 10.7 C 6.58 g/m*3 10.7 C 0 km/h
3090 14-09-2008 23:47:03 10.7 C 6.58 g/m*3 10.7 C 0 km/h
3091 14-09-2008 23:52:03 10.5 C 6.6 g/m*3 10.5 C 0 km/h
3092 14-09-2008 23:57:03 10.4 C 6.55 g/m*3 10.4 C 0 km/h
3093 15-09-2008 00:02:03 10.3 C 6.51 g/m*3 10.3 C 0 km/h
3094 15-09-2008 00:07:03 10.1 C 6.43 g/m*3 10.1 C 0 km/h
3095 15-09-2008 00:12:03 9.9 C 6.54 g/m*3 9.9 C 0 km/h
3096 15-09-2008 00:17:03 9.8 C 6.49 g/m*3 9.8 C 0 km/h
3097 15-09-2008 00:22:03 9.7 C 6.55 g/m*3 9.7 C 0 km/h
3098 15-09-2008 00:27:03 9.6 C 6.6 g/m*3 9.6 C 0 km/h
3099 15-09-2008 00:32:03 9.6 C 6.6 g/m*3 9.6 C 0 km/h
3100 15-09-2008 00:37:04 9.4 C 6.51 g/m*3 9.4 C 0 km/h
Sensor: Nr:Datum:Temp:Abs-Feuchte:Windchill:Wind:
Aussen-T/F 3101 15-09-2008 00:42:04 9.3 C 6.56 g/m*3 9.3 C 0 km/h
3102 15-09-2008 00:47:04 9.3 C 6.56 g/m*3 9.3 C 0 km/h
3103 15-09-2008 00:52:04 9.2 C 6.52 g/m*3 9.2 C 0 km/h
3104 15-09-2008 00:57:04 9.1 C 6.57 g/m*3 9.1 C 0 km/h
3105 15-09-2008 01:02:04 9 C 6.52 g/m*3 9 C 0 km/h
3106 15-09-2008 01:07:04 9 C 6.52 g/m*3 9 C 0 km/h
3107 15-09-2008 01:12:04 9 C 6.61 g/m*3 9 C 0 km/h
3108 15-09-2008 01:17:04 9 C 6.61 g/m*3 9 C 0 km/h
3109 15-09-2008 01:22:04 9 C 6.52 g/m*3 9 C 0 km/h
3110 15-09-2008 01:27:04 9.1 C 6.48 g/m*3 9.1 C 0 km/h
3111 15-09-2008 01:32:04 9 C 6.44 g/m*3 9 C 0 km/h
3112 15-09-2008 01:37:04 9 C 6.44 g/m*3 9 C 0 km/h
3113 15-09-2008 01:42:04 8.9 C 6.48 g/m*3 8.9 C 0 km/h
3114 15-09-2008 01:47:04 8.9 C 6.57 g/m*3 8.9 C 0 km/h
3115 15-09-2008 01:52:04 8.9 C 6.48 g/m*3 8.9 C 0 km/h
3116 15-09-2008 01:57:04 8.8 C 6.44 g/m*3 8.8 C 0 km/h
3117 15-09-2008 02:02:04 8.7 C 6.4 g/m*3 8.7 C 0 km/h
3118 15-09-2008 02:07:04 8.7 C 6.49 g/m*3 8.7 C 0 km/h
3119 15-09-2008 02:12:05 8.7 C 6.49 g/m*3 8.7 C 0 km/h
3120 15-09-2008 02:17:05 8.8 C 6.53 g/m*3 8.8 C 0 km/h
3121 15-09-2008 02:22:05 8.8 C 6.53 g/m*3 8.8 C 0 km/h
3122 15-09-2008 02:27:05 8.8 C 6.44 g/m*3 8.8 C 0 km/h
3123 15-09-2008 02:32:05 8.8 C 6.44 g/m*3 8.8 C 0 km/h
3124 15-09-2008 02:37:05 8.7 C 6.31 g/m*3 8.7 C 0 km/h
3125 15-09-2008 02:42:05 8.7 C 6.31 g/m*3 8.7 C 0 km/h
Sensor: Nr:Datum:Temp:Abs-Feuchte:Windchill:Wind:
Aussen-T/F 3126 15-09-2008 02:47:05 8.7 C 6.31 g/m*3 8.7 C 0 km/h
3127 15-09-2008 02:52:05 8.6 C 6.27 g/m*3 8.6 C 0 km/h
3128 15-09-2008 02:57:05 8.6 C 6.27 g/m*3 8.6 C 0 km/h
3129 15-09-2008 03:02:05 8.5 C 6.23 g/m*3 8.5 C 0 km/h
3130 15-09-2008 03:07:05 8.4 C 6.28 g/m*3 8.4 C 0 km/h
3131 15-09-2008 03:12:05 8.2 C 6.28 g/m*3 8.2 C 0 km/h
3132 15-09-2008 03:17:05 8.2 C 6.36 g/m*3 8.2 C 0 km/h
3133 15-09-2008 03:22:05 8.2 C 6.36 g/m*3 8.2 C 0 km/h
3134 15-09-2008 03:27:05 8.3 C 6.49 g/m*3 8.3 C 0 km/h
3135 15-09-2008 03:32:05 8.2 C 6.45 g/m*3 8.2 C 0 km/h
3136 15-09-2008 03:37:05 8.2 C 6.45 g/m*3 8.2 C 0 km/h
3137 15-09-2008 03:42:05 8.2 C 6.53 g/m*3 8.2 C 0 km/h
3138 15-09-2008 03:47:06 8.2 C 6.53 g/m*3 8.2 C 0 km/h
3139 15-09-2008 03:52:06 8.2 C 6.53 g/m*3 8.2 C 0 km/h
3140 15-09-2008 03:57:06 8.1 C 6.49 g/m*3 8.1 C 0 km/h
3141 15-09-2008 04:02:06 8.1 C 6.57 g/m*3 8.1 C 0 km/h
3142 15-09-2008 04:07:06 8 C 6.53 g/m*3 8 C 0 km/h
3143 15-09-2008 04:12:06 7.9 C 6.57 g/m*3 7.9 C 0 km/h
3144 15-09-2008 04:17:06 7.8 C 6.53 g/m*3 7.8 C 0 km/h
3145 15-09-2008 04:22:06 7.7 C 6.49 g/m*3 7.7 C 0 km/h
3146 15-09-2008 04:27:06 7.6 C 6.44 g/m*3 7.6 C 0 km/h
3147 15-09-2008 04:32:06 7.5 C 6.48 g/m*3 7.5 C 0 km/h
3148 15-09-2008 04:37:06 7.4 C 6.44 g/m*3 7.4 C 0 km/h
3149 15-09-2008 04:42:06 7.4 C 6.52 g/m*3 7.4 C 0 km/h
3150 15-09-2008 04:47:06 7.5 C 6.56 g/m*3 7.5 C 0 km/h
Sensor: Nr:Datum:Temp:Abs-Feuchte:Windchill:Wind:
Aussen-T/F 3151 15-09-2008 04:52:06 7.3 C 6.48 g/m*3 7.3 C 0 km/h
3152 15-09-2008 04:57:06 7.3 C 6.56 g/m*3 7.3 C 0 km/h
3153 15-09-2008 05:02:06 7.3 C 6.56 g/m*3 7.3 C 0 km/h
3154 15-09-2008 05:07:06 7.3 C 6.56 g/m*3 7.3 C 0 km/h
3155 15-09-2008 05:12:06 7.2 C 6.52 g/m*3 7.2 C 0 km/h
3156 15-09-2008 05:17:06 7.2 C 6.52 g/m*3 7.2 C 0 km/h
3157 15-09-2008 05:22:07 7.2 C 6.59 g/m*3 7.2 C 0 km/h
3158 15-09-2008 05:27:07 7.3 C 6.64 g/m*3 7.3 C 0 km/h
3159 15-09-2008 05:32:07 7.4 C 6.68 g/m*3 7.4 C 0 km/h
3160 15-09-2008 05:37:07 7.4 C 6.68 g/m*3 7.4 C 0 km/h
3161 15-09-2008 05:42:07 7.2 C 6.59 g/m*3 7.2 C 0 km/h
3162 15-09-2008 05:47:07 7.1 C 6.55 g/m*3 7.1 C 0 km/h
3163 15-09-2008 05:52:07 7 C 6.51 g/m*3 7 C 0 km/h
3164 15-09-2008 05:57:07 6.9 C 6.62 g/m*3 6.9 C 0 km/h
3165 15-09-2008 06:02:07 6.9 C 6.62 g/m*3 6.9 C 0 km/h
3166 15-09-2008 06:07:07 6.9 C 6.62 g/m*3 6.9 C 0 km/h
3167 15-09-2008 06:12:07 6.9 C 6.62 g/m*3 6.9 C 0 km/h
3168 15-09-2008 06:17:07 6.8 C 6.58 g/m*3 6.8 C 0 km/h
3169 15-09-2008 06:22:07 6.8 C 6.58 g/m*3 6.8 C 0 km/h
3170 15-09-2008 06:27:07 6.8 C 6.58 g/m*3 6.8 C 0 km/h
3171 15-09-2008 06:32:07 6.7 C 6.61 g/m*3 6.7 C 0 km/h
3172 15-09-2008 06:37:07 6.6 C 6.57 g/m*3 6.6 C 0 km/h
3173 15-09-2008 06:42:07 6.6 C 6.57 g/m*3 6.6 C 0 km/h
3174 15-09-2008 06:47:07 6.5 C 6.52 g/m*3 6.5 C 0 km/h
3175 15-09-2008 06:52:07 6.4 C 6.48 g/m*3 6.4 C 0 km/h
Sensor: Nr:Datum:Temp:Abs-Feuchte:Windchill:Wind:
Aussen-T/F 3176 15-09-2008 06:57:08 6.4 C 6.48 g/m*3 6.4 C 0 km/h
3177 15-09-2008 07:02:02 6.3 C 6.51 g/m*3 6.3 C 0 km/h
3178 15-09-2008 07:07:02 6.3 C 6.51 g/m*3 6.3 C 0 km/h
3179 15-09-2008 07:12:02 6.2 C 6.47 g/m*3 6.2 C 0 km/h
3180 15-09-2008 07:17:02 6.2 C 6.47 g/m*3 6.2 C 0 km/h
3181 15-09-2008 07:22:02 6.2 C 6.47 g/m*3 6.2 C 0 km/h
3182 15-09-2008 07:27:02 6.2 C 6.47 g/m*3 6.2 C 0 km/h
3183 15-09-2008 07:32:02 6.2 C 6.55 g/m*3 6.2 C 0 km/h
3184 15-09-2008 07:37:02 6.1 C 6.43 g/m*3 6.1 C 0 km/h
3185 15-09-2008 07:42:02 6.1 C 6.5 g/m*3 6.1 C 0 km/h
3186 15-09-2008 07:47:02 6.1 C 6.5 g/m*3 6.1 C 0 km/h
3187 15-09-2008 07:52:02 6.1 C 6.5 g/m*3 6.1 C 0 km/h
3188 15-09-2008 07:57:02 6.1 C 6.5 g/m*3 6.1 C 0 km/h
3189 15-09-2008 08:02:02 6.1 C 6.5 g/m*3 6.1 C 0 km/h
3190 15-09-2008 08:07:02 6.2 C 6.55 g/m*3 6.2 C 0 km/h
3191 15-09-2008 08:12:02 6.2 C 6.55 g/m*3 6.2 C 0 km/h
3192 15-09-2008 08:17:02 6.2 C 6.55 g/m*3 6.2 C 0 km/h
3193 15-09-2008 08:22:02 6.3 C 6.59 g/m*3 6.3 C 0 km/h
3194 15-09-2008 08:27:02 6.3 C 6.59 g/m*3 6.3 C 0 km/h
3195 15-09-2008 08:32:02 6.4 C 6.63 g/m*3 6.4 C 0 km/h
3196 15-09-2008 08:37:02 6.5 C 6.67 g/m*3 6.5 C 0 km/h
3197 15-09-2008 08:42:02 6.6 C 6.72 g/m*3 6.6 C 0 km/h
3198 15-09-2008 08:47:02 6.8 C 6.81 g/m*3 6.8 C 0 km/h
3199 15-09-2008 08:52:03 6.9 C 6.85 g/m*3 6.9 C 0 km/h
3200 15-09-2008 08:57:03 7.1 C 6.86 g/m*3 7.1 C 0 km/h
Sensor: Nr:Datum:Temp:Abs-Feuchte:Windchill:Wind:
Aussen-T/F 3201 15-09-2008 09:02:01 7.3 C 6.95 g/m*3 7.3 C 0 km/h
3202 15-09-2008 09:07:01 7.3 C 6.95 g/m*3 7.3 C 0 km/h
3203 15-09-2008 09:12:01 7.4 C 6.92 g/m*3 7.4 C 0 km/h
3204 15-09-2008 09:17:02 7.6 C 6.93 g/m*3 7.6 C 0 km/h
3205 15-09-2008 09:22:02 7.6 C 6.93 g/m*3 7.6 C 0 km/h
3206 15-09-2008 09:27:02 7.6 C 6.93 g/m*3 7.6 C 0 km/h
3207 15-09-2008 09:32:01 7.7 C 6.89 g/m*3 7.7 C 0 km/h
3208 15-09-2008 09:37:01 7.8 C 6.94 g/m*3 7.8 C 0 km/h
3209 15-09-2008 09:42:01 8 C 6.94 g/m*3 8 C 0 km/h
3210 15-09-2008 09:47:01 8.2 C 7.03 g/m*3 8.2 C 0 km/h
3211 15-09-2008 09:52:01 8.5 C 7.09 g/m*3 8.5 C 0 km/h
3212 15-09-2008 09:57:01 8.7 C 7.09 g/m*3 8.7 C 0 km/h
3213 15-09-2008 10:02:02 9 C 7.05 g/m*3 9 C 0 km/h
3214 15-09-2008 10:07:02 9.2 C 7.05 g/m*3 9.2 C 0 km/h
3215 15-09-2008 10:12:02 9.4 C 7.05 g/m*3 9.4 C 0 km/h
3216 15-09-2008 10:17:01 9.7 C 7.01 g/m*3 9.7 C 0 km/h
3217 15-09-2008 10:22:01 10 C 6.95 g/m*3 10 C 0 km/h
3218 15-09-2008 10:27:01 10 C 6.86 g/m*3 10 C 0 km/h
3219 15-09-2008 10:32:02 10.2 C 6.85 g/m*3 10.2 C 0 km/h
3220 15-09-2008 10:37:02 10.4 C 6.75 g/m*3 10.4 C 0 km/h
3221 15-09-2008 10:42:02 10.7 C 6.88 g/m*3 10.7 C 0 km/h
3222 15-09-2008 10:47:02 10.8 C 6.92 g/m*3 10.8 C 0 km/h
3223 15-09-2008 10:52:03 11.3 C 7.04 g/m*3 11.3 C 0 km/h
3224 15-09-2008 10:57:03 11.8 C 7.05 g/m*3 11.8 C 0 km/h
3225 15-09-2008 11:02:02 12 C 6.93 g/m*3 12 C 0 km/h
Sensor: Nr:Datum:Temp:Abs-Feuchte:Windchill:Wind:
Aussen-T/F 3226 15-09-2008 11:07:02 12.1 C 6.65 g/m*3 12.1 C 0 km/h
3227 15-09-2008 11:12:02 12.1 C 6.54 g/m*3 12.1 C 0 km/h
3228 15-09-2008 11:17:02 12.1 C 6.54 g/m*3 12.1 C 0 km/h
3